Aviation Digital Data Service (ADDS)

Output produced by METARs form (1329 UTC 06 February 2016)
found at http://aviationweather.gov/adds/metars/
 
K04V 061315Z AUTO 00000KT 10SM CLR M12/M18 A3042 RMK AO2
K04W 061312Z AUTO 20006KT 10SM OVC009 M04/M05 A3007 RMK AO2
K05U 061315Z AUTO 21005KT 10SM CLR M15/M17 A3049 RMK A01
K06D 061315Z AUTO 22010KT 10SM OVC070 M03/M04 A2972 RMK AO2
K08D 061335Z AUTO 26012KT 10SM FEW060 SCT075 OVC090 01/M01 A2975 RMK AO2
K0CO 061320Z AUTO 34024G36KT OVC001 M16/M22 A3026 RMK AO2 PWINO
K0E0 061315Z AUTO 02004KT 10SM CLR M09/M13 A3041 RMK AO2 T10951128
K0F2 061315Z AUTO 34006KT 10SM SCT037 00/M03 A3031 RMK AO2 T00001026
K0J4 061258Z AUTO 00000KT 10SM CLR M02/M03 A3035 RMK AO2 SLP279 T10171033
K0S9 061315Z AUTO 00000KT 3/4SM BR BKN001 BKN018 BKN095 M00/M00 A3035 RMK AO2
K0V4 061315Z AUTO 00000KT 10SM CLR M04/M05 A3045 RMK AO1 T10431050
K0VG 061315Z AUTO 00000KT 10SM CLR M04/M05 A3041 RMK AO2
K11R 061315Z AUTO 24003KT 10SM CLR 06/06 A3030 RMK AO2 LTG DSNT SE T00610056
K12N 061254Z AUTO 00000KT M06/M07 A3039 RMK AO1 SLP305 T10561072
K14Y 061324Z AUTO 17007KT 10SM SCT120 M06/M07 A3001 RMK AO2
K18A 061315Z AUTO 04004KT 10SM CLR 00/M03 A3040 RMK AO2 T00011030
K19A 061315Z AUTO 04004KT 10SM CLR 00/M06 A3039 RMK AO2
K1A5 061315Z AUTO 00000KT 10SM CLR M06/M07 A3038 RMK AO2 T10571072
K1A6 061315Z AUTO 00000KT 10SM CLR M04/M05 A3041 RMK AO2 T10451052
K1A9 061315Z AUTO 00000KT 10SM CLR M02/M05 A3037 RMK AO2 T10251046
K1B7 061309Z 05007KT 10SM SKC 07/05 A3035
K1F0 061315Z AUTO 09004KT 10SM SCT010 BKN026 OVC045 04/02 A3032 RMK AO2
K1H2 061315Z AUTO 10003KT 5SM BR SCT065 M02/M03 A3034 RMK AO2 T10201026
K1J0 061258Z AUTO 00000KT 10SM CLR 01/M02 A3034 RMK AO2 SLP261 T00061017
K1K1 061315Z AUTO 32004KT 10SM CLR M03/M04 A3032 RMK AO2 T10341045
K1L0 061315Z AUTO 05004KT 10SM CLR 07/04 A3032 RMK AO2 T00670036
K1M4 061256Z AUTO 00000KT 10SM CLR M01/M02 A3039 RMK AO2 SLP313 T10111022
K1P1 061315Z AUTO 00000KT 10SM CLR M07/M10 A3029 RMK AO2 T10691099
K1R7 061315Z AUTO 00000KT 10SM CLR 02/00 A3036 RMK AO2
K1S5 061315Z AUTO 24010KT 10SM CLR 04/M01 A3030 RMK AO2 T00411009
K1V4 061254Z AUTO M06/M10 A3023 RMK AO1 SLP253 T10561100
K1V6 061315Z AUTO 29013KT 10SM CLR M02/M11 A3025 RMK AO2
K1YT 061258Z AUTO 24011KT 10SM CLR 04/M02 A3026 RMK AO2 SLPNO T00351016 $
K20U 061315Z AUTO 24015G19KT 10SM SCT095 02/M07 A2989 RMK AO2
K20V 061317Z AUTO 00000KT 10SM CLR A3052 RMK AO2
K21D 061314Z AUTO 20007KT 10SM OVC010 M03/M05 A3013 RMK AO2
K22N 061315Z AUTO 00000KT 10SM CLR M06/M07 A3042 RMK AO2
K24J 061315Z AUTO 04008KT 10SM 08/01 A3030 RMK AO1
K28J 061315Z AUTO 03005KT 10SM OVC065 09/07 A3025 RMK AO2 TSNO
K2C8 061315Z AUTO 20008KT 10SM SCT095 M05/M07 A2981 RMK AO2
K2D5 061315Z AUTO 20011KT 10SM OVC110 M04/M05 A2990 RMK AO2
K2DP 061256Z AUTO 35006KT 10SM FEW050 03/01 A3045 RMK AO2 SLPNO T00300007 $
K2G4 061320Z AUTO 21006KT 10SM CLR M05/M11 A3026 RMK AO1
K2G9 061315Z AUTO 19005KT 10SM CLR M04/M10 A3028 RMK AO2
K2I0 061315Z AUTO 20005KT 10SM CLR M02/M04 A3036 RMK AO2 T10221039
K2J9 061315Z AUTO 06004KT 10SM BKN050 03/M02 A3031 RMK AO1
K2V5 061335Z AUTO 25005KT 10SM CLR M10/M14 A3022 RMK AO2 T11051145
K2W6 061324Z AUTO 00000KT 10SM CLR M01/M04 A3049 RMK AO1
K2WX 061256Z AUTO 23006KT 00/M08 A2986 RMK AO1 SLP141 T00001078
K33V 061316Z AUTO 15008KT 10SM CLR M13/M17 A3038 RMK AO2
K36U 061315Z AUTO 00000KT 4SM BR CLR M18/M20 A3053 RMK AO2
K3AU 061315Z AUTO 32004KT 10SM CLR M03/M04 A3032 RMK AO2
K3D2 061315Z AUTO 26007KT 10SM OVC024 M04/M06 A3011 RMK AO2 T10411061
K3J7 061315Z AUTO 00000KT 10SM CLR 00/M01 A3034 RMK AO2
K3K3 061315Z AUTO 26007KT 10SM CLR M08/M10 A3032 RMK AO2
K3LF 061315Z AUTO 16004KT 7SM CLR M03/M05 A3031 RMK AO2 T10291050
K3N8 061315Z AUTO 16007KT 10SM CLR M06/M08 A2989 RMK AO2 T10561077
K3R7 061316Z AUTO 00000KT 10SM SCT120 04/02 A3033 RMK AO2 LTG DSNT SW
K3T5 061315Z AUTO 24003KT 10SM CLR 06/04 A3029 RMK AO2 LTG DSNT SE T00550035
K40B 061316Z AUTO 00000KT M16/M18 A3011 RMK AO1 SLP242 T11601178 50006
K40J 061315Z AUTO 03005KT 10SM SCT048 OVC065 07/00 A3029 RMK AO2 T00701002
K42J 061315Z AUTO 03012G16KT 10SM SCT060 08/02 A3025 RMK AO1 TSNO
K46D 061315Z AUTO 24011KT 10SM OVC110 M01/M02 A2981 RMK AO2
K46U 061300Z AUTO 00000KT 10SM OVC033 M04/M05 A3045 RMK A01
K49A 061315Z AUTO 02004KT 10SM CLR A3039 RMK AO2
K4A6 061315Z AUTO 00000KT 10SM CLR M02/M04 A3041 RMK AO2
K4A7 061315Z AUTO 00000KT 10SM CLR 00/M04 A3037 RMK AO2 T00021044
K4A9 061315Z AUTO 00000KT 10SM SCT120 M02/M05 A3038 RMK AO2
K4BM 061316Z AUTO 32017G29KT 10SM CLR M07/M16 A3027 RMK AO2
K4I3 061316Z AUTO 23003KT 7SM CLR M05/M05 A3030 RMK AO2
K4I7 061315Z AUTO 00000KT 4SM BR SCT060 OVC070 M06/M08 A3033 RMK AO2
K4M9 061315Z AUTO 00000KT 10SM CLR M02/M03 A3038 RMK AO2
K4MR 061258Z AUTO 24003KT 10SM CLR M08/M11 A3036 RMK AO2 SLP307 T10781108 $
K4O4 061315Z AUTO 07005KT 10SM CLR 01/M05 A3031 RMK AO2
K4V0 061315Z AUTO 00000KT 10SM CLR M24/M26 A3054 RMK AO2 T12391265
K54J 061315Z AUTO 36004KT 10SM CLR 00/M03 A3034 RMK AO2 T10021028
K5A6 061315Z AUTO 00000KT 10SM CLR 01/00 A3037 RMK AO2 T00051005
K5C1 061315Z AUTO 32010G15KT 10SM CLR 04/M05 A3036 RMK AO1
K5H4 061315Z AUTO 24013KT 10SM SCT110 00/M03 A2979 RMK AO2 P0033 PWINO PNO
K5M9 061315Z AUTO 21004KT 10SM CLR 00/M05 A3034 RMK AO2 T10051052
K5R8 061315Z AUTO 00000KT 10SM VCTS BKN065 OVC075 04/00 A3031 RMK AO2 LTG DSNT SW AND W T00350000
K5SM 061315Z AUTO 00000KT 10SM CLR M10/M12 RMK AO2
K5T9 061315Z AUTO 29006KT 10SM 03/M05 A3045 RMK A01
K65S 061315Z AUTO 19004KT 10SM SCT048 SCT075 BKN090 04/M02 A3008 RMK AO2
K66R 061315Z AUTO 24003KT 10SM CLR 04/04 A3029 RMK AO2 LTG DSNT SE P0001 T00410040
K6A1 061315Z AUTO 30003KT 10SM 02/M02 A3034 RMK AO2 T00161019
K6A2 061315Z AUTO 04003KT 10SM CLR 00/M06 A3036 RMK AO2
K6B0 061315Z AUTO 18009KT 10SM SCT050 OVC080 M03/M08 A3027 RMK AO2 T10261077
K6I2 061310Z AUTO 17007KT 10SM CLR 00/M09 A3036 RMK AO2
K6L4 061315Z AUTO 00000KT 10SM CLR M01/M09 A3035 RMK AO2
K6R3 061315Z AUTO 00000KT 4SM BR SCT120 04/04 A3030 RMK AO2 LTG DSNT E AND S T00400040
K6R6 061253Z AUTO 25003KT 02/M08 A3043 RMK AO1 SLP299 T00171083
K79J 061256Z AUTO 00000KT 10SM CLR 02/M05 A3034 RMK AO2 SLP274 T00171050
K7BM 061315Z AUTO 28012G22KT 250V310 10SM CLR M05/M13 A3031 RMK AO2
K7L2 061315Z AUTO 21004KT 10SM FEW120 00/M03 A2991 RMK AO2
K7N0 061315Z AUTO 10SM CLR 08/00 A3034 RMK AO1
K7R3 061230Z 09004KT 10SM SCT110 06/00 A3031
K7W4 061315Z AUTO 00000KT 10SM CLR M05/M07 A3046 RMK AO1 T10491066
K7W6 061315Z AUTO 35003KT 10SM CLR 03/00 A3044 RMK AO2 T00310000
K82C 061315Z AUTO 23003KT 7SM OVC010 M03/M04 A3016 RMK AO2 T10271043
K82V 061315Z AUTO 25010KT 10SM CLR M03/M10 A3018 RMK AO2
K8A0 061315Z AUTO 03003KT 10SM BKN120 00/M01 A3036 RMK AO2
K8D3 061256Z AUTO 25016KT M01/M05 A2994 RMK AO1 SLP161 T10061050
K8W2 061315Z AUTO 00000KT 10SM CLR M04/M06 A3040 RMK AO1 T10401061
K96D 061315Z AUTO 15005KT 10SM CLR M04/M04 A2979 RMK AO2
K9A5 061315Z AUTO 00000KT 10SM CLR M02/M06 A3041 RMK AO2 T10191059
K9D7 061255Z AUTO 21007KT 10SM OVC080 M03/M04 A2978 RMK AO2
K9F2 061051Z 34007KT 7SM SKC 07/03 A3036
K9L2 061256Z AUTO 00000KT 10SM CLR M01/M07 A3041 RMK AO2 SLP307 T10111067 FZRANO $
K9MN 061313Z AUTO 23006KT 10SM OVC008 M03/M04 A3016 RMK AO1 T10311041
K9V9 061315Z AUTO 22007KT 10SM CLR M05/M07 A3005 RMK AO2 T10521071
KA08 061315Z AUTO 00000KT 10SM CLR M02/M03 A3038 RMK AO2 T10251031
KAAA 061315Z AUTO 00000KT 5SM BR CLR M03/M04 A3032 RMK AO2 T10351041
KAAF 061253Z AUTO 05005KT 10SM OVC042 06/00 A3030 RMK AO2 SLP260 T00610000 $
KAAO 061254Z AUTO 29005KT 10SM CLR M03/M04 A3031 RMK AO2 SLP278 T10281039
KAAT 061255Z AUTO 27003KT 10SM FEW080 M03/M04 A3043 RMK AO2 SLP322 T10331044
KABE 061251Z 00000KT 10SM CLR M05/M08 A3041 RMK AO2 SLP304 T10501078 $
KABI 061252Z 30012KT 10SM CLR 01/M06 A3037 RMK AO2 SLP284 T00111056
KABQ 061252Z 01009KT 10SM CLR M03/M11 A3047 RMK AO2 SLP331 T10281111
KABR 061253Z AUTO 18010KT 10SM CLR M04/M07 A2997 RMK AO2 SLP167 T10441067
KABY 061253Z 06005KT 10SM CLR 02/M02 A3034 RMK AO2 SLP275 T00221017 $
KACB 061316Z AUTO 19004KT 2SM -SN OVC013 M03/M04 A3013 RMK AO2 T10281045
KACJ 061315Z AUTO 04006KT 10SM CLR 00/M01 A3035 RMK AO2
KACK 061253Z 32005KT 10SM CLR M01/M06 A3039 RMK AO2 SLP290 T10111056
KACP 061315Z AUTO 00000KT 10SM 02/01 A3033 RMK AO2 T00150008
KACQ 061315Z AUTO 20013KT 3SM -SN OVC003 M04/M05 A3015 RMK AO2
KACT 061251Z 29009KT 10SM CLR 02/M03 A3027 RMK AO2 SLP249 T00221028
KACV 061253Z AUTO 10005KT 10SM BKN080 10/07 A3040 RMK AO2 SLP299 T01000072
KACY 061254Z 00000KT 10SM CLR M04/M06 A3045 RMK AO2 SLP311 T10391061
KADC 061315Z AUTO 17005KT 10SM SCT120 M07/M07 A2996 RMK AO2
KADF 061256Z AUTO 00000KT 10SM CLR M02/M02 A3036 RMK AO2 T10161022 SLP297
KADG 061253Z AUTO 23006KT 6SM HZ FEW070 M01/M07 A3029 RMK AO2 SLP268 T10061067
KADH 061315Z AUTO 08003KT 10SM CLR 02/01 A3033 RMK AO2
KADM 061255Z 06006KT 10SM BKN038 OVC055 05/03 A3032 RMK RWY 31 / ATIS C
KADS 061035Z AUTO 09003KT 10SM CLR 06/03 A3023 RMK AO2 T00570031
KADU 061315Z AUTO 29003KT 1 1/2SM BR OVC004 M03/M04 A3023 RMK AO2 P0001
KADW 061258Z AUTO 18002KT 10SM CLR M04/M06 A3044 RMK AO2 SLP318 T10381058
KAEG 061248Z 34004KT 10SM SKC M09/M13 A3046
KAEJ 061315Z AUTO 00000KT 10SM CLR M16/M20 A3035 RMK AO2 T11621202
KAEL 061312Z AUTO 22008KT 4SM BR OVC005 M04/M04 A3015 RMK AO2
KAEX 061253Z 08003KT 10SM OVC110 03/01 A3033 RMK AO2 SLP274 T00280006
KAFF 061258Z AUTO 36007KT 10SM CLR M13/M19 A3022 RMK AO2 SLP310 T11291187
KAFJ 061315Z AUTO 20003KT 10SM CLR M02/M08 A3031 RMK AO1
KAFK 061315Z AUTO 28005KT 10SM CLR M03/M03 A3025 RMK AO2 T10271027
KAFN 061252Z AUTO 16005KT 10SM CLR M09/M12 A3030 RMK AO2 SLP283 T10891117
KAFO 061315Z AUTO 00000KT 10SM OVC029 M08/M10 A3042 RMK AO2
KAFP 061315Z AUTO 00000KT 10SM CLR M03/M05 A3045 RMK AO2 T10351051
KAFW 061253Z 31009KT 10SM FEW250 02/M03 A3025 RMK AO2 SLP250 T00171033
KAGC 061253Z 18008KT 10SM BKN060 M02/M08 A3030 RMK AO2 SLP278 T10171083
KAGS 061253Z 34004KT 10SM CLR M01/M02 A3038 RMK AO2 SLP289 T10061017
KAHN 061251Z 07007KT 10SM CLR M01/M06 A3038 RMK AO2 SLP294 T10111061
KAHQ 061315Z AUTO 18004KT 1/4SM FZFG OVC002 M11/M12 A3024 RMK AO2 T11101123
KAIA 061253Z AUTO 27012KT 10SM CLR M08/M11 A3012 RMK AO2 SLP242 T10781111
KAIB 061315Z AUTO 11006KT 10SM CLR M14/M17 A3058 RMK AO2
KAIG 061315Z AUTO 26008KT 5SM BR OVC006 M06/M07 A3008 RMK AO2 T10611066
KAIK 061315Z AUTO 05006KT CLR 00/M03 A3041 RMK AO2 PWINO
KAIO 061315Z AUTO 29007KT 4SM BR OVC004 M02/M02 A3024 RMK AO2
KAIT 061313Z AUTO 17005KT 7SM BKN005 M06/M08 A3000 RMK AO2
KAIZ 061315Z AUTO 14003KT 10SM CLR M03/M08 A3029 RMK AO1
KAJG 061315Z AUTO 00000KT 5SM BR OVC080 M02/M03 A3035 RMK AO2
KAJO 061256Z AUTO 14013KT 10SM CLR 16/M06 A3028 RMK AO2 SLP262 T01611061 $
KAJR 061315Z AUTO 06006KT 10SM CLR 00/M08 A3038 RMK AO2 T00001080
KAJZ 061315Z AUTO 00000KT 10SM CLR M13/M15 A3059 RMK AO2 T11281154
KAKH 061254Z AUTO 36003KT 10SM CLR M01/M07 A3042 RMK AO2 SLP308 T10111072 TSNO
KAKO 061253Z AUTO 27008KT 10SM CLR M07/M15 A3019 RMK AO2 SLP279 T10721150
KAKQ 061254Z AUTO 00000KT 10SM CLR M03/M04 A3048 RMK AO2 SLP323 I1000 T10281044 TSNO
KAKR 061254Z AUTO 26005KT 7SM CLR M03/M06 A3029 RMK AO2 SLP269 T10331061
KALB 061251Z 18006KT 10SM FEW075 BKN270 M04/M09 A3035 RMK AO2 SLP282 T10391089
KALI 061253Z AUTO 29011KT 10SM CLR 08/07 A3036 RMK AO2 SLP281 T00830067 TSNO $
KALK 061256Z AUTO 09009KT 10SM CLR M01/M12 A3037 RMK AO2 SLP252 T10111117
KALM 061315Z AUTO 05009KT 10SM CLR M09/M17 A3048 RMK AO2
KALN 061250Z 11005KT 10SM SKC M04/M05 A3031
KALO 061254Z 25007KT 6SM BR OVC007 M02/M03 A3021 RMK AO2 SLP242 T10171028 $
KALS 061252Z AUTO 00000KT 10SM CLR M21/M24 A3043 RMK AO2 SLP387 T12111239 $
KALW 061253Z AUTO 19012KT 10SM BKN070 07/00 A3034 RMK AO2 SLP278 T00720000
KALX 061315Z AUTO 00000KT 10SM CLR M01/M05 A3036 RMK AO2 T10071053
KAMA 061253Z 29008KT 10SM CLR M07/M11 A3036 RMK AO2 SLP300 T10721106
KAMG 061253Z AUTO 04004KT 10SM BKN075 06/M02 A3032 RMK AO2 SLP266 T00561022
KAMN 061313Z AUTO 20007KT 7SM OVC100 M03/M04 A3023 RMK AO2 T10311045
KAMW 061253Z AUTO 27008KT 5SM BR OVC008 M01/M03 A3023 RMK AO2 SLP246 T10111028
KANB 061253Z AUTO 09003KT 10SM CLR M02/M05 A3039 RMK AO2 SLP303 T10221050
KAND 061256Z AUTO 06005KT 10SM CLR M01/M08 A3040 RMK AO2 SLP297 T10061083
KANE 061155Z AUTO 20005KT 10SM OVC011 M03/M04 A3011 RMK AO2
KANJ 061255Z AUTO 23010KT 10SM OVC025 M04/M07 A3002 RMK AO2 SLP176 T10391067
KANQ 061335Z AUTO 00000KT 4SM SCT075 M07/M07 A3029 RMK
KANW 061315Z AUTO 24011KT 10SM CLR M04/M08 A3009 RMK AO2 T10361080
KAOH 061302Z AUTO 25006KT 1 1/2SM BR OVC003 M04/M04 A3031 RMK AO2 T10391044
KAOO 061253Z AUTO 22003KT 10SM CLR M04/M09 A3033 RMK AO2 SLP291 T10391089
KAPA 061253Z 20010KT 10SM FEW150 M05/M14 A3020 RMK AO2 SLP276 T10501144
KAPC 061315Z AUTO 10003KT 4SM BR CLR 03/03 A3042 RMK AO2 T00280028
KAPF 061253Z 05005KT 10SM BKN065 13/10 A3013 RMK AO2 SLP202 T01330100
KAPN 061254Z AUTO 21006KT 10SM FEW070 OVC100 M04/M08 A3011 RMK AO2 SLP210 T10441083
KAPY 061315Z AUTO 33005KT 10SM CLR 06/02 A3041 RMK AO2 T00610030
KAQO 061315Z AUTO 28007KT 10SM CLR 03/M04 A3039 RMK AO2
KAQP 061315Z AUTO 17005KT 10SM CLR M05/M06 A3001 RMK AO2
KAQR 061315Z AUTO 00000KT BKN028 OVC033 05/04 A3033 RMK AO2 P0001
KAQV 061308Z AUTO 29003KT 1 1/2SM HZ BKN070 OVC090 03/00 A3034 RMK AO2 PRESRR T00280000
KAQW 061252Z AUTO VRB03KT 10SM OVC035 M06/M09 A3034 RMK AO2 SLP285 T10611089
KAQX 061315Z AUTO 00000KT 10SM CLR 02/M01 A3037 RMK AO2
KARA 061253Z 25005KT 10SM BKN100 BKN120 03/02 A3035 RMK AO2 SLP276 T00330017
KARB 061253Z AUTO 22003KT 7SM BKN070 M06/M07 A3027 RMK AO2 SLP262 I1000 T10561072 TSNO
KARG 061315Z AUTO 00000KT 10SM CLR M01/M06 A3037 RMK AO1
KARM 061315Z AUTO 00000KT 10SM VCTS CLR 07/06 A3033 RMK AO2 LTG DSNT E T00650055
KARR 061252Z 20006KT 4SM BR CLR M04/M06 A3028 RMK AO2 SLP262 T10441061
KART 061256Z AUTO 19009KT 10SM FEW050 OVC075 M01/M07 A3022 RMK AO2 SLP238 T10061067 $
KARV 061315Z AUTO 25005KT 7SM OVC008 M06/M07 A3004 RMK AO2 T10571071
KARW 061315Z AUTO 04014KT 5SM HZ BKN050 BKN060 OVC080 07/M01 A3036 RMK AO2
KASD 061253Z AUTO 00000KT 10SM CLR M02/M03 A3036 RMK AO2 SLP281 T10221028
KASE 061258Z AUTO 13005KT 4SM -SN BR FEW001 M17/M19 A3045 RMK AO2 P0000 T11721194
KASG 061248Z 00000KT 10SM SKC M02/M07 A3032
KASH 061251Z 00000KT 10SM CLR M12/M13 A3035 RMK AO2 SLP291 T11171128
KASJ 061315Z AUTO 00000KT 10SM CLR M02/M03 A3048 RMK AO2 T10251033
KASL 061315Z AUTO 00000KT 10SM OVC042 03/01 A3033 RMK AO1 T00300007
KASN 061315Z AUTO 00000KT 10SM CLR M03/M04 A3040 RMK AO2 T10271036
KAST 061255Z AUTO 25007KT 10SM CLR 09/04 A3042 RMK AO2 SLP300 T00890039
KASW 061315Z AUTO 00000KT 1 1/2SM BR VV007 M07/M08 A3031 RMK AO2
KASX 061300Z AUTO 21005KT 8SM SCT017 M06/M08 A3007 RMK AO2 T10611083
KATL 061252Z 06010KT 10SM FEW150 BKN250 01/M07 A3037 RMK AO2 SLP291 T00061067
KATP 061320Z AUTO 03012KT 10SM BKN070 BKN080 BKN090 15/06 A3028 RMK A01
KATS 061315Z AUTO 00000KT 10SM CLR M06/M13 A3042 RMK AO2
KATT 061251Z AUTO 30004KT 10SM CLR 07/M04 A3031 RMK AO2 SLP264 T00721039
KATW 061245Z 21009KT 10SM OVC013 M03/M07 A3014
KATY 061253Z AUTO 19005KT 10SM CLR M07/M09 A3000 RMK AO2 SLP186 T10671089
KAUG 061253Z AUTO VRB04KT 10SM CLR M07/M11 A3028 RMK AO2 SLP261 T10721111
KAUH 061315Z AUTO 25009KT 10SM CLR M10/M10 A3023 RMK AO2 T10961105
KAUM 061315Z AUTO 25007KT 7SM OVC008 M04/M05 A3017 RMK AO2
KAUN 061315Z AUTO 11003KT 10SM CLR 05/01 A3041 RMK AO1
KAUO 061256Z AUTO 02005KT 10SM CLR M01/M06 A3035 RMK AO2 SLP301 T10061056 FZRANO
KAUS 061253Z 28007KT 10SM FEW200 08/M04 A3030 RMK AO2 SLP263 T00781039
KAUW 061254Z AUTO 26008KT 6SM BR OVC007 M04/M06 A3010 RMK AO2 SLP216 T10441061
KAVC 061316Z AUTO 00000KT 10SM CLR M04/M05 A3052 RMK AO2 T10371049
KAVK 061315Z AUTO 22004KT 10SM CLR M04/M05 A3036 RMK AO2
KAVL 061254Z 00000KT 8SM CLR M04/M08 A3037 RMK AO2 SLP301 T10441078
KAVP 061254Z AUTO 03003KT 10SM CLR M04/M08 A3036 RMK AO2 SLP290 T10441083
KAVQ 061315Z AUTO 32005KT 10SM CLR 00/M07 A3031 RMK AO2 T00021066
KAVX 061251Z AUTO 05007KT 10SM CLR 13/M06 A3026 RMK AO2 SLP238 T01331061
KAWG 061315Z AUTO 19005KT 9SM CLR M05/M06 A3028 RMK AO2
KAWM 061253Z AUTO 00000KT 10SM CLR 00/M01 A3037 RMK AO2 SLP287 T00001011
KAWO 061315Z AUTO 16005KT 10SM BKN032 OVC041 06/02 A3038 RMK AO1
KAXA 061315Z AUTO 23010KT 1/2SM FZFG OVC002 M03/M03 A3017 RMK AO2
KAXH 061315Z AUTO 00000KT 10SM VCTS CLR 07/06 A3032 RMK AO2 LTG DSNT SE T00650058
KAXN 061253Z AUTO 20012KT 9SM BKN110 M06/M07 A3000 RMK AO2 SNE50 SLP181 P0000 T10561072
KAXO 061100Z 36009KT 7SM SKC 09/05 A3007
KAXS 061315Z AUTO 36007KT 10SM CLR M02/M05 A3039 RMK AO2 T10171053
KAXV 061313Z AUTO 00000KT 4SM BR BKN007 M04/M04 A3032 RMK AO2
KAXX 061315Z AUTO 00000KT 10SM CLR M27/M29 A3037 RMK AO2 T12681292
KAYS 061315Z AUTO 06005KT 10SM SCT060 OVC070 08/00 A3031 RMK AO2 T00750003
KAZC 061315Z AUTO 13005KT 10SM CLR M06/M07 A3051 RMK AO2 T10631074
KAZE 061315Z AUTO 07006KT 10SM SCT042 SCT055 SCT070 05/00 A3033 RMK AO2 T00451001
KAZO 061253Z 22007KT 5SM BR OVC080 M04/M06 A3027 RMK AO2 SLP262 T10391061
KBAB 061258Z AUTO 34003KT 10SM CLR 04/04 A3040 RMK AO2 SLP298 T00400039 $
KBAC 061315Z AUTO 21010KT 10SM OVC090 M03/M03 A2986 RMK AO2
KBAD 061258Z AUTO 12004KT 10SM CLR 02/M01 A3033 RMK AO2 SLP275 T00151013
KBAF 061253Z 18004KT 10SM CLR M11/M12 A3037 RMK AO2 SLP295 T11111117
KBAK 061250Z 00000KT 1 1/2SM BR SKC M06/M06 A3035
KBAN 061252Z AUTO 00000KT 10SM CLR M07/M10 A3045 RMK AO2 SLP322 T10671100
KBAX 061314Z AUTO 23010KT 10SM OVC110 M04/M07 A3021 RMK AO2 T10371066
KBAZ 061251Z 30008KT 10SM CLR 03/M01 A3032 RMK AO2 SLP267 T00331011
KBBB 061314Z AUTO 18003KT 10SM CLR M06/M07 A3002 RMK AO2
KBBF 061315Z AUTO 30021KT 7SM CLR 17/11 A3030 RMK A01
KBBG 061245Z 00000KT 10SM OVC060 00/M09 A3032
KBBP 061315Z AUTO 00000KT 10SM CLR 01/00 A3044 RMK AO2
KBBW 061253Z AUTO 00000KT 10SM CLR M08/M11 A3017 RMK AO2 SLP250 T10831111
KBCB 061315Z AUTO 00000KT 10SM CLR M04/M06 A3040 RMK AO2 T10451061
KBCE 061253Z AUTO VRB03KT 10SM CLR M18/M21 A3047 RMK AO2 SLP383 T11831206
KBCK 061315Z AUTO 26005KT 5SM BR OVC007 M03/M03 A3016 RMK AO2 T10261031
KBCT 061248Z 28003KT 10SM BKN070 18/15 A3013
KBDE 061253Z AUTO 14005KT 9SM BKN060 OVC100 M08/M10 A2990 RMK AO2 SLP148 T10781100 TSNO
KBDG 061315Z AUTO 00000KT 10SM CLR M09/M14 A3055 RMK AO1 T10951137
KBDH 061315Z AUTO 16005KT 10SM CLR M06/M07 A3007 RMK AO2
KBDL 061251Z 00000KT 10SM BKN250 M07/M09 A3038 RMK AO2 SLP291 T10721094
KBDN 061315Z AUTO 20011KT 10SM CLR 05/01 A3033 RMK AO2
KBDR 061252Z 00000KT 10SM CLR M06/M08 A3042 RMK AO2 SLP300 T10561078 $
KBDU 061317Z AUTO 35006KT 10SM CLR M06/M13 A3018 RMK AO2
KBEA 061315Z AUTO 33003KT 10SM CLR 08/07 A3036 RMK AO2 LTG DSNT E T00760065
KBED 061256Z 00000KT 10SM SCT250 M13/M14 A3034 RMK AO2 SLP288 T11281139 $
KBEH 061253Z AUTO 18006KT 4SM BR OVC065 M03/M06 A3028 RMK AO2 SLP261 T10331056
KBFD 061253Z AUTO 20005KT 10SM OVC055 M04/M09 A3021 RMK AO2 SLP258 T10391089
KBFF 061253Z AUTO 31009KT 10SM CLR M05/M09 A3016 RMK AO2 SLP251 T10501094
KBFI 061253Z 15010KT 10SM OVC022 07/04 A3038 RMK AO2 SLP287 T00670044
KBFL 061309Z AUTO 32005KT 2 1/2SM BR CLR 05/03 A3038 RMK AO2 T00500028
KBFM 061253Z 31005KT 10SM CLR 00/M03 A3038 RMK AO2 SLP288 T00001028
KBFW 061314Z AUTO 00000KT 10SM SCT090 SCT110 M08/M09 A3000 RMK AO2
KBGD 061251Z AUTO 24007KT 10SM CLR M06/M09 A3036 RMK AO2 SLP301 T10561089
KBGE 061315Z AUTO 02003KT 10SM SCT042 SCT048 BKN050 03/01 A3032 RMK AO2
KBGF 061315Z AUTO 00000KT 10SM CLR M02/M04 A3039 RMK
KBGM 061253Z 20006KT 10SM OVC070 M06/M09 A3026 RMK AO2 SLP270 T10561094
KBGR 061253Z 21004KT 10SM FEW075 BKN250 M10/M12 A3027 RMK AO2 SLP256 T11001117 $
KBHB 061315Z 22004KT 10SM CLR M05/M07 A3030 RMK AO1
KBHC 061315Z AUTO 06007KT 10SM SCT043 OVC070 06/00 A3033 RMK AO2 PNO
KBHK 061251Z AUTO 25016KT 10SM CLR 01/M08 A2992 RMK AO2 SLP154 T00061078
KBHM 061253Z 00000KT 10SM SCT160 M01/M04 A3039 RMK AO2 SLP296 T10111044
KBID 061315Z AUTO 33004KT 10SM CLR M01/M07 A3039 RMK AO1
KBIE 061315Z AUTO 00000KT 5SM BR CLR M05/M06 A3027 RMK AO2 T10531056
KBIF 061258Z AUTO 03005KT 10SM CLR M06/M16 A3045 RMK AO2 SLP316 T10631161 $
KBIH 061256Z AUTO 32005KT 10SM CLR M04/M06 A3045 RMK AO2 SLP313 T10391061
KBIJ 061315Z AUTO 00000KT 10SM BKN048 02/00 A3033 RMK AO2
KBIL 061253Z 24017KT 10SM FEW140 SCT190 BKN220 04/M09 A2998 RMK AO2 PK WND 24027/1208 SLP169 T00391094
KBIS 061252Z 23006KT 10SM BKN110 01/M04 A2986 RMK AO2 SLP129 T00111044
KBIV 061253Z AUTO 23008KT 10SM OVC100 M01/M06 A3024 RMK AO2 SLP251 T10111061
KBIX 061258Z AUTO 01002KT 10SM CLR 02/M03 A3036 RMK AO2 SLP284 T00191028
KBJC 061246Z 00000KT 70SM SKC M06/M13 A3019
KBJI 061313Z AUTO 17004KT 10SM OVC100 M06/M07 A2991 RMK AO2 T10651073
KBJJ 061303Z AUTO 28004KT 5SM BR BKN011 M03/M06 A3030 RMK AO2 T10331056
KBKB 061154Z AUTO 00000KT 10SM OVC100 02/M01 A3029 RMK AO2 SLP288 T00171006 10022 20000 57007
KBKD 061315Z AUTO 32012G15KT 10SM CLR 04/M04 A3035 RMK AO2 T00391040
KBKE 061253Z AUTO VRB03KT 10SM CLR 00/M03 A3034 RMK AO2 SLP296 T00001028 TSNO
KBKF 061258Z 20011KT 10SM FEW200 M06/M14 A3019 RMK AO2A SLP266 T10631143
KBKL 061311Z 23010KT 8SM SCT017 M02/M04 A3031 RMK AO2 T10171044
KBKN 061315Z AUTO 32006KT 10SM CLR M01/M02 A3037 RMK AO2
KBKS 061315Z AUTO 28003KT 10SM CLR 08/05 A3038 RMK AO1 T00760053
KBKT 061315Z AUTO 10SM CLR M03/M04 A3045 RMK AO1 T10341040
KBKV 061253Z 04010KT 10SM BKN055 10/05 A3020 RMK AO2 SLP225 T01000050
KBKW 061251Z AUTO 17005KT 10SM CLR M04/M10 A3032 RMK AO2 SLP305 T10391100
KBKX 061256Z AUTO 18008KT 10SM CLR M07/M08 A3006 RMK AO2 SLP220 T10671078 FZRANO
KBLF 061252Z AUTO 24004KT 10SM CLR M03/M13 A3032 RMK AO2 SLP293 T10331128 TSNO
KBLH 061252Z AUTO 01003KT 10SM CLR 08/M04 A3037 RMK AO2 SLP281 T00831039
KBLI 061253Z AUTO 18006KT 10SM FEW060 SCT080 07/03 A3030 RMK AO2 SLP270 T00720028
KBLM 061315Z AUTO 26003KT 10SM CLR M04/M11 A3043 RMK AO1
KBLU 061252Z AUTO 00000KT 10SM OVC075 07/M13 A3044 RMK AO2 SLP278 T00721133
KBLV 061258Z AUTO 00000KT 10SM CLR M05/M05 A3031 RMK AO2 SLP273 T10501053 $
KBMC 061315Z AUTO 33004KT 2SM CLR M07/M09 A3053 RMK AO1 T10741090
KBMG 061253Z 00000KT 6SM BR FEW065 M07/M08 A3033 RMK AO2 SLP279 I1000 T10671083
KBMI 061256Z 21006KT 7SM CLR M04/M04 A3031 RMK AO2 T10441044 SLP285
KBML 061252Z AUTO 00000KT 10SM BKN031 OVC060 M08/M11 A3021 RMK AO2 SLP250 T10781111
KBMQ 061253Z AUTO 29011KT 10SM CLR 04/M04 A3033 RMK AO2 SLP271 T00391044
KBMT 061315Z AUTO 33008KT 7SM VCTSRA SCT022 OVC030 07/05 A3036 RMK AO2 LTG DSNT NE AND SW T00650045
KBNA 061253Z 18003KT 10SM SCT200 SCT250 M03/M06 A3039 RMK AO2 SLP295 T10281061
KBNL 061315Z AUTO 00000KT 10SM CLR 02/00 A3038 RMK AO2
KBNO 061253Z AUTO 00000KT 10SM OVC040 M03/M06 A3038 RMK AO2 SLP315 T10331056
KBNW 061315Z AUTO 27008KT 5SM BR OVC005 M02/M02 A3020 RMK AO2
KBOI 061253Z 15010KT 10SM SCT070 BKN080 01/M03 A3041 RMK AO2 SLP313 T00061028
KBOK 061256Z AUTO 09004KT 8SM -RA OVC018 10/09 A3041 RMK AO2 RAB51 SLP314 P0000 T01000089
KBOS 061254Z 28006KT 10SM FEW180 M03/M08 A3036 RMK AO2 SLP281 T10331083
KBOW 061247Z 36004KT 9SM SCT060 09/08 A3019
KBPC 061315Z AUTO 23005KT 10SM CLR M08/M10 A3036 RMK AO2
KBPG 061315Z AUTO 25003KT 10SM CLR M04/M09 A3044 RMK AO2 T10401090
KBPI 061253Z AUTO 28003KT 10SM CLR M14/M16 A3037 RMK AO2 SLP346 T11391161
KBPK 061253Z AUTO 00000KT 7SM CLR 01/M09 A3032 RMK AO2 SLP271 T00061089
KBPT 061317Z 29010G24KT 9SM -RA FEW019 SCT035 OVC050 08/05 A3034 RMK AO2 LTG DSNT N AND NE RAB09 PRESRR P0000 T00780050
KBQK 061315Z AUTO 35004KT 10SM BKN080 07/00 A3032 RMK AO2
KBQP 061315Z AUTO 00000KT 10SM CLR 01/M02 A3036 RMK AO2 T00061021
KBQX 060905Z AUTO 35014G25KT 9SM SCT024 BKN029 OVC050 15/10 A3031 RMK A01
KBRD 061253Z AUTO 19008KT 4SM BR OVC003 M06/M07 A3001 RMK AO2 SLP185 I1000 T10611067
KBRL 061253Z AUTO 18003KT 9SM CLR M05/M06 A3027 RMK AO2 SLP259 T10501056
KBRO 061253Z 33006KT 10SM CLR 11/09 A3036 RMK AO2 SLP279 T01110094
KBTA 061315Z AUTO 18003KT M1/4SM FZFG OVC002 M05/M06 A3022 RMK AO2 T10551061
KBTL 061253Z 21006KT 4SM BR FEW070 OVC085 M04/M06 A3026 RMK AO2 SLP260 T10441061
KBTM 061253Z AUTO 14005KT 10SM BKN055 01/M09 A3008 RMK AO2 SLP208 T00111089
KBTP 061315Z AUTO 21007KT 10SM SCT065 M02/M09 A3032 RMK AO1
KBTR 061253Z 05004KT 10SM FEW120 02/M02 A3032 RMK AO2 SLP268 T00221017
KBTV 061254Z 19011KT 8SM -SN OVC050 M03/M08 A3024 RMK AO2 SNB44 SLP246 P0000 T10281083
KBUF 061254Z 25018G26KT 10SM SCT026 BKN050 BKN150 BKN250 01/M04 A3021 RMK AO2 PK WND 25026/1253 SNB18E28 SLP238 P0000 T00061039
KBUR 061253Z 00000KT 10SM CLR 07/M04 A3025 RMK AO2 SLP235 T00721039 $
KBUU 061315Z AUTO 21005KT 7SM OVC065 M04/M06 A3022 RMK AO2 T10431062
KBUY 061254Z AUTO 00000KT 10SM CLR M05/M06 A3043 RMK AO2 SLP310 T10501061
KBVE 061251Z AUTO 36003KT 10SM CLR 08/03 A3036 RMK AO2 SLP279 T00780028
KBVN 061315Z AUTO 00000KT 10SM CLR M05/M07 A3019 RMK AO2 T10501073
KBVO 061253Z AUTO 34003KT 10SM BKN065 01/M02 A3034 RMK AO2 SLP272 T00061017 TSNO $
KBVS 061315Z AUTO 17003KT 10SM BKN028 BKN048 OVC065 06/04 A3035 RMK A01
KBVU 061315Z AUTO 00000KT 10SM CLR 06/M04 A3045 RMK AO2
KBVX 061315Z AUTO 00000KT 2 1/2SM CLR 00/M06 A3037 RMK AO1
KBVY 061253Z 25004KT 10SM CLR M07/M10 A3035 RMK AO2 SLP276 T10671100
KBWD 061315Z AUTO 30010KT 10SM CLR 03/M05 A3036 RMK AO2
KBWG 061253Z AUTO 00000KT 10SM CLR M04/M06 A3039 RMK AO2 SLP294 T10391061
KBWI 061254Z 00000KT 8SM SCT180 BKN250 M04/M07 A3045 RMK AO2 SLP313 T10441067
KBWP 061315Z AUTO 16006KT 10SM BKN120 M06/M07 A2994 RMK AO1
KBXA 061315Z AUTO 00000KT 10SM 00/M01 A3039 RMK AO2 LTG DSNT W T00011014
KBXK 061315Z AUTO 32005KT 10SM CLR 04/M08 A3035 RMK AO1
KBYG 061253Z AUTO 30003KT 10SM CLR 01/M08 A3002 RMK AO2 SLP188 T00111078 $
KBYI 061253Z AUTO 00000KT 10SM CLR M06/M08 A3042 RMK AO2 SLP335 T10611078
KBYL 061315Z AUTO 00000KT 10SM CLR M03/M05 A3038 RMK AO1
KBYS 061255Z AUTO 35005KT 10SM CLR 07/M06 A3040 RMK AO2 SLP306 T00701061 PWINO $
KBYY 061315Z AUTO 26003KT 10SM SCT038 SCT048 SCT055 08/07 A3032 RMK AO2 T00870081
KBZN 061256Z 17006KT 10SM BKN075 M04/M09 A3010 RMK AO2 SLP241 T10391089
KC09 061315Z AUTO 17004KT 4SM BR CLR M05/M06 A3029 RMK AO2 T10521064
KC29 061315Z AUTO 26005KT 10SM OVC015 M02/M05 A3021 RMK AO1 T10201053
KC35 061315Z AUTO 22005KT 10SM OVC014 M03/M05 A3018 RMK AO2 T10301050
KC75 061315Z AUTO 19003KT 7SM CLR M04/M06 A3030 RMK AO2 T10381060
KCAD 061315Z AUTO 23010KT 10SM BKN042 OVC075 M03/M06 A3011 RMK AO2 T10371062
KCAE 061256Z 00000KT 10SM BKN160 BKN200 M01/M04 A3041 RMK AO2 SLP301 T10111039
KCAG 061253Z AUTO 00000KT 10SM CLR M25/M28 A3050 RMK AO2 SLP463 T12501278
KCAK 061251Z 25003KT 8SM FEW055 SCT230 M03/M07 A3029 RMK AO2 SLP273 T10331067
KCAO 061255Z AUTO 29006KT 10SM CLR M08/M13 A3029 RMK AO2 SLP295 T10781128
KCAR 061254Z AUTO 24005KT 10SM CLR M14/M17 A3013 RMK AO2 SLP219 T11391167
KCAV 061315Z AUTO 25010KT 5SM BR OVC005 M03/M03 A3020 RMK AO2
KCBE 061324Z AUTO 00000KT 10SM CLR M04/M05 A3044 RMK AO1
KCBF 061315Z AUTO 00000KT 2 1/2SM BR OVC003 M02/M02 A3024 RMK AO2
KCBG 061315Z AUTO 18004KT 10SM BKN007 M03/M07 A3006 RMK AO2
KCBK 061315Z AUTO 26008KT 10SM CLR M10/M12 A3025 RMK AO2
KCBM 061258Z AUTO 00000KT 10SM OVC130 02/00 A3039 RMK AO2 SLP296 T00171003 $
KCCA 061315Z AUTO 00000KT 7SM CLR M05/M07 A3038 RMK AO2
KCCO 061315Z AUTO 05005KT 10SM CLR 00/M04 A3035 RMK AO2 T00041043
KCCR 061253Z 00000KT 3SM BR CLR 04/03 A3042 RMK AO2 SLP287 T00440028
KCCU 061316Z AUTO 27014KT 10SM SCT009 M10/M13 A3034 RMK AO2
KCCY 061315Z AUTO 26009KT 3SM BR OVC005 M03/M03 A3019 RMK AO2
KCDA 061315Z AUTO 11004KT 10SM BKN031 BKN070 OVC120 M07/M10 A3022 RMK AO2 T10691099
KCDC 061253Z AUTO 06005KT 10SM CLR M16/M18 A3048 RMK AO2 SLP376 I1000 T11611178
KCDD 061321Z AUTO 09000KT 10SM SCT038 SCT070 BKN120 M13/M13 A2999 RMK AO2
KCDH 061315Z AUTO 00000KT 10SM CLR M02/M04 A3036 RMK AO2
KCDJ 061252Z AUTO 32003KT M04/M06 A3028 RMK AO1 SLP271 T10441061
KCDN 061315Z AUTO 00000KT 10SM CLR M00/M00 A3043 RMK AO2
KCDR 061253Z AUTO 24007KT 10SM CLR M06/M09 A3013 RMK AO2 SLP248 T10561094
KCDS 061253Z AUTO 32008KT 10SM CLR M03/M08 A3037 RMK AO2 SLP294 T10331078
KCDW 061253Z AUTO 00000KT 10SM CLR M04/M07 A3043 RMK AO2 SLP311 T10441072 TSNO
KCEC 061256Z AUTO 16007KT 9SM OVC055 11/09 A3040 RMK AO2 SLP296 T01060094
KCEF 061258Z AUTO 20003KT 10SM CLR M12/M14 A3036 RMK AO2 SLP291 T11191137
KCEU 061254Z AUTO 01004KT 10SM CLR 01/M07 A3041 RMK AO2 SLP301 T00061072
KCEW 061253Z AUTO 00000KT 10SM CLR M02/M04 A3035 RMK AO2 SLP279 T10221039
KCEY 061315Z AUTO 19004KT 10SM CLR M01/M07 A3036 RMK AO1
KCEZ 061253Z AUTO 04007KT 10SM CLR M14/M17 A3050 RMK AO2 SLP373 T11441172
KCFD 061315Z AUTO 24004KT 10SM CLR 04/04 A3030 RMK AO2 LTG DSNT S T00400035
KCFE 061314Z AUTO 18005KT 7SM BKN005 OVC008 M05/M06 A3011 RMK AO2 T10501061
KCFS 061315Z AUTO 21007KT 10SM OVC110 M04/M06 A3022 RMK AO2 T10401065
KCFV 061252Z AUTO 34006KT 10SM OVC060 02/M01 A3032 RMK AO2 SLP272 T00221011
KCGC 061315Z AUTO 05007KT 10SM SCT050 09/04 A3022 RMK AO2
KCGE 061321Z AUTO 00000KT 10SM CLR M01/M02 A3047 RMK AO1
KCGF 061245Z 26010KT 5SM BR BKN009 OVC015 M01/M03 A3031
KCGI 061253Z 00000KT 10SM CLR M03/M05 A3035 RMK AO2 SLP279 T10331050
KCGS 061320Z AUTO 00000KT 10SM CLR M03/M03 A3046 RMK AO1
KCGZ 061315Z AUTO 00000KT 10SM CLR 07/M10 A3032 RMK AO1
KCHA 061253Z VRB03KT 10SM SCT150 BKN250 M02/M04 A3041 RMK AO2 SLP302 T10171039
KCHD 061247Z 01006KT 10SM SKC 5/M07 A3033
KCHK 061315Z AUTO 36009KT 10SM CLR 01/M01 A3034 RMK AO2
KCHO 061253Z 00000KT 10SM CLR M03/M08 A3043 RMK AO2 SLP310 T10331078
KCHS 061256Z 03006KT 10SM FEW060 BKN080 04/M01 A3038 RMK AO2 SLP288 T00391011
KCIC 061315Z AUTO 02005KT 10SM CLR 06/05 A3043 RMK AO1
KCID 061324Z 18005KT 10SM OVC014 M02/M04 A3022 RMK AO2 T10221039 $
KCIN 061315Z AUTO 27008KT 1/4SM FZFG OVC002 M03/M03 A3022 RMK AO2
KCIR 061315Z AUTO 00000KT 10SM CLR M04/M04 A3036 RMK AO2 T10401040
KCIU 061315Z AUTO 25008KT 10SM BKN026 OVC040 M04/M05 A3004 RMK AO1
KCJR 061315Z AUTO 00000KT 10SM CLR M05/M06 A3047 RMK AO2 T10531063
KCKB 061253Z 17003KT 10SM CLR M02/M09 A3034 RMK AO2 SLP283 T10221089
KCKC 061314Z AUTO 27005KT 10SM SCT038 SCT080 OVC100 M09/M12 A2994 RMK AO2
KCKF 061315Z AUTO 06005KT 10SM CLR 03/M01 A3034 RMK AO2 T00311008
KCKI 061315Z AUTO 01003KT 10SM CLR 00/M01 A3041 RMK AO2
KCKN 061314Z AUTO 17012KT 10SM CLR M05/M07 A2988 RMK AO2
KCKP 061315Z AUTO 22007KT 1/4SM FZFG OVC001 M03/M03 A3019 RMK AO2 T10351035
KCKV 061252Z AUTO 15003KT 10SM CLR M03/M05 A3037 RMK AO2 SLP289 T10331050
KCKZ 061315Z AUTO 00000KT 10SM CLR M05/M05 A3041 RMK AO2
KCLE 061251Z 23005KT 5SM BR SCT250 M04/M06 A3033 RMK AO2 SLP280 T10391061
KCLI 061315Z AUTO 27007KT 10SM OVC010 M03/M06 A3014 RMK AO2
KCLK 061315Z AUTO 10SM CLR M03/M06 A3037 RMK AO2 PNO TSNO
KCLL 061253Z AUTO 23006KT 10SM CLR 04/04 A3028 RMK AO2 SLP253 T00440039
KCLM 061253Z AUTO 24007KT 10SM -RA BKN055 OVC070 06/03 A3032 RMK AO2 RAB49 SLP269 P0000 T00560028
KCLS 061315Z AUTO 19003KT 10SM FEW032 BKN040 OVC047 06/06 A3042 RMK AO2
KCLT 061252Z 00000KT 10SM BKN250 00/M11 A3043 RMK AO2 SLP307 T00001106
KCLW 061315Z AUTO 04003KT 10SM SCT045 BKN060 09/05 A3020 RMK AO2
KCMA 061255Z 08016KT 10SM CLR 17/M06 A3025 RMK AO2 SLP252 T01721056 $
KCMD 061315Z AUTO 00000KT 10SM CLR M01/M03 A3039 RMK AO2 T10091029
KCMH 061251Z 27003KT 7SM FEW250 M04/M07 A3033 RMK AO2 SLP281 T10391067
KCMI 061253Z 17003KT 6SM BR FEW035 FEW065 M04/M05 A3032 RMK AO2 SLP276 T10391050
KCMR 061315Z AUTO 15009KT CLR M07/M15 A3047 RMK AO2
KCMX 061253Z AUTO 25013KT 10SM OVC028 M03/M07 A2998 RMK AO2 SLP171 T10331072 TSNO
KCMY 061315Z AUTO 26005KT 7SM OVC008 M03/M04 A3018 RMK AO2 T10301040
KCNB 061315Z AUTO 24010G14KT 10SM CLR 00/M03 A3003 RMK AO2 T00001035
KCNC 061315Z AUTO 22003KT 9SM OVC019 M04/M05 A3024 RMK AO2
KCNI 061315Z AUTO 00000KT 10SM CLR 00/M13 A3039 RMK AO2
KCNK 061255Z AUTO 26005KT 10SM CLR M04/M06 A3029 RMK AO2 SLP270 T10391056 $
KCNM 061253Z AUTO 36006KT 10SM CLR M07/M11 A3040 RMK AO2 SLP299 T10721111 $
KCNO 061253Z AUTO 10005KT 10SM CLR 08/M03 A3028 RMK AO2 SLP249 T00831028 $
KCNU 061252Z AUTO 30004KT 10SM FEW065 M02/M05 A3030 RMK AO2 SLP265 T10221050
KCNY 061253Z AUTO 00000KT 7SM OVC004 M09/M09 A3059 RMK AO2 SLP415 T10891094
KCOD 061315Z AUTO 26020G32KT 230V290 10SM CLR 04/M08 A3009 RMK AO1
KCOE 061315Z AUTO 25012G21KT 10SM CLR 03/M02 A3017 RMK AO1
KCOF 061258Z AUTO 06008KT 10SM FEW070 19/14 A3016 RMK AO2 SLP218 T01940141 $
KCOM 061315Z AUTO 32011G15KT 10SM CLR 03/M06 A3037 RMK AO2 T00311058
KCON 061251Z AUTO 00000KT 10SM CLR M12/M13 A3033 RMK AO2 SLP276 T11171133
KCOQ 061315Z AUTO 20006KT 7SM SCT065 OVC090 M07/M08 A3001 RMK AO2
KCOS 061254Z 02009KT 10SM CLR M08/M17 A3023 RMK AO2 SLP303 T10831167
KCOT 061253Z AUTO 28006KT 9SM CLR 02/01 A3041 RMK AO2 SLP296 T00220006
KCOU 061254Z 17006KT 10SM CLR M01/M07 A3026 RMK AO2 SLP255 T10111072
KCPC 061315Z AUTO 04004KT 10SM SCT060 03/M02 A3042 RMK AO2 T00261020
KCPK 061315Z AUTO 00000KT 10SM CLR 01/M02 A3048 RMK AO2
KCPR 061315Z 21029G41KT 10SM -SN CLR M04/M08 A3018 RMK AO2 PK WND 21041/1311 SNB1259 SFC VIS 2 1/2SM BL SN P0000 T10441078
KCPS 061253Z AUTO 00000KT 10SM CLR M04/M07 A3032 RMK AO2 SLP271 I1000 T10391067
KCPT 061315Z AUTO 29010KT 10SM CLR 02/M01 A3027 RMK AO2 TSNO
KCPW 061319Z AUTO 01008KT 10SM CLR M07/M18 A3039 RMK AO2
KCQB 061315Z AUTO 00000KT 10SM SCT023 BKN030 OVC038 03/02 A3033 RMK AO2
KCQC 061253Z AUTO 31019KT 10SM CLR M09/M13 A3032 RMK AO2 PK WND 31030/1220 SLP311 T10891128
KCQF 061315Z AUTO 00000KT 10SM CLR 00/M04 A3037 RMK AO2
KCQM 061301Z AUTO 21001KT 7SM SCT028 SCT039 BKN065 M09/M10 A2997 RMK AO2
KCQT 061247Z AUTO 00000KT 10SM CLR 12/M03 A3025 RMK AO2 SLP242 T01171033
KCQW 061315Z AUTO 00000KT 10SM CLR M02/M03 A3044 RMK AO2
KCQX 061252Z AUTO 00000KT 10SM CLR M06/M06 A3039 RMK AO2 SLP292 T10561056
KCRE 061253Z 02008KT 10SM OVC065 04/M01 A3040 RMK AO1 SLP296 T00391011
KCRG 061253Z 35006KT 10SM OVC030 08/04 A3029 RMK AO2 SLP255 T00830039
KCRP 061251Z 27007KT 10SM FEW080 07/05 A3035 RMK AO2 SLP277 T00720050
KCRQ 061253Z 03003KT 10SM CLR 14/M05 A3024 RMK AO2 SLP240 T01441050
KCRS 061253Z AUTO 24007KT 10SM CLR 03/00 A3026 RMK AO2 SLP247 T00330000
KCRW 061254Z 00000KT 10SM BKN190 M04/M06 A3036 RMK AO2 SLP292 T10391061
KCRX 061315Z AUTO 00000KT 10SM CLR M01/M02 A3039 RMK AO2
KCSG 061251Z AUTO 00000KT 10SM CLR M01/M05 A3034 RMK AO2 SLP277 T10061050
KCSM 061253Z AUTO 32010KT 10SM CLR M02/M06 A3036 RMK AO2 SLP289 T10221061 $
KCSQ 061315Z AUTO 31006KT M1/4SM FZFG OVC002 M02/M02 A3024 RMK AO2
KCSV 061253Z AUTO 00000KT 10SM CLR M03/M07 A3035 RMK AO2 SLP294 T10281067
KCTB 061316Z AUTO 24013KT 10SM SCT015 SCT110 01/00 A2982 RMK AO2 PK WND 24026/1258 UPB04E06SNE04 P0000 T00060000 TSNO
KCTJ 061315Z AUTO 00000KT 10SM CLR 00/M06 A3039 RMK AO2 T10011062
KCTY 061253Z AUTO 03009KT 08/02 A3026 RMK AO1 SLP244 T00830017
KCTZ 061315Z AUTO 05005KT 10SM CLR 02/M02 A3044 RMK AO2 T00161022
KCUB 061253Z AUTO 00000KT 10SM CLR 01/M04 A3043 RMK AO2 SLP304 T00061039
KCUH 061315Z AUTO 32006KT 10SM OVC013 03/01 A3033 RMK AO2 T00310012
KCUL 061315Z AUTO 00000KT 5SM BR OVC090 M03/M03 A3034 RMK AO2 T10261034
KCUT 061253Z AUTO 24010G21KT 10SM CLR M01/M12 A3003 RMK AO2 PK WND 27029/1225 SLP198 T10111117
KCVB 061315Z AUTO 29008KT 10SM CLR 02/M02 A3040 RMK AO2 T00161022
KCVC 061315Z AUTO 04003KT 10SM CLR 00/M05 A3037 RMK AO2
KCVG 061247Z 00000KT 3SM BR FEW220 M06/M06 A3034 RMK AO2 SLP281 T10561061 $
KCVH 061310Z AUTO 00000KT 10SM CLR 03/03 A3041 RMK AO1
KCVN 061315Z AUTO 30005KT 10SM CLR M09/M13 A3037 RMK AO1
KCVO 061315Z 00000KT 1/4SM OVC002 03/02 A3046 RMK AO1
KCVS 061258Z AUTO 28005KT 10SM CLR M08/M11 A3036 RMK AO2 SLP308 T10831115 $
KCVW 061315Z AUTO 08006KT 10SM FEW055 FEW065 SCT075 08/04 A3033 RMK A01
KCVX 061315Z AUTO 25015G25KT 1 3/4SM -SN BKN013 OVC021 M01/M03 A3012 RMK AO2 T10121029
KCWA 061250Z 24007KT 2SM BR OVC006 M05/M05 A3012
KCWC 061315Z AUTO 32009KT 10SM CLR 03/M02 A3036 RMK AO2 T00271021
KCWF 061250Z 07003KT 10SM BKN070 04/02 A3031
KCWI 061256Z AUTO 00000KT 10SM OVC018 M02/M04 A3026 RMK AO2 SLP275 T10171039 FZRANO
KCWN 061258Z AUTO 29005KT 10SM CLR M02/M14 A3017 RMK AO2 SLP166 T10191137
KCWV 061315Z AUTO 02004KT 10SM SCT070 05/01 A3035 RMK AO2 T00460010
KCXE 061315Z AUTO 00000KT 10SM CLR M02/M05 A3046 RMK AO1 T10251050
KCXO 061320Z 32004KT 1/4SM FG CLR 02/01 A3029 RMK AO2 T00170011
KCXP 061315Z AUTO 00000KT 10SM BKN110 M04/M05 A3048 RMK AO2
KCXU 061315Z AUTO 00000KT 10SM CLR 03/02 A3032 RMK AO2 T00300017
KCXY 061256Z 23003KT 10SM CLR M04/M08 A3042 RMK AO2 SLP308 T10391083
KCYS 061253Z 30017G26KT 10SM CLR M01/M10 A3013 RMK AO2 PK WND 31028/1235 SLP241 T10111100
KCZL 061315Z AUTO 00000KT 10SM CLR M03/M05 A3041 RMK AO2 T10291050
KCZT 061315Z AUTO 31007KT 10SM CLR 03/M02 A3042 RMK AO2
KCZZ 061252Z AUTO 05014G25KT 11/M07 A3026 RMK AO1 PK WND 06027/1231 SLP230 T01111072
KD07 061256Z AUTO 23013KT M01/M07 A2995 RMK AO1 SLP171 T10061072
KD25 061315Z AUTO 24005KT 7SM OVC008 M06/M07 A3004 RMK AO2 T10651070
KD39 061313Z AUTO 19005KT 10SM SCT120 M07/M07 A3002 RMK AO2 T10671075
KD50 061315Z AUTO 23018G23KT 10SM BKN110 02/00 A2971 RMK AO2
KD55 061315Z AUTO 18011KT 10SM FEW085 M04/M06 A2976 RMK AO2
KD57 061315Z AUTO 26013G18KT 10SM OVC110 03/M05 A2983 RMK AO2
KD60 061315Z AUTO 26013KT 10SM CLR 02/00 A2978 RMK AO2
KD95 061313Z AUTO 21003KT 10SM CLR M05/M07 A3024 RMK AO2 T10491066
KDAA 061258Z AUTO 00000KT 10SM CLR M05/M06 A3047 RMK AO2 SLP322 T10481059
KDAB 061253Z 35008KT 9SM FEW040 SCT060 SCT150 13/11 A3020 RMK AO2 SLP226 T01330106 $
KDAG 061250Z AUTO 27004KT 10SM CLR 02/M06 A3044 RMK AO2 SLP304 T00171056
KDAL 061322Z 36003KT 10SM BKN012 BKN095 03/02 A3027 RMK AO2 T00330017
KDAN 061253Z AUTO 00000KT 10SM CLR M04/M06 A3045 RMK AO2 SLP311 T10391061
KDAW 061251Z AUTO 00000KT 10SM CLR M07/M11 A3032 RMK AO2 SLP269 T10671106
KDAY 061256Z 23005KT 4SM BR SCT250 M06/M07 A3033 RMK AO2 SLP281 T10611072
KDBN 061315Z AUTO 05003KT 10SM CLR 01/M02 A3037 RMK AO2
KDBQ 061253Z 22005KT 9SM OVC011 M03/M04 A3021 RMK AO2 SLP246 T10281044
KDCA 061252Z 00000KT 10SM BKN230 M01/M04 A3047 RMK AO2 SLP317 T10111044
KDCM 061315Z AUTO 02003KT 7SM CLR M01/M07 A3043 RMK AO2
KDCU 061253Z AUTO 01003KT 10SM CLR M01/M02 A3040 RMK AO2 SLP300 T10111017
KDCY 061315Z AUTO 00000KT 7SM SCT085 M03/M04 A3034 RMK AO2 T10331040
KDDC 061252Z AUTO 29006KT 10SM CLR M07/M11 A3030 RMK AO2 SLP290 T10721106
KDDH 061254Z AUTO 00000KT 10SM CLR M07/M08 A3031 RMK AO2 SLP276 T10671083
KDEC 061254Z 19005KT 6SM BR CLR M03/M06 A3032 RMK AO2 SLP275 T10331056
KDED 061315Z AUTO 01009KT 12/09 A3022 RMK AO1
KDEH 061315Z AUTO 25006KT 4SM BR OVC006 M03/M03 A3016 RMK AO2
KDEN 061253Z 21015KT 10SM FEW220 M03/M14 A3018 RMK AO2 SLP257 T10331139
KDEQ 061253Z AUTO 10003KT 10SM SCT120 01/M03 A3031 RMK AO2 SLP263 T00111033 $
KDET 061253Z AUTO 24006KT 10SM OVC080 M03/M07 A3028 RMK AO2 SLP262 T10331072
KDEW 061253Z AUTO 22013KT 10SM CLR 02/M02 A3017 RMK AO2 SLP232 T00221017 TSNO
KDFI 061252Z AUTO 00000KT 2SM BR CLR M04/M07 A3033 RMK AO2 SLP279 I1000 T10441067
KDFW 061253Z 31005KT 10SM FEW020 SCT140 SCT250 03/01 A3025 RMK AO2 SLP244 T00280006
KDGW 061253Z AUTO 26013G21KT 10SM CLR M01/M08 RMK AO2 SLPNO T10061078 $
KDHN 061253Z AUTO 00000KT 10SM CLR 00/M03 A3035 RMK AO2 SLP281 T00001033
KDHT 061253Z AUTO 30008KT 10SM CLR M08/M12 A3034 RMK AO2 SLP298 T10781122
KDIJ 061256Z AUTO 16011KT 10SM OVC028 M04/M07 A3041 RMK AO2 SLP355 T10391067
KDIK 061256Z AUTO 26011KT 10SM CLR 01/M06 A2983 RMK AO2 SLP125 T00061061
KDKB 061315Z AUTO 20006KT 3SM BR CLR M06/M07 A3026 RMK AO2 T10581067
KDKK 061253Z AUTO 24014G21KT 10SM FEW032 BKN043 BKN050 00/M04 A3025 RMK AO2 SLP255 T00001039
KDKR 061315Z AUTO 00000KT 10SM CLR 03/03 A3030 RMK AO2
KDLF 061258Z AUTO 31008KT 10SM CLR 01/M05 A3044 RMK AO2 SLP310 T00121046 FZRANO $
KDLH 061255Z 25009KT 7SM FEW075 BKN120 M07/M09 A3001 RMK AO2 SLP188 T10721094
KDLL 061315Z AUTO 24006KT 10SM OVC014 M03/M06 A3018 RMK AO2 T10301058
KDLN 061253Z AUTO 18010KT 10SM SCT060 M03/M09 A3017 RMK AO2 WSHFT 1202 PRESFR SLP256 T10281089
KDLP 061315Z AUTO VRB04KT 10SM CLR 12/03 A3030 RMK A01
KDLS 061253Z AUTO 29016KT 10SM CLR 09/00 A3036 RMK AO2 SLP283 T00890000
KDLZ 061315Z AUTO 00000KT 3SM BR CLR M05/M06 A3032 RMK AO2
KDMA 061258Z AUTO 14010KT 10SM CLR 05/M10 A3029 RMK AO2 SLP246 T00471097 $
KDMH 061254Z AUTO M01/M06 A3046 RMK AO1 SLP313 T10061056
KDMN 061253Z AUTO 00000KT 10SM CLR M08/M16 A3047 RMK AO2 SLP322 T10831156 TSNO
KDMO 061253Z AUTO 24008KT 10SM CLR 02/M06 A3028 RMK AO2 SLP260 T00171056
KDMW 061320Z AUTO 21003KT 10SM CLR M02/M04 A3041 RMK AO2
KDNL 061253Z AUTO 02005KT 10SM CLR 02/M04 A3037 RMK AO2 SLP286 T00171039
KDNS 061315Z AUTO 24005KT 1 1/2SM BR OVC003 M02/M02 A3020 RMK AO2
KDNV 061315Z AUTO 18005KT 7SM OVC065 M04/M05 A3031 RMK AO2 T10381052
KDOV 061258Z AUTO 21002KT 10SM CLR M02/M04 A3045 RMK AO2 SLP315 T10211041 VISNO RWY19 CHINO RWY19 $
KDPA 061252Z 21007KT 6SM BR CLR M05/M07 A3026 RMK AO2 SLP258 T10501072
KDPL 061315Z AUTO 00000KT 10SM 00/M01 A3046 RMK AO2 T00011012
KDQH 061315Z AUTO 06006KT 10SM SCT070 06/00 A3033 RMK AO2
KDRA 061253Z AUTO 05009KT 10SM CLR 02/M06 A3045 RMK AO2 SLP303 T00221056
KDRI 061315Z AUTO 30006KT 10SM 03/00 A3035 RMK AO2 LTG DSNT SW T00310002
KDRM 061315Z AUTO 29008G15KT 260V320 1 1/4SM -SN OVC008 M02/M02 A3004 RMK AO2 T10201025
KDRO 061253Z AUTO 04003KT 10SM CLR M18/M20 A3045 RMK AO2 SLP405 T11831200
KDRT 061253Z AUTO 32007KT 10SM CLR 03/M06 A3045 RMK AO2 SLP309 T00331056 $
KDSM 061306Z 25004KT 5SM BR BKN007 BKN021 OVC120 M02/M04 A3024 RMK AO2 T10221044
KDSV 061254Z AUTO 12007KT 10SM OVC070 M01/M07 A3025 RMK AO2 SLP261 T10111072
KDTA 061315Z AUTO 08004KT 1/4SM OVC001 M14/M16 A3053 RMK AO1 T11441158
KDTL 061314Z AUTO 15007KT 10SM CLR M06/M06 A2992 RMK AO2
KDTN 061253Z 08005KT 10SM CLR 03/M01 A3033 RMK AO2 SLP271 T00331006
KDTO 061253Z 36005KT 10SM OVC110 02/00 A3026 RMK AO2 SLP248 T00220000
KDTS 061253Z AUTO 03005KT 10SM CLR 05/M02 A3033 RMK AO2 SLP269 T00501017 TSNO
KDTW 061253Z 22008KT 9SM BKN070 M03/M06 A3030 RMK AO2 SLP266 T10331061
KDUA 061315Z AUTO 07006KT 7SM -RA BKN013 OVC019 03/02 A3034 RMK AO2 P0003
KDUB 061310Z AUTO 34020G27KT 10SM CLR M05/M10 A3023 RMK AO2
KDUC 061315Z AUTO 35007KT 10SM BKN060 02/M01 A3033 RMK AO2 TSNO
KDUG 061256Z AUTO 33008KT 10SM CLR M06/M11 A3037 RMK AO2 SLP282 T10561111 $
KDUH 061315Z AUTO 21003KT 5SM BR CLR M04/M06 A3031 RMK AO2 T10451056
KDUJ 061253Z AUTO 22008KT 10SM OVC055 M03/M09 A3025 RMK AO2 SLP267 T10281094
KDUX 061315Z AUTO 28006KT 10SM CLR M08/M11 A3035 RMK AO2 T10761115
KDVK 061315Z AUTO 21004KT 10SM CLR M02/M07 A3037 RMK AO2
KDVL 061256Z AUTO 20007KT 10SM OVC100 M02/M04 A2978 RMK AO2 SLP122 T10171044 FZRANO
KDVN 061252Z AUTO 21006KT 10SM CLR M03/M06 A3026 RMK AO2 SLP255 T10281061
KDVO 061315Z AUTO 00000KT 4SM BR CLR 03/03 A3043 RMK AO2
KDVP 061315Z AUTO 22008KT 10SM CLR M07/M07 A3009 RMK AO2 T10681068
KDVT 061253Z 00000KT 10SM CLR 07/M09 A3033 RMK AO2 SLP262 T00721094
KDWH 061313Z 16003KT 3SM BR CLR 06/04 A3029 RMK AO2 T00560044
KDWX 061315Z AUTO 34003KT 10SM CLR M18/M20 A3047 RMK AO2 T11851205
KDXR 061253Z 00000KT 10SM CLR M09/M12 A3040 RMK AO2 SLP298 T10891117
KDXX 061313Z AUTO 22011KT 10SM CLR M02/M05 A3001 RMK AO2
KDYA 061315Z AUTO 00000KT 10SM A3040 RMK AO2
KDYB 061315Z AUTO 00000KT 10SM SCT050 OVC080 04/01 A3040 RMK AO1
KDYL 061254Z AUTO 00000KT 10SM CLR M06/M08 A3040 RMK AO2 SLP306 T10611078
KDYR 061315Z AUTO 00000KT 10SM CLR M02/M03 A3040 RMK AO1
KDYS 061258Z AUTO 30011KT 10SM CLR 01/M06 A3037 RMK AO2 SLP288 T00121061 $
KDYT 061313Z AUTO 21006KT 10SM BKN090 M06/M08 A3007 RMK AO2
KDZB 061315Z AUTO 29007KT 10SM CLR 06/M03 A3035 RMK AO2 T00571034
KDZJ 061315Z AUTO 00000KT 10SM M05/M10 A3036 RMK AO2 T10491099
KE11 061315Z AUTO 31004KT 10SM CLR M04/M09 A3041 RMK AO2 T10451091
KE16 061315Z AUTO 34003KT 10SM CLR 03/03 A3041 RMK AO2
KE38 061315Z AUTO 18006KT 10SM CLR M03/M11 A3049 RMK AO2 T10351110
KE80 061315Z AUTO 01009KT 10SM CLR M08/M12 A3048 RMK AO2 T10811119
KEAR 061315Z AUTO 25006KT 10SM CLR M08/M33 A3023 RMK AO1
KEAT 061255Z AUTO VRB03KT 10SM SCT085 04/M02 A3023 RMK AO2 SLP246 T00391017
KEAU 061256Z 26006KT 8SM OVC013 M03/M07 A3013 RMK AO2 SLP218 T10331067
KEBA 061315Z AUTO 00000KT 10SM CLR 00/M01 A3042 RMK AO2 T00011008
KEBG 061315Z AUTO 32006KT 10SM CLR 08/06 A3039 RMK AO2 T00780061
KEBS 061315Z AUTO 26009KT 4SM BR OVC004 M03/M03 A3020 RMK AO2
KECG 061254Z 26003KT 10SM CLR M01/M03 A3048 RMK AO2 SLP321 T10061028
KECP 061253Z 32003KT 10SM CLR 02/M01 A3032 RMK AO2 SLP278 T00221011
KECS 061315Z AUTO 02005KT 10SM CLR M07/M10 A3012 RMK AO2
KECU 061315Z AUTO 32011KT 10SM CLR 01/M06 A3042 RMK AO2
KEDC 061315Z AUTO 30007KT 10SM FEW050 05/M02 A3031 RMK AO2
KEDE 061315Z AUTO 00000KT 10SM CLR 01/M01 A3048 RMK AO2 T00101012
KEDJ 061305Z AUTO 17003KT 4SM CLR M06/M06 A3031 RMK AO1
KEDN 061315Z AUTO 00000KT 10SM CLR 00/M02 A3034 RMK AO2
KEDU 061315Z AUTO 34003KT 10SM CLR 05/03 A3044 RMK AO1
KEDW 061258Z AUTO 15004KT 10SM CLR M02/M07 A3040 RMK AO2 SLP300 T10241075
KEED 061256Z AUTO 32006KT 10SM CLR 09/M03 A3040 RMK AO2 SLP285 T00941033
KEEN 061315Z AUTO 00000KT 10SM CLR M11/M15 A3035 RMK AO1
KEEO 061253Z AUTO 06005KT 10SM CLR M18/M21 A3049 RMK AO2 SLP423 I1000 T11831211
KEET 061253Z AUTO 00000KT 10SM CLR M01/M04 A3037 RMK AO2 SLP289 T10061044
KEFD 061250Z 00000KT 4SM VCSH SCT030 BKN060 BKN180 09/08 A3033
KEFK 061315Z AUTO 19005KT 10SM SCT024 BKN065 BKN120 M05/M08 A3020 RMK AO2 T10511085
KEFT 061315Z AUTO 21011KT 10SM OVC022 M02/M04 A3020 RMK AO2
KEGE 061315Z AUTO 09004KT M1/4SM OVC001 M20/M21 A3060 RMK AO1
KEGI 061258Z AUTO 35002KT 10SM CLR M03/M05 A3032 RMK AO2 SLP272 T10321049 $
KEGV 061310Z AUTO 25004KT 5SM BR OVC007 M06/M07 A3003 RMK AO2 T10631073
KEHA 061308Z AUTO 25005KT M06/M12 RMK AO1 PK WND 08 000 T10561116
KEHC 061315Z AUTO 35009KT 9SM FEW050 OVC060 14/07 A3030 RMK A01
KEHO 061315Z AUTO 03003KT 10SM CLR M03/M06 A3043 RMK AO2 T10351060
KEHR 061315Z AUTO 20006KT 10SM CLR M04/M07 A3035 RMK AO1
KEHY 061315Z AUTO 24010G18KT 10SM TS CLR M03/M10 A3023 RMK AO2
KEIK 061315Z AUTO 00000KT 10SM CLR M13/M15 A3020 RMK AO2 T11261146
KEIR 061315Z AUTO VRB04G12KT 10SM CLR 12/02 A3031 RMK A01
KEKM 061300Z 19004KT 3SM BR SCT 075 22/21 A3031 RMK AO2
KEKN 061251Z AUTO 00000KT 10SM CLR M07/M09 A3034 RMK AO2 SLP311 I1000 T10721094 TSNO
KEKO 061256Z AUTO 09006KT 10SM CLR M13/M15 A3049 RMK AO2 SLP388 T11331150
KEKQ 061256Z AUTO 27010KT 10SM CLR M04/M07 A3040 RMK AO2 SLP323 T10391072 TSNO
KEKS 061315Z AUTO 18018G28KT 10SM OVC060 00/M07 A3024 RMK A01
KELA 061315Z AUTO 23003KT 4SM BR CLR 04/04 A3030 RMK AO2 LTG DSNT SE T00410040
KELD 061253Z AUTO 00000KT 10SM CLR 01/M03 A3035 RMK AO2 SLP278 T00061033
KELK 061315Z AUTO 32008KT 10SM CLR M03/M06 A3034 RMK AO2 T10351065
KELM 061253Z 00000KT 10SM OVC070 M05/M07 A3029 RMK AO2 SLP271 T10501067 $
KELN 061253Z AUTO 32017KT 10SM CLR 02/M01 A3024 RMK AO2 SLP257 T00221011
KELO 061313Z AUTO 00000KT 5SM BR BKN041 M11/M12 A2997 RMK AO2
KELP 061251Z 01006KT 10SM CLR M04/M14 A3045 RMK AO2 SLP309 T10441144
KELY 061253Z AUTO 17015KT 10SM CLR M14/M17 A3047 RMK AO2 SLP392 T11391167
KELZ 061256Z AUTO VRB06KT 10SM OVC055 M03/M09 A3021 RMK AO2 SLP258 T10331089 $
KEMK 061315Z AUTO 01022G27KT 8SM FEW017 SCT050 BKN060 15/11 A3028 RMK A01
KEMP 061253Z AUTO 28006KT 9SM CLR M04/M05 A3029 RMK AO2 SLP272 T10391050
KEMV 061315Z AUTO 00000KT 10SM CLR M02/M03 A3049 RMK AO2
KEND 061258Z AUTO 32007KT 10SM CLR M03/M04 A3031 RMK AO2 SLP275 T10281042 $
KENL 061315Z AUTO 00000KT 5SM BR BKN080 M02/M03 A3032 RMK AO2 T10161034
KENV 061315Z AUTO 00000KT 10SM CLR M07/M09 A3050 RMK AO1
KENW 061253Z 23007KT 6SM BR BKN065 M04/M06 A3023 RMK AO2 SLP247 T10391061
KEOE 061315Z AUTO 04005KT 10SM CLR M01/M04 A3044 RMK AO2
KEOK 061315Z AUTO 00000KT 10SM CLR M03/M06 A3027 RMK AO2
KEPH 061253Z AUTO 23012KT 10SM CLR 03/M02 A3022 RMK AO2 SLP243 T00281017
KEQA 061315Z AUTO 34006KT 10SM CLR M02/M03 A3031 RMK AO2
KEQY 061253Z AUTO 05004KT 10SM CLR M02/M08 A3042 RMK AO2 SLP322 T10171083
KERI 061251Z 23010KT 10SM BKN028 M01/M06 A3028 RMK AO2 SLP262 T10061056
KERV 061315Z AUTO 33005KT 10SM CLR 00/M04 A3037 RMK AO2 T10051042
KERY 061315Z AUTO 24009KT 10SM OVC025 M05/M07 A3003 RMK AO2 T10481075
KESC 061315Z AUTO 24005KT 10SM OVC031 M04/M08 A3010 RMK AO1
KESF 061253Z AUTO 00000KT 10SM FEW120 02/M01 A3035 RMK AO2 SLP277 T00171011
KESN 061250Z 00000KT 10SM OVC150 M02/M03 A3049
KEST 061252Z AUTO 22010KT 3/4SM BR VV002 M04/M04 A3015 RMK AO2 SLP228 I1002 T10441044
KETB 061310Z AUTO 24009KT 10SM BKN018 OVC041 M02/M06 A3019 RMK AO2
KETC 061315Z AUTO 00000KT 10SM CLR M01/M01 A3049 RMK AO2 T10071012
KETH 061316Z AUTO 20011KT 10SM CLR M02/M04 A2997 RMK AO2
KEUF 061258Z AUTO 00000KT 10SM CLR M02/M03 A3033 RMK AO2 SLP271 I1003 T10171033 $
KEUG 061254Z AUTO 34003KT 10SM FEW001 OVC034 06/04 A3044 RMK AO2 VIS 1 3/4 RNW 34 SLP309 T00560044 TSNO $
KEUL 061256Z AUTO 14015KT 10SM SCT080 00/M03 A3043 RMK AO2 SLP326 T00001033 FZRANO
KEVB 061247Z 29005KT 10SM SCT050 11/10 A3017
KEVM 061314Z AUTO 00000KT 5SM BR CLR M11/M12 A2999 RMK AO2
KEVV 061254Z 00000KT 8SM SCT075 M01/M04 A3035 RMK AO2 SLP281 T10111044
KEVW 061253Z AUTO 19010KT 10SM FEW120 M11/M13 A3042 RMK AO2 SLP352 T11061128
KEWB 061253Z A3038 RMK AO2 SLPNO $
KEWK 061315Z AUTO 30005KT 10SM CLR M04/M07 A3032 RMK AO1
KEWN 061254Z 02006KT 10SM CLR 01/M01 A3046 RMK AO2 SLP315 T00111011
KEWR 061251Z 00000KT 10SM BKN250 M02/M07 A3044 RMK AO2 SLP305 T10221072
KEXX 061315Z AUTO 00000KT 10SM CLR M03/M05 A3042 RMK AO2 T10301050
KEYE 061253Z AUTO 00000KT 5SM BR CLR M06/M08 A3032 RMK AO2 SLP279 I1000 T10611083
KEYF 061315Z AUTO 00000KT 10SM CLR 01/M01 A3044 RMK AO2 T00061013
KEYW 061253Z 03010KT 10SM -RA FEW040 BKN050 OVC065 19/17 A3010 RMK AO2 RAB41 SLP193 P0000 T01890172
KEZF 061315Z AUTO 00000KT 10SM CLR M04/M05 A3047 RMK AO2 T10371048
KEZM 061315Z AUTO 00000KT 10SM SCT043 SCT055 01/01 A3037 RMK AO2 T00050005
KEZS 061315Z AUTO 25006KT 10SM OVC011 M03/M06 A3014 RMK AO2 T10301056
KF05 061315Z AUTO 35010KT 10SM CLR 01/M07 A3037 RMK AO1 T00071069
KF17 061315Z AUTO 14004KT 10SM -RA SCT036 BKN043 OVC050 05/04 A3031 RMK AO2 P0001 T00460040
KF44 061315Z AUTO 00000KT 10SM CLR 02/02 A3026 RMK AO2
KF46 061315Z AUTO 11006KT 10SM OVC022 06/03 A3025 RMK AO2 T00560032
KF70 061315Z AUTO 04006KT 10SM CLR 05/M02 A3030 RMK AO1
KFAF 061258Z AUTO 06001KT 10SM CLR M01/M04 A3045 RMK AO2 SLP315 T10121039 $
KFAM 061301Z AUTO 00000KT 10SM FEW080 M05/M07 A3031 RMK AO2 SLP294 T10501072 FZRANO
KFAR 061253Z 17010KT 10SM FEW120 M05/M08 A2991 RMK AO2 SLP146 T10501078
KFAT 061253Z 00000KT 8SM SCT200 04/03 A3041 RMK AO2 SLP299 T00390028
KFAY 061253Z AUTO 02005KT 10SM CLR M01/M03 A3044 RMK AO2 SLP304 T10061028
KFBG 061258Z AUTO 00000KT 10SM CLR M01/M03 A3043 RMK AO2 SLP310 T10081030 $
KFBL 061314Z AUTO 19007KT 7SM OVC007 M03/M04 A3013 RMK AO2
KFBR 061315Z AUTO 26014KT 10SM CLR M06/M09 A3044 RMK AO2 T10601095
KFCI 061255Z AUTO 00000KT 10SM CLR M03/M12 A3047 RMK AO1
KFCM 061253Z 20009KT 7SM OVC009 M03/M06 A3011 RMK AO2 SLP210 T10331056
KFCS 061258Z AUTO 33014KT 10SM CLR M09/M15 A3021 RMK AO2 SLP306 T10871148 $
KFDK 061252Z 2003KT 10SM SKC M04/M04 A3048
KFDR 061253Z AUTO 35007KT 10SM CLR M01/M04 A3033 RMK AO2 SLP274 T10111039
KFDW 061335Z AUTO 06005KT 10SM CLR 00/M04 A3040 RMK AO1
KFDY 061303Z AUTO 20003KT 2 1/2SM BR CLR M04/M06 A3030 RMK AO2 T10441056 TSNO
KFEP 061315Z AUTO 21008KT 10SM OVC022 M03/M05 A3026 RMK AO2 T10301052
KFET 061315Z AUTO 00000KT 1/2SM FZFG VV005 M10/M11 A3023 RMK AO2 T11021113
KFEW 061258Z AUTO 29026G34KT 10SM CLR M01/M09 A3014 RMK AO2 PK WND 29034/33 SLP254 T10151095 $
KFFA 061315Z AUTO 00000KT 10SM CLR 05/M02 A3045 RMK AO2 T00491018
KFFC 061253Z AUTO 00000KT 10SM CLR M04/M05 A3037 RMK AO2 SLP294 I1000 T10391050 $
KFFL 061315Z AUTO 23003KT 10SM CLR M05/M07 A3027 RMK AO2
KFFM 061314Z AUTO 16009KT 10SM CLR M06/M07 A2998 RMK AO2
KFFO 061258Z AUTO 16001KT 7SM CLR M06/M07 A3033 RMK AO2 SLP283 T10601067
KFFT 061253Z AUTO 00000KT 10SM CLR M06/M08 A3033 RMK AO2 SLP280 T10561083
KFFX 061313Z AUTO 21003KT 10SM BKN060 OVC070 M03/M05 A3020 RMK AO2 T10261054
KFFZ 061247Z 02010KT 20SM SKC A3033
KFGN 061312Z AUTO 14005KT 10SM SCT060 OVC110 M08/M09 A2989 RMK AO2
KFGX 061315Z AUTO 21006KT 10SM CLR M02/M07 A3036 RMK AO2 T10201075
KFHB 061315Z AUTO 03011G20KT 10SM SCT032 OVC050 12/05 A3027 RMK AO1
KFHR 061253Z AUTO 00000KT 10SM FEW039 06/02 A3033 RMK AO2 SLP271 T00560022
KFHU 061258Z AUTO 15004KT 10SM CLR M01/M10 A3036 RMK AO2 SLP272 T10131105
KFIG 061254Z AUTO 28003KT 10SM OVC060 M05/M09 A3030 RMK AO2 SLP282 T10501089
KFIN 061250Z 01011G15KT 10SM CLR 12/10 A3022
KFIT 061252Z AUTO 00000KT 7SM CLR M11/M13 A3035 RMK AO2 SLP283 T11111133
KFKA 061315Z AUTO 26008KT 5SM BR OVC008 M04/M05 A3016 RMK AO2 T10411055
KFKL 061315Z 22006KT 10SM SCT050 M02/M09 A3028 RMK AO1
KFKN 061315Z AUTO 00000KT 10SM CLR M02/M03 A3049 RMK AO2 T10211031
KFKR 061315Z AUTO 21004KT 5SM BR CLR M07/M07 A3034 RMK AO2 T10671075
KFKS 061311Z AUTO 29012G18KT 2SM -SN BKN014 OVC022 M01/M04 A3015 RMK AO2 T10101036
KFLD 061253Z AUTO 23008KT 10SM OVC021 M02/M07 A3018 RMK AO2 SLP234 T10221072
KFLG 061257Z AUTO 00000KT 10SM CLR M13/M16 A3046 RMK AO2 SLP352 I1000 T11331156 TSNO
KFLL 061253Z 32007KT 10SM SCT027 BKN036 BKN070 17/15 A3013 RMK AO2 SLP201 T01720150
KFLO 061253Z 35010KT 10SM CLR 01/M01 A3042 RMK AO2 SLP299 T00061011
KFLP 061315Z 00000KT 10SM CLR M03/M07 A3032 RMK AO1
KFLY 061321Z AUTO 29007KT 10SM CLR M06/M16 A3022 RMK AO2 T10641165
KFME 061324Z AUTO 00000KT 10SM CLR M04/M05 A3048 RMK AO1
KFMM 061315Z AUTO 26011KT 10SM CLR M16/M18 A3021 RMK AO2 T11631180
KFMN 061253Z 02005KT 10SM CLR M12/M14 A3049 RMK AO2 SLP377 T11171139
KFMY 061253Z 03008KT 10SM BKN047 OVC065 12/09 A3015 RMK AO2 SLP210 T01220094
KFNB 061310Z AUTO 00000KT 6SM BR OVC014 M02/M03 A3027 RMK AO2 T10221033
KFNL 061315Z AUTO 00000KT 10SM CLR M11/M13 A3020 RMK AO1
KFNT 061253Z 22008KT 9SM BKN070 M03/M07 A3025 RMK AO2 SLP253 T10281067
KFOA 061315Z AUTO 00000KT 7SM SCT080 M01/M03 A3034 RMK AO2 T10151035
KFOD 061315Z AUTO 26005KT 4SM OVC004 M03/M05 A3021 RMK AO1
KFOE 061253Z 33005KT 10SM CLR M03/M06 A3029 RMK AO2 SLP268 T10331056
KFOK 061253Z A3042 RMK AO2 SLPNO $
KFOT 061315Z AUTO 13008KT 10SM BKN080 08/06 A3042 RMK AO1
KFPK 061315Z AUTO 21006KT 4SM BR SCT060 BKN075 M04/M06 A3024 RMK AO2 T10411056
KFPR 061253Z 05003KT 10SM FEW044 18/15 A3015 RMK AO2 SLP210 T01830150
KFQD 061315Z AUTO 00000KT 10SM CLR M04/M05 A3042 RMK AO2 T10411051
KFRG 061253Z 28004KT 10SM CLR M04/M07 A3042 RMK AO2 SLP302 T10441072 $
KFRI 061258Z AUTO 21002KT 10SM CLR M06/M06 A3029 RMK AO2 SLP267 T10571058
KFRM 061315Z AUTO 22011KT 3SM OVC002 M04/M06 A3012 RMK AO1
KFRR 061315Z AUTO 20003KT 10SM CLR M02/M06 A3041 RMK AO1
KFSD 061256Z 20005KT 10SM SCT240 M07/M09 A3013 RMK AO2 SLP226 I1000 T10721089
KFSE 061314Z AUTO 16009KT 10SM CLR M07/M08 A2988 RMK AO2
KFSI 061258Z AUTO 33007KT 10SM CLR 01/M03 A3032 RMK AO2 SLP271 T00071032
KFSM 061253Z 06005KT 10SM CLR M01/M05 A3033 RMK AO2 SLP273 T10061050
KFSO 061315Z AUTO 19004KT 5SM -SN SCT020 SCT025 OVC036 M03/M07 A3023 RMK AO2 T10271075
KFST 061253Z AUTO 23008KT 10SM CLR M02/M08 A3044 RMK AO2 SLP300 T10171078
KFSW 061315Z AUTO 18004KT 10SM CLR M04/M06 A3028 RMK AO2
KFTK 061258Z AUTO 19003KT 10SM CLR M03/M07 A3032 RMK AO2 SLP278 T10341072
KFTN 061315Z AUTO 32009KT 10SM CLR 05/M03 A3044 RMK A01
KFTW 061253Z 30010G18KT 10SM CLR 03/M03 A3025 RMK AO2 SLP242 T00281028
KFTY 061253Z 05003KT 10SM CLR M03/M05 A3038 RMK AO2 SLP294 T10281050
KFUL 061253Z 00000KT 10SM CLR 10/M03 A3024 RMK AO2 SLP239 T01001033
KFVE 061253Z AUTO 00000KT 9SM CLR M15/M17 A3008 RMK AO2 UPB04E19SNB39E49 SLP206 P0000 T11501172
KFVX 061315Z AUTO 00000KT 10SM CLR M04/M04 A3045 RMK AO2 T10381038
KFWA 061254Z 22004KT 3SM BR SCT250 M06/M07 A3032 RMK AO2 SLP280 I1000 T10561067
KFWB 061315Z AUTO 00000KT 10SM CLR 00/M08 A3031 RMK AO2
KFWC 061315Z AUTO 00000KT 10SM OVC080 M01/M04 A3033 RMK AO1 T10131036
KFWN 061253Z AUTO 00000KT 10SM CLR M06/M07 A3038 RMK AO2 SLP294 T10611072 $
KFWS 061252Z 27009KT 10SM CLR 02/M03 A3026
KFWZ 061315Z AUTO 24010G18KT 10SM CLR M01/M11 RMK AO2
KFXE 061253Z 00000KT 10SM SCT024 BKN065 17/14 A3013 RMK AO2 SLP206 T01670144
KFXY 061315Z AUTO 25007KT 3/4SM BR OVC002 M04/M04 A3018 RMK AO2
KFYG 061315Z AUTO 14003KT 9SM CLR M04/M05 A3030 RMK AO2
KFYJ 061315Z AUTO 00000KT 10SM CLR M03/M03 A3050 RMK AO2 T10261034
KFYM 061315Z AUTO 00000KT 10SM CLR M00/M05 A3039 RMK A01
KFYV 061253Z 00000KT 10SM CLR M05/M06 A3031 RMK AO2 SLP275 T10501061
KFZG 061315Z AUTO 06005KT 10SM CLR 03/M01 A3035 RMK AO2 T00341010
KFZY 061254Z AUTO 19010KT 10SM BKN050 OVC060 01/M07 A3024 RMK AO2 SLP247 T00111067
KGAD 061256Z AUTO 00000KT 10SM CLR M03/M04 A3040 RMK AO2 SLP316 T10331039 FZRANO
KGAF 061335Z AUTO 17010KT 8SM FEW095 M06/M06 A2984 RMK AO2
KGAG 061253Z AUTO 22003KT 10SM CLR M07/M09 A3035 RMK AO2 SLP295 T10721094 TSNO
KGAI 061315Z AUTO 00000KT 10SM CLR M05/M07 A3048 RMK AO1
KGAO 061315Z AUTO 00000KT 10SM CLR 06/03 A3033 RMK AO2 T00570031
KGBD 061315Z AUTO 27004KT 10SM CLR M07/M12 A3032 RMK AO1
KGBG 061315Z AUTO 16003KT 7SM CLR M05/M05 A3027 RMK AO2 T10461055
KGBK 061315Z AUTO 08010G18KT 360V100 10SM SCT026 BKN110 16/10 A3026 RMK A01
KGCC 061253Z AUTO 22016G24KT 10SM CLR 00/M08 A3002 RMK AO2 PK WND 22027/1231 SLP191 T00001078
KGCD 061315Z AUTO 20010KT 10SM CLR 07/00 A3032 RMK AO2 T00691001
KGCK 061254Z 29009KT 10SM CLR M08/M10 A3030 RMK AO2 SLP292 T10781100
KGCM 061315Z AUTO 00000KT 10SM BKN075 00/M03 A3033 RMK AO2
KGCN 061254Z AUTO 00000KT 10SM CLR M13/M16 A3046 RMK AO2 SLP350 T11281156
KGDB 061314Z AUTO 18007KT 7SM CLR M05/M06 A3008 RMK AO2 T10501064
KGDJ 061315Z AUTO 29014G19KT 10SM CLR 05/01 A3029 RMK AO2 T00480007
KGDP 061251Z AUTO 23013KT 10SM CLR M02/M14 A3040 RMK AO2 SLP304 T10221144
KGDV 061315Z AUTO 23012KT 10SM SCT120 04/M05 A2988 RMK AO1
KGED 061254Z AUTO 00000KT 10SM CLR M03/M04 A3047 RMK AO2 SLP318 T10281039
KGEG 061253Z 23019KT 10SM CLR 02/M02 A3018 RMK AO2 PK WND 23026/1154 PRESRR SLP234 T00221017
KGEV 061315Z AUTO 00000KT 10SM CLR M05/M11 A3032 RMK AO2 T10551113
KGEY 061253Z AUTO 00000KT 10SM CLR M08/M11 A3020 RMK AO2 SLP273 T10831106
KGEZ 061303Z AUTO 15004KT 3SM BR CLR M06/M07 A3033 RMK AO2 T10561072
KGFA 061259Z AUTO 22019G26KT 10SM CLR 05/M06 A2987 RMK AO2 PK WND 21027/37 SLP137 T00481057 TSNO $
KGFK 061253Z 16010KT 10SM BKN120 M06/M09 A2985 RMK AO2 SLP123 T10611089 $
KGFL 061253Z AUTO 18006KT 10SM CLR M04/M08 A3032 RMK AO2 SLP277 T10441083
KGGE 061315Z AUTO 02005KT 10SM SCT060 BKN070 04/00 A3041 RMK AO2
KGGG 061253Z 12006KT 10SM -RA OVC048 04/03 A3028 RMK AO2 SLP258 P0002 T00390028
KGGI 061315Z AUTO 20003KT 10SM OVC013 M02/M03 A3023 RMK AO2 T10171032
KGGP 061315Z AUTO 19004KT 5SM BR CLR M06/M08 A3033 RMK AO2
KGGW 061253Z AUTO 20008KT 10SM SCT075 BKN095 03/M03 A2978 RMK AO2 RAB28E36 SLP106 P0000 T00331028
KGHB 061315Z AUTO 09006G14KT 10SM OVC120 15/07 A3028 RMK A01
KGHG 061315Z AUTO 26004KT 10SM CLR M04/M06 A3038 RMK AO2
KGHW 061314Z AUTO 19006KT 10SM SCT120 M07/M07 A3001 RMK AO2
KGIC 061315Z AUTO 24012G19KT 10SM BKN041 OVC048 04/M01 A3025 RMK AO1
KGIF 061253Z AUTO 36006KT 10SM CLR 10/08 A3019 RMK AO2 SLP222 T01000078
KGJT 061253Z AUTO 00000KT 7SM CLR M17/M18 A3059 RMK AO2 SLP440 T11671178
KGKJ 061253Z AUTO 22006KT 10SM CLR M02/M08 A3024 RMK AO2 SLP258 T10171083 TSNO
KGKT 061315Z AUTO 00000KT 10SM M06/M08 A3041 RMK
KGKY 061253Z 28006KT 10SM CLR 04/M02 A3024 RMK AO2 SLP238 T00391022
KGLD 061253Z AUTO 24012KT 10SM CLR M06/M12 A3023 RMK AO2 SLP273 T10611117
KGLE 061315Z AUTO 00000KT 10SM SCT013 SCT022 OVC046 05/02 A3032 RMK AO2 T00460019
KGLH 061253Z AUTO 00000KT 10SM CLR 03/M02 A3037 RMK AO2 SLP291 T00281022
KGLR 061320Z AUTO 23013KT 1 3/4SM -SN BR SCT021 BKN040 OVC080 M04/M07 A3007 RMK AO2 P0000 T10441067
KGLS 061316Z 31008KT 10SM VCTS -RA FEW033 BKN055 OVC070 10/08 A3033 RMK AO2 LTG DSNT S AND SW P0000 T01000078
KGLW 061315Z AUTO 00000KT 10SM CLR M02/M07 A3038 RMK AO2 T10191070
KGLY 061315Z AUTO 22005KT 10SM 00/M03 A3030 RMK AO2
KGMJ 061315Z AUTO 00000KT 10SM CLR M01/M03 A3032 RMK AO2
KGMU 061253Z 02009KT 10SM CLR 01/M09 A3041 RMK AO2 SLP305 T00061089
KGNA 061256Z AUTO 26003KT M06/M09 A3003 RMK AO1 SLP185 T10561094
KGNC 061315Z AUTO 32007KT 10SM CLR M06/M09 A3042 RMK AO2 T10651092
KGNR 061256Z AUTO 00000KT M09/M13 A3012 RMK AO1 SLP228 T10941133
KGNT 061315Z AUTO 29006KT 10SM CLR M14/M17 A3049 RMK AO2 T11431166
KGNV 061253Z 02011G16KT 10SM OVC065 07/02 A3025 RMK AO2 SLP243 T00720022
KGOK 061253Z AUTO 00000KT 10SM BKN032 BKN048 02/M01 A3033 RMK AO2 SLP276 T00221011
KGON 061256Z 01003KT 10SM CLR M07/M07 A3041 RMK AO2 SLP296 T10671072 $
KGOP 061315Z AUTO 32016G22KT 10SM CLR 06/M01 A3030 RMK AO2
KGOV 061314Z AUTO 21005KT 10SM BKN037 OVC080 M04/M07 A3012 RMK AO2 T10421071
KGPH 061315Z AUTO 00000KT 10SM CLR M04/M05 A3029 RMK AO2
KGPI 061255Z AUTO 24009G17KT 10SM CLR 04/M03 A3001 RMK AO2 SLP180 T00441033
KGPM 061135Z AUTO 00000KT 10SM CLR 04/01 A3023 RMK AO2 T00360011
KGPT 061253Z 00000KT 10SM CLR M01/M03 A3037 RMK AO2 SLP283 T10111028
KGPZ 061315Z AUTO 17007KT 7SM BKN080 OVC120 M07/M09 A2997 RMK AO1
KGRB 061253Z 24008KT 10SM OVC014 M03/M07 A3016 RMK AO2 SLP224 T10331067
KGRD 061256Z AUTO 01003KT 10SM CLR M03/M06 A3042 RMK AO2 SLP305 T10331056
KGRF 061326Z AUTO M 10SM UP FEW027 SCT035 BKN041 06/06 A3040 RMK AO2 UPB04E16UPB26 $
KGRI 061253Z 25008KT 10SM CLR M07/M09 A3023 RMK AO2 SLP265 T10721094
KGRK 061258Z AUTO 30008KT 6SM HZ CLR 05/M04 A3028 RMK AO2 SLP257 T00491041
KGRR 061253Z 21009KT 5SM BR OVC100 M03/M04 A3024 RMK AO2 SLP251 T10281044
KGRY 061315Z AUTO 08009G15KT 10SM BKN075 OVC095 14/05 A3028 RMK A01
KGSB 061258Z AUTO 00000KT 10SM CLR 00/00 A3044 RMK AO2 SLP312
KGSH 061303Z AUTO 17004KT 2 1/2SM BR BKN075 M06/M07 A3030 RMK AO2 T10561072
KGSO 061254Z 00000KT 10SM BKN200 M02/M08 A3041 RMK AO2 SLP303 T10221078
KGSP 061253Z 01003KT 10SM CLR M01/M07 A3040 RMK AO2 SLP301 T10111072
KGTB 061258Z AUTO 22009KT 10SM SCT032 BKN042 BKN050 OVC060 M01/M06 A3019 RMK AO2 SLP233 T10111059
KGTF 061253Z 22014KT 10SM CLR 04/M07 A2987 RMK AO2 PK WND 21030/1213 SLP139 T00391067
KGTR 061250Z 00000KT 10SM BKN090 01/M02 A3038
KGTU 061253Z 29009 10SM CLR 06/M04 A3029
KGUC 061315Z AUTO 00000KT 10SM CLR M29/ A3057 RMK AO1
KGUL 061315Z AUTO 00000KT 1 1/2SM HZ FEW005 BKN031 OVC055 16/11 A3028 RMK A01
KGUP 061253Z AUTO 00000KT 10SM CLR M12/M15 A3048 RMK AO2 SLP399 T11221150
KGUR 061315Z AUTO 30007KT 10SM CLR M02/M06 A3015 RMK AO2 T10191061 PWINO
KGUS 061258Z AUTO 21005KT 8SM CLR M07/M08 A3030 RMK AO2 SLP276 T10731084
KGUY 061253Z AUTO 28006KT 10SM CLR M06/M10 A3033 RMK AO2 SLP289 T10561100
KGVE 061315Z AUTO 00000KT 10SM CLR M04/M05 A3044 RMK AO1 T10371049
KGVL 061253Z AUTO 04004KT 10SM CLR M01/M08 A3038 RMK AO2 SLP295 T10111083
KGVT 061310Z AUTO 06006KT 10SM -RA BKN021 OVC029 05/03 A3028 RMK AO2
KGVX 061320Z AUTO VRB04KT 9SM CLR A3028 RMK A01
KGWB 061315Z AUTO 00000KT 2SM BR CLR M05/M06 A3033 RMK AO2
KGWO 061253Z AUTO 00000KT 10SM CLR 01/M03 A3037 RMK AO2 SLP286 T00111033
KGWR 061315Z AUTO 21015KT M02/M04 A2991 RMK AO1
KGWW 061315Z AUTO 00000KT 10SM CLR 00/M01 A3047 RMK AO2 T10051009
KGXA 061255Z AUTO 14005KT 10SM CLR 00/M07 A3040 RMK AO2 SLP323 WND DATA ESTMD T00001073 TSNO $
KGXF 061258Z AUTO 07002KT 10SM CLR 07/M08 A3030 RMK AO2 SLP258 T00701082
KGXY 061315Z 33005KT 10SM CLR M17/M19 A3024 RMK AO1
KGYB 061315Z AUTO 29005KT 10SM CLR 05/02 A3034 RMK AO2 T00500021
KGYH 061247Z 04004KT 10 SM CLR 01/M10 A3040
KGYI 061315Z AUTO 06011G14KT 7SM -RA BKN011 OVC018 04/02 A3032 RMK AO2 P0002 T00420023
KGYL 061315Z AUTO 19006KT 7SM CLR M06/M06 A3010 RMK AO2 T10601063
KGYR 061247Z VRB04KT 10SM SKC 08/M08 A RMK FIRST DASI CORRECTION -.01
KGYY 061245Z 21007KT 7SM BKN070 M03/M05 A3031
KGZH 061253Z AUTO 00000KT 10SM CLR M02/M04 A3036 RMK AO2 SLP282 T10221044
KGZL 061315Z AUTO 10SM M02/M05 A3034 RMK AO2 PWINO TSNO
KH78 061140Z 35006KT 12SM SCT010 13/04 A3028 RMK SEAS 1-2
KHAE 061315Z AUTO 15004KT 10SM CLR M01/M07 A3028 RMK AO2
KHAF 061315Z AUTO 15006KT 7SM FEW002 09/08 A3040 RMK AO2
KHAI 061315Z AUTO 21007KT 2 1/2SM BR SCT070 OVC090 M05/M05 A3028 RMK AO2 T10471051
KHAO 061253Z AUTO 00000KT 4SM BR CLR M07/M08 A3036 RMK AO2 SLP290 I1000 T10671078
KHBG 061253Z AUTO 00000KT 10SM CLR M01/M02 A3039 RMK AO2 SLP292 T10111022 $
KHBI 061315Z AUTO 00000KT 10SM CLR M03/M06 A3046 RMK AO2 T10351059
KHBR 061253Z AUTO 33012KT 10SM CLR M02/M05 A3036 RMK AO2 SLP288 T10171050
KHCD 061313Z AUTO 17004KT 10SM CLR M07/M08 A3011 RMK AO2 T10701076
KHCO 061314Z AUTO 16010KT 10SM OVC095 M06/M07 A2983 RMK AO2
KHDC 061315Z AUTO 09007KT 10SM CLR 02/M02 A3031 RMK AO2
KHDE 061315Z AUTO 27010KT 10SM CLR M08/M10 A3023 RMK AO2 T10771105
KHDN 061315Z AUTO 12009KT 10SM CLR M15/M18 A3046 RMK AO1
KHDO 061251Z AUTO 33009KT 10SM CLR M01/M04 A3040 RMK AO2 SLP292 T10061039
KHEF 061245Z 00000KT 10SM CLR M06/M06 A3047
KHEI 061253Z AUTO 28009KT 10SM CLR M01/M07 A2991 RMK AO2 SLP161 T10111067
KHEQ 061315Z AUTO 27009KT 10SM CLR M07/M12 A3020 RMK AO2
KHEY 061153Z AUTO 35004KT 10SM CLR 01/M05 A3032 RMK AO2 SLP260 T00111050 10044 20006 55001 $
KHEZ 061315Z AUTO 00000KT 10SM CLR 02/M04 A3034 RMK AO1
KHFD 061253Z 18003KT 10SM CLR M07/M08 A3041 RMK AO2 SLP297 I1000 T10671083 $
KHFF 061256Z AUTO 32001KT 10SM FEW220 M02/M03 A3044 RMK AO2 SLP328 T10211029 $
KHFJ 061315Z AUTO 19003KT 10SM CLR 00/M08 A3029 RMK AO2
KHGR 061314Z 16005KT 10SM CLR M02/M08 A3041 RMK AO2 T10171083
KHHF 061315Z AUTO 00000KT 10SM CLR M06/M08 A3035 RMK AO2 T10571085
KHHG 061315Z AUTO 00000KT 4SM BR CLR M06/M08 A3033 RMK AO2 T10571076
KHHR 061253Z AUTO 00000KT 10SM CLR 12/M04 A3025 RMK AO2 SLP244 T01221039 $
KHHV 061315Z AUTO 30006KT 6SM HZ FEW035 SCT055 BKN065 15/12 A3031 RMK A01
KHHW 061315Z AUTO 00000KT 10SM OVC060 05/M05 A3032 RMK AO2 T00491047
KHIB 061253Z AUTO 00000KT 9SM FEW080 OVC110 M11/M11 A2998 RMK AO2 SLP180 T11061111 $
KHIE 061252Z AUTO 00000KT 10SM FEW070 M08/M11 A3022 RMK AO2 SLP253 T10781106
KHIF 061258Z AUTO 12011KT 10SM CLR M05/M11 A3050 RMK AO2 SLP352 T10521115
KHII 061315Z AUTO 01007KT 10SM CLR 09/M04 A3039 RMK AO2
KHIO 061253Z 00000KT 10SM CLR 03/02 A3044 RMK AO2 SLP310 T00280022
KHJH 061315Z AUTO 00000KT 10SM CLR M09/M10 A3027 RMK AO2 T10951103
KHJO 061308Z AUTO 00000KT 1/2SM FG VV003 01/01 A3042 RMK AO2 T00110006
KHKA 061253Z AUTO 20004KT 10SM CLR 01/M03 A3037 RMK AO2 SLP286 T00111033
KHKS 061253Z AUTO 00000KT 10SM CLR 03/M01 A3036 RMK AO2 SLP278 T00281006
KHKY 061253Z 00000KT 10SM CLR M03/M06 A3040 RMK AO2 SLP295 T10281056
KHLC 061253Z AUTO 28007KT 10SM CLR M09/M13 A3029 RMK AO2 SLP284 T10891128
KHLG 061253Z AUTO 20007KT 10SM CLR M02/M09 A3030 RMK AO2 SLP277 T10171094
KHLN 061253Z 23006KT 10SM FEW075 M02/M06 A3000 RMK AO2 SLP202 T10221061
KHLR 061258Z AUTO 29015KT 9SM CLR 05/M04 A3026 RMK AO2 SLP248 T00511042
KHLX 061315Z AUTO 23005KT 10SM CLR M04/M10 A3033 RMK AO2 T10431097
KHMN 061258Z AUTO 04007KT 10SM CLR M09/M17 A3046 RMK AO2 SLP324 T10891173 $
KHMZ 061315Z AUTO 00000KT 7SM CLR M07/M09 A3035 RMK AO2 T10731090
KHNB 061315Z AUTO 04003KT 9SM OVC075 M03/M06 A3035 RMK AO1
KHND 061256Z AUTO 13003KT 10SM CLR 01/M04 A3048 RMK AO2 SLP330 T00111039
KHNR 061315Z AUTO 26006KT 1 3/4SM BR OVC003 M02/M02 A3027 RMK AO2
KHNZ 061315Z AUTO 00000KT 10SM CLR M01/M07 A3045 RMK AO2 T10071070
KHOB 061250Z 29006KT 10SM SKC M08/M08 A3040
KHOE 061315Z AUTO 05004KT 10SM SCT039 SCT060 BKN075 06/01 A3031 RMK AO2
KHON 061255Z AUTO 20010KT 10SM CLR M05/M07 A3004 RMK AO2 SLP190 T10501072
KHOP 061258Z AUTO 16003KT 10SM CLR M02/M05 A3036 RMK AO2 SLP287 T10171052 FZRANO
KHOT 061253Z AUTO 00000KT 10SM CLR M01/M05 A3034 RMK AO2 SLP277 T10111050
KHOU 061253Z 00000KT 10SM FEW035 SCT060 SCT160 08/06 A3031 RMK AO2 WSHFT 1141 TSE38RAE24 SLP268 TS MOVD SE CB DSNT NE P0006 T00780061
KHPN 061256Z 27005KT 10SM CLR M03/M08 A3038 RMK AO2 SLP298 T10281083
KHQG 061315Z AUTO 30006KT 10SM CLR M08/M11 A3034 RMK AO2 T10781106
KHQI 061320Z AUTO 36012G17KT 4SM HZ SCT035 BKN044 OVC050 14/10 A3031 RMK A01
KHQM 061253Z AUTO 27004KT 8SM SCT025 BKN030 BKN055 07/05 A3039 RMK AO2 SLP294 T00670050
KHQU 061315Z AUTO 05004KT 10SM CLR M01/M01 A3041 RMK AO1 T10131013
KHQZ 061250Z 05005KT 10SM CLR 03/02 A3026
KHRI 061253Z AUTO 20006KT 10SM CLR 06/01 A3036 RMK AO2 SLP283 T00560006
KHRJ 061315Z AUTO 00000KT 10SM CLR 00/M02 A3045 RMK AO2 T00031021
KHRL 061252Z 30006KT 10SM CLR 08/06 A3036 RMK AO2 SLP279 T00830061
KHRO 061253Z AUTO 00000KT 10SM CLR 01/M08 A3031 RMK AO2 SLP269 T00061078
KHRT 061258Z AUTO 36007KT 10SM CLR 00/M05 A3033 RMK AO2 SLP273 T00031049 $
KHSA 061251Z 00000KT 10SM CLR M03/M04 A3038
KHSB 061315Z AUTO 00000KT 10SM CLR M05/M05 A3035 RMK AO2 T10461055
KHSE 061251Z AUTO VRB06KT 10SM BKN050 06/M01 A3042 RMK AO2 SLP302 T00611011 TSNO
KHSI 061253Z AUTO 24007KT 10SM CLR M08/M11 A3023 RMK AO2 SLP261 T10831106
KHSP 061315Z AUTO 00000KT 10SM CLR M03/M10 A3025 RMK AO2 T10341104
KHST 061258Z AUTO 33005KT 10SM FEW022 SCT029 16/15 A3012 RMK AO2 DZB03E12 SLP203 P0000 T01610147
KHSV 061253Z 00000KT 10SM BKN140 01/M03 A3039 RMK AO2 SLP294 T00061028
KHTL 061253Z AUTO 21008KT 10SM BKN045 OVC070 M05/M08 A3014 RMK AO2 SLP227 T10501083
KHTO 061315Z AUTO 00000KT 10SM CLR M07/M09 A3041 RMK AO2 T10751087
KHTS 061251Z 19005KT 10SM CLR M02/M08 A3036 RMK AO2 SLP287 T10171083
KHUA 061258Z AUTO 00000KT 10SM OVC140 M01/M04 A3038 RMK AO2 SLP295 T10101037
KHUF 061253Z 00000KT 6SM BR OVC070 M04/M06 A3034 RMK AO2 SLP282 T10391056
KHUL 061253Z AUTO 22004KT 10SM CLR M12/M14 A3016 RMK AO2 SLP225 T11171144 $
KHUM 061247Z 07007KT 7SM SKC 02/M01 A3030 RMK ATIS T.....RWY 36....RJ
KHUT 061252Z 30006KT 10SM CLR M05/M07 A3032 RMK AO2 SLP276 I1000 T10501072
KHVE 061315Z AUTO 31005KT 10SM OVC005 M09/M10 A3065 RMK AO2
KHVN 061253Z 00000KT 10SM SCT250 M07/M07 A3041 RMK AO2 SLP297 T10721072
KHVR 061253Z AUTO 24016KT 10SM FEW100 05/M03 A2977 RMK AO2 SLP093 T00501033
KHVS 061315Z AUTO 06003KT 10SM CLR 01/M03 A3042 RMK AO2
KHWD 061254Z 03003KT 6SM BR CLR 07/05 A3040 RMK AO2 SLP303 T00670050 $
KHWO 061253Z 31005KT 10SM OVC065 17/15 A3015 RMK AO2 SLP208 T01720150
KHWV 061256Z AUTO 00000KT 10SM CLR M07/M08 A3043 RMK AO2 SLP304 I1000 T10721083 TSNO
KHWY 061315Z AUTO 00000KT 10SM CLR M04/M04 A3046 RMK AO2 T10401043
KHXD 061250Z 03010G18KT 10SM BKN065 07/M01 A3036
KHYA 061256Z 26003KT 10SM CLR M05/M08 A3037 RMK AO2 SLP287 T10501078 $
KHYI 061250Z 29006KT 10SM CLR 05/M03 A3033 RMK FIRST
KHYR 061253Z AUTO 22005KT 8SM OVC012 M05/M08 A3007 RMK AO2 SLP205 T10501078
KHYS 061315Z AUTO 26006KT 10SM CLR M08/M16 A3029 RMK AO1
KHYW 061315Z AUTO 00000KT 5SM BR CLR 00/M01 A3042 RMK AO2
KHYX 061315Z AUTO 21008KT 10SM SCT060 SCT080 OVC100 M02/M05 A3023 RMK AO2
KHZE 061315Z AUTO 25009KT 10SM SCT033 BKN110 00/M04 A2983 RMK AO2 TSNO
KHZL 061315Z AUTO 00000KT 10SM CLR M04/M07 A3035 RMK AO2
KHZR 061315Z AUTO 00000KT 10SM CLR 02/01 A3034 RMK AO2 T00200008
KHZX 061316Z AUTO 19005KT 5SM OVC120 M06/M07 A3002 RMK AO2
KHZY 061253Z AUTO 25008KT 10SM OVC022 M01/M06 A3029 RMK AO2 SLP269 T10111056 TSNO
KI16 061315Z AUTO 10SM M04/M06 A3042 RMK AO2 T10401065
KI35 061315Z AUTO 00000KT 10SM CLR M03/M05 A3038 RMK AO1
KI39 061315Z AUTO 20006KT 10SM CLR 00/M09 A3035 RMK AO2
KI63 061315Z AUTO 15004KT 10SM CLR M04/M06 A3028 RMK AO2 T10431060
KI67 061315Z AUTO 00000KT 5SM CLR M06/M07 A3036 RMK AO1
KI69 061316Z AUTO 00000KT 5SM BR CLR M04/M04 A3035 RMK AO2 T10451045
KI75 061315Z AUTO 24003KT 7SM CLR M05/M06 A3024 RMK AO2 T10481056
KIAB 061258Z AUTO 34005KT 10SM CLR M02/M03 A3031 RMK AO2 SLP278 T10191035
KIAD 061252Z 00000KT 10SM BKN250 M04/M07 A3045 RMK AO2 SLP316 T10441067
KIAG 061259Z 24017G22KT 8SM -SN SCT023 BKN055 OVC150 01/M03 A3020 RMK AO2 SNB59 P0000 T00111033
KIAH 061253Z 19003KT 10SM FEW090 BKN100 06/06 A3030 RMK AO2 TSE27RAE1157B13E23 SLP261 OCNL LTGIC DSNT SE TS MOV SE CB DSNT SE MOV SE P0000 T00610056 $
KIBM 061315Z AUTO 27017KT 10SM CLR M03/M09 A3016 RMK AO2 T10281088
KICL 061315Z AUTO 32006KT 6SM BR OVC006 M01/M01 A3028 RMK AO2
KICR 061253Z AUTO 21010KT 10SM CLR M03/M09 A3006 RMK AO2 SLP203 T10281089
KICT 061253Z 32006KT 10SM CLR M03/M05 A3032 RMK AO2 SLP276 T10281050
KIDA 061253Z AUTO 01005KT 10SM FEW003 M09/M11 A3046 RMK AO2 SLP376 T10941111
KIDI 061315Z AUTO 24005KT 10SM OVC060 M02/M07 A3033 RMK A01
KIDP 061315Z AUTO 31004KT 10SM SCT050 OVC065 01/M02 A3032 RMK AO2
KIEN 061252Z AUTO 25007KT 10SM CLR M03/M09 A3010 RMK AO2 SLP227 T10331094
KIER 061315Z AUTO 26003KT 10SM SCT075 OVC085 03/02 A3037 RMK AO2 T00300015
KIFA 061315Z AUTO 24009KT 2 1/2SM BR OVC004 M02/M02 A3021 RMK AO2 T10171025
KIFP 061315Z AUTO 02018G24KT 10SM CLR 10/M03 A3041 RMK AO2
KIGM 061251Z AUTO 06004KT CLR M01/ A3043 RMK AO2 SLP286 T1006 $
KIGQ 061315Z AUTO 19005KT 5SM BR BKN070 M04/M06 A3030 RMK AO2 T10421056
KIGX 061256Z AUTO 00000KT 10SM CLR M02/M06 A3045 RMK AO2 SLP313 T10171061 TSNO $
KIIB 061315Z AUTO 25009KT 4SM BR OVC007 M01/M01 A3021 RMK AO2
KIIY 061315Z AUTO 00000KT 10SM CLR 02/M01 A3038 RMK AO2
KIJD 061252Z AUTO 00000KT 10SM CLR M11/M12 A3040 RMK AO2 SLP298 I1000 T11061117 $
KIJX 061315Z AUTO 16005KT 10SM CLR M01/M04 A3031 RMK AO2 T10091045
KIKK 061315Z AUTO 19004KT 5SM BR CLR M05/M07 A3032 RMK AO2 T10551070
KIKT 061315Z AUTO VRB06G11KT 10SM FEW050 14/03 A3031 RMK A01
KIKV 061315Z AUTO 00000KT 4SM BR BKN008 OVC018 M01/M01 A3024 RMK AO2
KIKW 061314Z AUTO 19005KT 10SM SCT046 SCT050 OVC110 M03/M07 A3021 RMK AO2 T10351070
KILE 061256Z AUTO 29013G19KT 10SM CLR 06/M04 A3028 RMK AO2 SLP276 T00561039
KILG 061251Z 29004KT 10SM CLR M04/M07 A3045 RMK AO2 SLP312 T10391072
KILM 061253Z AUTO 35005KT 10SM BKN070 02/M01 A3042 RMK AO2 SLP299 T00171011
KILN 061254Z AUTO 00000KT 3SM BR CLR M05/M07 A3032 RMK AO2 SLP299 I1000 T10501067
KIML 061253Z AUTO 27011KT 10SM CLR M09/M14 A3021 RMK AO2 SLP272 T10891139 $
KIMS 061312Z AUTO 00000KT 4SM CLR M03/M05 A3037 RMK AO1
KIMT 061254Z AUTO VRB05KT 6SM HZ FEW018 OVC025 M05/M09 A3005 RMK AO2 SLP197 T10501089 TSNO
KIND 061254Z 00000KT 4SM BR FEW250 M06/M08 A3031 RMK AO2 SLP275 I1000 T10561083
KINF 061315Z AUTO 04009KT 10SM BKN055 10/06 A3023 RMK AO2
KINJ 061315Z AUTO 29004KT 10SM CLR 00/M03 A3026 RMK AO2 T00001035
KINK 061253Z AUTO 11003KT 10SM CLR M06/M11 A3042 RMK AO2 SLP307 T10611106 TSNO
KINL 061255Z AUTO 00000KT 5SM BR BKN055 OVC110 M08/M09 A2995 RMK AO2 SLP164 T10831094
KINS 061258Z AUTO 01002KT 10SM CLR M02/M05 A3045 RMK AO2 SLP310 T10201049
KINT 061254Z 00000KT 10SM CLR M02/M08 A3042 RMK AO2 SLP307 T10221083
KINW 061256Z AUTO 11005KT 10SM CLR M08/M11 A3052 RMK AO2 SLP361 T10831106
KIOB 061315Z AUTO 23005KT 10SM CLR 00/M08 A3036 RMK AO2
KIOW 061252Z AUTO 00000KT 10SM CLR M04/M06 A3027 RMK AO2 SLP261 T10441061
KIPJ 061315Z AUTO 00000KT 10SM CLR M03/M05 A3042 RMK AO2 T10301050
KIPL 061253Z AUTO 25006KT 10SM CLR 06/M04 A3034 RMK AO2 SLP274 T00561039
KIPN 061315Z AUTO 00000KT 10SM SCT050 BKN055 BKN070 15/02 A3030 RMK A01
KIPT 061254Z 00000KT 10SM OVC075 M04/M07 A3037 RMK AO2 SNB09E19 SLP293 P0000 T10391072 $
KIRK 061255Z AUTO 00000KT 10SM CLR M06/M09 A3026 RMK AO2 SLP264 T10611089
KIRS 061314Z AUTO 22005KT 2 1/2SM BR OVC065 M05/M06 A3028 RMK AO2 T10501057
KISM 061250Z 35006KT 10SM SCT060 11/09 A3019
KISN 061252Z AUTO 19007KT 10SM BKN110 02/M03 A2977 RMK AO2 SLP102 T00221028
KISO 061035Z AUTO 00000KT 7SM CLR M02/M03 A3045 RMK AO2 T10221026
KISP 061256Z 00000KT 8SM BKN260 M07/M08 A3040 RMK AO2 SLP294 T10721078 $
KISQ 061314Z AUTO 26004KT 10SM OVC033 M04/M07 A3006 RMK AO2 T10401075
KISW 061254Z AUTO 26006KT 8SM OVC009 M04/M06 A3016 RMK AO2 SLP230 T10391061
KITH 061256Z 18008KT 10SM BKN070 M03/M08 A3027 RMK AO2 SLP265 T10281078
KITR 061253Z AUTO 25011KT 10SM CLR M08/M14 A3023 RMK AO2 SLP276 T10781139
KIWA 061255Z 12004KT 20SM SKC 02/M05 A3033
KIWD 061315Z AUTO 24005KT 6SM CLR M07/M09 A3002 RMK AO1
KIWI 061253Z AUTO 00000KT 10SM CLR M10/M12 A3032 RMK AO2 SLP269 T11001117
KIXA 061315Z AUTO 00000KT 10SM CLR M02/M03 A3047 RMK AO2
KIXD 061253Z 31006KT 10SM CLR M03/M05 A3028 RMK AO2 SLP263 T10281050
KIYA 061315Z AUTO 00000KT 10SM BKN110 03/02 A3034 RMK AO2 LTG DSNT SW T00290018
KIZA 061313Z AUTO 00000KT 10SM CLR 02/00 A3029 RMK AO2
KIZG 061254Z AUTO 00000KT 10SM CLR M08/M11 A3027 RMK AO2 SLP259 T10831111
KJAC 061315Z 15006KT 10SM FEW026 OVC036 M08/M09 A3036 RMK AO1
KJAN 061254Z 00000KT 10SM FEW100 SCT150 BKN250 02/M01 A3035 RMK AO2 SLP281 T00221011
KJAS 061315Z AUTO 09006KT 5SM -RA SCT038 SCT047 04/03 A3035 RMK AO2 P0003 T00400033
KJAU 061315Z AUTO 00000KT 10SM CLR M05/M07 A3039 RMK
KJAX 061256Z 02009KT 10SM FEW036 SCT048 BKN065 BKN250 07/01 A3028 RMK AO2 SLP255 T00670011
KJBR 061253Z AUTO 00000KT 10SM CLR M01/M03 A3037 RMK AO2 SLP284 T10111033
KJCT 061251Z AUTO 29004KT 10SM CLR M02/M07 A3040 RMK AO2 SLP285 T10221072
KJDD 061315Z AUTO 00000KT 10SM BKN033 BKN042 OVC060 05/04 A3028 RMK AO2
KJDN 061248Z AUTO 22012KT 04/M02 A2984 RMK AO1 SLP125 T00391022
KJEF 061253Z 11003KT 10SM CLR M03/M07 A3029 RMK AO2 SLP251 T10281067
KJER 061253Z AUTO 03014KT 10SM CLR M08/M10 A3044 RMK AO2 SLP353 I1001 T10781100
KJES 061315Z AUTO 06005KT 10SM OVC070 07/00 A3033 RMK AO2
KJFK 061251Z 27006KT 10SM SCT250 M01/M07 A3044 RMK AO2 SLP307 T10111072
KJFX 061315Z AUTO 00000KT 9SM CLR M00/M01 A3039 RMK AO2
KJFZ 061315Z AUTO 16004KT 10SM CLR M03/M12 A3033 RMK AO2 T10291116
KJGG 061315Z AUTO 00000KT 10SM CLR M01/M02 A3049 RMK AO1
KJHN 061315Z AUTO 29007KT 10SM CLR M08/M11 A3031 RMK AO2 T10811109
KJHW 061315Z AUTO 22006KT 10SM OVC027 M03/M09 A3020 RMK AO1
KJKA 061315Z AUTO 00000KT 10SM CLR 01/M03 A3036 RMK AO2 T00051026
KJKJ 061311Z AUTO 16011KT 10SM CLR M06/M08 A2992 RMK AO2
KJKL 061253Z AUTO 20003KT 10SM CLR M02/M09 A3035 RMK AO2 SLP288 T10171094
KJLN 061253Z 22006KT 10SM CLR 01/M07 A3030 RMK AO2 SLP266 T00111067
KJMR 061317Z AUTO 21005KT 10SM OVC007 M04/M06 A3008 RMK AO2
KJMS 061256Z AUTO 23012KT 10SM OVC110 00/M05 A2983 RMK AO2 SLP120 T00001050
KJNX 061315Z AUTO 00000KT 10SM CLR M01/M01 A3046 RMK AO2
KJOT 061315Z AUTO 19003KT 5SM BR CLR M05/M06 A3030 RMK AO2 T10461060
KJQF 061115Z AUTO 00000KT 10SM CLR M03/M06 A3045 RMK AO2
KJSO 061315Z AUTO 10003KT 10SM SCT028 BKN034 02/02 A3028 RMK AO2 LTG DSNT S T00260020
KJST 061254Z AUTO 20007KT 10SM CLR M04/M11 A3026 RMK AO2 SLP279 T10391106
KJSV 061315Z AUTO 00000KT 10SM CLR 00/M04 A3033 RMK AO2
KJTC 061315Z AUTO 14003KT 10SM CLR M12/M16 A3047 RMK AO2
KJVL 061245Z 21007KT 10SM KBN023 M03/M04 A3022
KJVW 061315Z AUTO 8SM 01/M01 A3037 RMK AO2
KJWG 061315Z AUTO 31004KT M02/M03 A3035 RMK AO2 T10181027 PWINO
KJWN 061315Z AUTO 00000KT 9SM CLR M04/M05 A3040 RMK
KJWY 061315Z AUTO 29008KT 10SM CLR 02/00 A3025 RMK AO2 T00161004
KJXI 061315Z AUTO 00000KT 10SM OVC045 03/03 A3030 RMK AO2 T00310026
KJXN 061256Z 24005KT 3SM BR SCT080 M04/M07 A3026 RMK AO2 SLP261 T10441067
KJYG 061315Z AUTO 19007KT 7SM CLR M04/M04 A3013 RMK AO2
KJYL 061315Z AUTO 10005KT 10SM CLR 04/00 A3036 RMK AO2 T00380002
KJYM 061315Z AUTO 24005KT 3SM BR BKN065 OVC090 M05/M06 A3027 RMK AO2 T10511057
KJYO 061315Z AUTO 23004KT 10SM CLR M02/M04 A3045 RMK AO2
KJYR 061315Z AUTO 25006KT 9SM CLR M11/M12 A3024 RMK AO2
KJZI 061315Z AUTO 36006KT 10SM OVC046 06/M00 A3038 RMK AO2
KJZP 061315Z AUTO 13003KT 10SM CLR 02/M23 A3039 RMK AO2 T00231227
KK88 061315Z AUTO 00000KT 10SM CLR M03/M05 A3032 RMK AO1 T10271047
KKLS 061315Z AUTO 13006KT 10SM OVC060 06/03 A3047 RMK AO1
KL18 061315Z AUTO 02005KT 10SM CLR 13/M06 A3026 RMK AO2
KL35 061315Z AUTO 00000KT 10SM CLR M07/M11 A3044 RMK AO2
KL38 061315Z AUTO 00000KT 10SM SCT120 03/00 A3032 RMK AO2 T00301005
KLAA 061253Z AUTO 20008KT 10SM CLR M11/M12 A3029 RMK AO2 SLP293 T11061122 TSNO
KLAF 061254Z 00000KT 4SM BR CLR M07/M08 A3034 RMK AO2 SLP281 I1000 T10721083
KLAL 061250Z 02006KT 10SM SCT060 09/07 A3019
KLAM 061315Z AUTO 00000KT 10SM CLR M07/M13 A3040 RMK AO2 T10711134
KLAN 061253Z 22008KT 6SM BR OVC070 M03/M06 A3025 RMK AO2 SLP256 T10331056 $
KLAR 061253Z AUTO 22017G26KT 10SM CLR M07/M13 A3023 RMK AO2 PK WND 22030/1215 SLP285 T10721128
KLAS 061256Z 21004KT 10SM CLR 04/M04 A3043 RMK AO2 SLP305 T00441039
KLAW 061253Z AUTO 34010KT 10SM CLR 02/M03 A3034 RMK AO2 SLP278 T00171033 TSNO
KLAX 061253Z 10003KT 10SM CLR 12/M03 A3025 RMK AO2 SLP241 T01171033
KLBB 061253Z 27007KT 10SM CLR M08/M10 A3038 RMK AO2 SLP303 T10781100
KLBE 061259Z 23006KT 10SM BKN060 M02/M07 A3032
KLBF 061253Z AUTO 31004KT 10SM CLR M11/M14 A3020 RMK AO2 SLP263 I1000 T11111144
KLBL 061315Z 30008KT 10SM CLR M07/M11 A3032 RMK AO1
KLBT 061254Z AUTO 02006KT 10SM CLR 01/M02 A3044 RMK AO2 SLP307 T00111022
KLBX 061253Z AUTO 20004KT 10SM -RA SCT046 BKN055 BKN110 09/08 A3031 RMK AO2 RAB08 SLP263 P0009 T00890078
KLCG 061315Z AUTO 21004KT 10SM CLR M10/M11 A3019 RMK AO2 T10991112
KLCH 061253Z 00000KT 10SM SCT070 OVC100 06/02 A3031 RMK AO2 SLP272 T00560022
KLCI 061315Z AUTO 21008KT 10SM CLR M06/M12 A3031 RMK AO1
KLCK 061315Z AUTO 00000KT 7SM CLR M04/M06 A3033 RMK AO2 T10451060
KLCQ 061315Z AUTO 05009G16KT 10SM SCT060 OVC065 07/01 A3027 RMK AO2
KLDJ 061315Z AUTO 00000KT 10SM CLR M02/M08 A3046 RMK AO2 T10211076
KLDM 061315Z AUTO 26010G16KT 10SM SCT034 OVC055 00/M06 A3019 RMK AO2 T00001062
KLEB 061253Z 00000KT 10SM CLR M07/M10 A3029 RMK AO2 SLP269 T10721100
KLEE 061253Z 02008KT 10SM SCT060 10/07 A3022 RMK AO2 SLP233 T01000067
KLEW 061315Z 00000KT 10SM CLR M08/M11 A3028 RMK AO1
KLEX 061254Z AUTO 16006KT 10SM CLR M03/M08 A3034 RMK AO2 SLP282 T10281078 $
KLFI 061258Z AUTO 29001KT 10SM CLR M01/M03 A3046 RMK AO2 SLP322 T10071030 $
KLFK 061253Z AUTO 12005KT 8SM FEW044 03/02 A3029 RMK AO2 RAE1159 SLP258 P0000 T00280022
KLFT 061253Z 26003KT 10SM SCT120 05/01 A3033 RMK AO2 SLP271 T00500011
KLGA 061251Z 26008KT 10SM FEW250 01/M08 A3042 RMK AO2 SLP301 T00111078 $
KLGB 061253Z 30004KT 10SM CLR 11/M02 A3025 RMK AO2 SLP243 T01061022
KLGC 061315Z AUTO 00000KT 10SM CLR 00/M01 A3036 RMK AO2 T00041006
KLGD 061315Z AUTO 19018G24KT 10SM OVC060 03/M03 A3033 RMK AO1
KLGU 061322Z AUTO 15003KT 4SM BR SCT001 M10/M12 A3049 RMK AO2 T11001117
KLHB 061315Z AUTO 00000KT 10SM CLR 02/02 A3029 RMK AO2 LTG DSNT SE T00170015
KLHM 061315Z AUTO 00000KT 10SM CLR 01/00 A3041 RMK AO1
KLHQ 061253Z AUTO 00000KT 10SM CLR M06/M08 A3033 RMK AO2 SLP283 T10561078
KLHW 061258Z AUTO 02005KT 10SM OVC070 05/M02 A3032 RMK AO2 SLP271 T00541018 $
KLHX 061253Z AUTO 27005KT 10SM CLR M11/M13 A3029 RMK AO2 SLP299 T11111133
KLHZ 061315Z AUTO 00000KT 10SM CLR M02/M03 A3048 RMK AO2
KLIC 061255Z AUTO 35005KT 10SM CLR M19/M22 A3023 RMK AO2 SLP327 T11891217
KLIT 061253Z 00000KT 10SM BKN150 OVC250 M01/M03 A3037 RMK AO2 SLP287 T10061033
KLJF 061313Z AUTO 00000KT 10SM CLR M07/M07 A3008 RMK AO2
KLKR 061315Z AUTO 00000KT 10SM CLR M03/M04 A3043 RMK AO2 PWINO
KLKU 061315Z AUTO 00000KT 10SM CLR M04/M07 A3043 RMK AO2
KLKV 061315Z 22004KT 10SM BKN036 00/M03 A3043 RMK AO1
KLLJ 061255Z AUTO 00000KT 10SM BKN065 M08/M11 A3033 RMK AO2 SLP331 T10831111
KLLQ 061253Z AUTO 00000KT 10SM CLR 01/M03 A3036 RMK AO2 SLP280 T00111028
KLMO 061314Z AUTO 29003KT 10SM CLR M13/M17 A3021 RMK AO2 T11291170
KLMT 061253Z AUTO 24004KT 10SM BKN036 M01/M03 A3040 RMK AO2 SLP305 T10061028
KLNC 061315Z AUTO 36003KT 4SM BR CLR 00/M01 A3025 RMK AO2 T00001008
KLND 061253Z AUTO 32003KT 10SM CLR M06/M13 A3019 RMK AO2 SLP270 T10611128
KLNK 061326Z 00000KT 3/4SM R36/P6000FT BR CLR M08/M10 A3027 RMK AO2 T10831100
KLNL 061315Z AUTO 00000KT 7SM OVC007 M06/M07 A3003 RMK AO2 T10601073
KLNN 061315Z AUTO 23008KT 10SM SCT013 OVC021 M01/M03 A3030 RMK AO1 T10101032
KLNP 061315Z AUTO 20003KT 10SM CLR M02/M12 A3033 RMK AO2
KLNR 061316Z AUTO 25004KT 10SM OVC014 M02/M06 A3021 RMK AO2 T10221056
KLNS 061253Z AUTO 00000KT 6SM BR CLR M05/M07 A3042 RMK AO2 SLP307 T10501072
KLOL 061253Z AUTO 20003KT 10SM CLR M06/M08 A3047 RMK AO2 SLP340 T10561078
KLOM 061315Z AUTO 00000KT 10SM M02/M05 A3042 RMK AO1
KLOR 061253Z AUTO 00000KT 10SM CLR M02/M04 A3033 RMK AO2 SLP270 T10221044
KLOT 061315Z AUTO 19007KT 4SM BR CLR M05/M07 A3029 RMK AO2 T10551066
KLOU 061253Z 00000KT 10SM CLR M03/M05 A3036 RMK AO2 SLP285 T10331050
KLOZ 061253Z AUTO 00000KT 10SM CLR M04/M07 A3037 RMK AO2 SLP295 T10441072
KLPC 061315Z AUTO 10006KT 10SM CLR 04/00 A3028 RMK AO1
KLPR 061253Z AUTO 26005KT 5SM BR CLR M04/M06 A3032 RMK AO2 SLP275 T10391056 TSNO
KLQK 061315Z AUTO 05004KT 10SM CLR M04/M06 A3039 RMK AO2 T10411057
KLRD 061256Z 29007KT 10SM CLR 05/02 A3041 RMK AO2 SLP312 T00500017
KLRF 061258Z AUTO 00000KT 10SM CLR M04/M05 A3035 RMK AO2 SLP284 T10371054
KLRJ 061315Z AUTO 17006KT 10SM OVC003 M07/M07 A3019 RMK AO2
KLRO 061315Z AUTO 02004KT 10SM BKN050 OVC070 05/M01 A3039 RMK AO2 PWINO PNO
KLRU 061315Z AUTO 03003KT 10SM CLR M07/M17 A3048 RMK AO2 T10681166
KLSB 061315Z AUTO 15005KT 10SM CLR M05/M13 A3044 RMK AO2
KLSE 061253Z 23006KT 10SM OVC011 M02/M05 A3018 RMK AO2 SLP236 T10221050
KLSF 061258Z AUTO 29003KT 10SM CLR M02/M04 A3033 RMK AO2 SLP276 T10221038
KLSV 061258Z AUTO 32002KT 10SM CLR 02/M02 A3047 RMK AO2 SLP321 T00201024 $
KLTS 061258Z AUTO 32009KT 10SM CLR M01/M06 A3036 RMK AO2 SLP288 T10141063
KLUA 061315Z AUTO 00000KT 10SM CLR M03/M05 A3041 RMK AO2
KLUD 061315Z AUTO 31006KT 10SM CLR 00/M03 A3028 RMK AO2 T10011035
KLUF 061258Z AUTO 00000KT 10SM CLR 06/M06 A3033 RMK AO2 SLP270 T00601059 $
KLUK 061253Z 00000KT 6SM BR CLR M05/M05 A3038 RMK AO2 SLP292 I1000 T10501050
KLUL 061315Z AUTO 00000KT 10SM CLR M01/M01 A3039 RMK AO2 T10061008
KLUM 061315Z AUTO 22008KT 10SM OVC012 M03/M05 A3014 RMK AO2 T10301055
KLUX 061315Z AUTO 02004KT 10SM CLR M02/M05 A3041 RMK AO2
KLVJ 061253Z AUTO 05003KT 10SM FEW120 08/07 A3033 RMK AO2 RAE24 TSE07 SLP270 P0001 T00830067
KLVK 061320Z AUTO 00000KT 2SM BR SCT002 03/03 A3041 RMK AO2 T00330028
KLVL 061315Z AUTO 00000KT 10SM CLR M03/M04 A3046 RMK AO1 T10291040
KLVM 061253Z AUTO 21037G51KT 10SM FEW120 03/M07 A3005 RMK AO2 PK WND 22053/1224 SLP190 T00331072
KLVN 061256Z AUTO 19006KT 7SM OVC008 M04/M05 A3012 RMK AO2
KLVS 061253Z AUTO VRB04KT 10SM CLR M08/M17 A3030 RMK AO2 SLP285 T10781172
KLWA 061315Z AUTO 21003KT 3SM BR SCT015 BKN065 M03/M04 A3026 RMK AO2 T10341040
KLWB 061315Z AUTO 00000KT 10SM CLR M05/M07 A3035 RMK AO2 T10531073
KLWC 061252Z AUTO 31008KT 10SM CLR M06/M07 A3030 RMK AO2 SLP271 T10561072 $
KLWD 061253Z AUTO 26004KT CLR M04/M06 A3025 RMK AO2 SLP258 T10441061 $
KLWM 061254Z 00000KT 10SM CLR M08/M09 A3036 RMK AO2 SLP284 T10781094 $
KLWS 061256Z AUTO 26017G32KT 10SM BKN065 OVC080 09/M03 A3027 RMK AO2 PK WND 30034/1208 SLP255 T00891033
KLWT 061254Z AUTO 24020G25KT 10SM CLR 06/M05 A2989 RMK AO2 PK WND 25028/1208 SLP131 T00611050
KLWV 061253Z AUTO 00000KT 6SM BR OVC080 M03/M04 A3035 RMK AO2 SLP283 T10331044 $
KLXL 061313Z AUTO 15006KT 7SM CLR M05/M06 A3004 RMK AO2
KLXN 061315Z AUTO 00000KT 10SM CLR A3022 RMK AO2
KLXT 061253Z AUTO 28003KT 10SM CLR M03/M06 A3027 RMK AO2 SLP259 T10281056
KLXV 061253Z AUTO 02008KT 10SM CLR M16/M18 A3036 RMK AO2 SLP340 T11561183
KLXY 061315Z AUTO 27005KT 10SM CLR 03/00 A3025 RMK AO2 LTG DSNT SE T00281005
KLYH 061254Z 00000KT 10SM CLR M05/M09 A3043 RMK AO2 SLP314 T10501089
KLYV 061316Z AUTO 19003KT 1/2SM FZFG OVC001 M07/M08 A3014 RMK AO2
KLZU 061245Z 06005KT 10SM CLR M01/M07 A3033 RMK RWY 7 ATIS P LL
KLZZ 061315Z AUTO 30011G22KT 10SM CLR 05/M03 A3030 RMK AO2 T00451032
KM19 061256Z AUTO 15003KT 10SM CLR M01/M03 A3039 RMK AO2 T10051027 SLP291
KM25 061335Z AUTO 21005KT 10SM CLR A3037 RMK AO2
KM30 061315Z AUTO 00000KT 10SM CLR M05/M05 A3036 RMK AO2 T10461048
KM40 061335Z AUTO 00000KT 7SM CLR 02/M05 A3041 RMK AO2
KM63 061258Z AUTO 32003KT 9SM CLR 00/M17 A3044 RMK AO2 SLP303 T10021173
KMAE 061321Z AUTO 00000KT 2SM BR CLR 04/03 A3041 RMK AO2 T00390028
KMAF 061253Z 32004KT 10SM CLR M03/M08 A3041 RMK AO2 SLP298 T10331083
KMAI 061253Z AUTO 00000KT 10SM FEW047 01/M01 A3031 RMK AO1 SLP264 T00111011
KMAN 061315Z AUTO 17006KT 10SM FEW049 FEW055 SCT075 00/00 A3043 RMK A01
KMAO 061315Z AUTO 02003KT 10SM CLR 01/00 A3043 RMK AO2
KMBG 061252Z AUTO 15008KT 10SM CLR M02/M06 A2991 RMK AO2 SLP149 T10171056 $
KMBL 061315Z AUTO 26010KT 7SM BKN025 OVC032 M01/M07 A3017 RMK AO1
KMBO 061315Z AUTO 00000KT 10SM CLR 01/00 A3036 RMK AO2
KMBS 061253Z 21008KT 10SM FEW060 BKN075 OVC090 M03/M07 A3023 RMK AO2 SLP244 T10331072
KMCB 061253Z AUTO 00000KT 10SM CLR 01/M01 A3034 RMK AO2 SLP273 T00111006
KMCC 061315Z AUTO 00000KT M1/4SM FG OVC001 03/03 A3044 RMK AO2
KMCD 061317Z AUTO 27014G19KT 2 1/2SM -SN OVC006 M03/M03 A3006 RMK AO2 T10301030
KMCE 061326Z AUTO 32003KT 1 3/4SM BR CLR 02/02 A3040 RMK AO2 I1000 T00220022
KMCF 061258Z AUTO 04003KT 10SM FEW044 SCT060 09/08 A3018 RMK AO2 SLP223 T00900075
KMCI 061253Z 31006KT 9SM CLR M03/M06 A3027 RMK AO2 SLP259 T10281056
KMCJ 061315Z AUTO 00000KT 10SM CLR 07/05 A3027 RMK AO1
KMCK 061253Z AUTO 25009KT 10SM CLR M11/M13 A3025 RMK AO2 SLP278 T11061133
KMCN 061253Z 27003KT 10SM CLR M01/M02 A3035 RMK AO2 SLP278 T10111022
KMCO 061253Z 35007KT 10SM SCT060 11/08 A3019 RMK AO2 SLP222 T01060083
KMCW 061253Z AUTO 24010KT 4SM BR OVC004 M04/M04 A3019 RMK AO2 SLP236 T10391044 $
KMCX 061315Z AUTO 23004KT 7SM CLR M07/M09 A3032 RMK AO2 T10681089
KMDD 061315Z AUTO 29005KT 10SM CLR M01/M07 A3043 RMK AO2 T10151068
KMDH 061252Z AUTO 13003KT 10SM CLR M06/M07 A3033 RMK AO2 SLP275 I1000 T10561072
KMDJ 061315Z AUTO 04015KT 10SM 12/03 A3031 RMK A01
KMDQ 061315Z AUTO 00000KT 10SM CLR M01/M03 A3040 RMK AO2
KMDS 061310Z AUTO 21010KT 10SM CLR M05/M05 A3006 RMK AO2
KMDT 061256Z 00000KT 10SM SCT220 BKN250 M03/M07 A3042 RMK AO2 SLP306 T10331072 $
KMDW 061253Z 21008KT 8SM FEW065 M03/M07 A3028 RMK AO2 SLP267 T10281067
KMDZ 061315Z AUTO 26008KT 5SM BR OVC005 M06/M06 A3009 RMK AO2 T10561060
KMEB 061252Z AUTO 06004KT 10SM CLR 00/M03 A3045 RMK AO2 SLP311 T00001033
KMEH 061310Z AUTO VRB03KT 10SM BKN008 OVC012 02/00 A3032 RMK AO2 CIG 006V010 T00170000
KMEI 061258Z 00000KT 10SM CLR M01/M02 A3039 RMK AO2 SLP292 T10061022
KMEM 061254Z 00000KT 10SM BKN150 02/M04 A3038 RMK AO2 SLP287 T00171039
KMER 061315Z AUTO 00000KT 1/4SM VV002 03/03 A3041 RMK AO1
KMEV 061315Z AUTO 09004KT 10SM CLR M05/M05 A3047 RMK AO2
KMEZ 061315Z AUTO 00000KT 10SM CLR M02/M05 A3031 RMK AO2
KMFD 061252Z 26006KT 6SM BR OVC007 M04/M05 A3029 RMK AO2 SLP272 T10391050
KMFE 061253Z 28005KT 10SM CLR 08/06 A3039 RMK AO2 SLP289 T00830056
KMFI 061317Z AUTO 26008KT 5SM BR BKN005 OVC009 M04/M06 A3011 RMK AO2 T10391061
KMFR 061253Z AUTO 17004KT 10SM OVC045 07/05 A3040 RMK AO2 SLP298 T00720050
KMFV 061315Z AUTO 00000KT 10SM CLR M02/M05 A3047 RMK AO2
KMGC 061315Z AUTO 20006KT 7SM OVC070 M03/M03 A3030 RMK AO2
KMGE 061258Z 03002KT 10SM SCT120 BKN250 M02/M06 A3037 RMK AO2A SLP294 T10191061 $
KMGG 061317Z AUTO 17004KT 5SM BR OVC003 M05/M05 A3009 RMK AO2 T10491052
KMGJ 061254Z AUTO 21005KT 10SM CLR M04/M08 A3039 RMK AO2 SLP295 T10441078 TSNO
KMGM 061253Z AUTO 32003KT 10SM CLR M02/M04 A3038 RMK AO2 SLP289 T10221039
KMGN 061315Z AUTO 23014G23KT 2SM -SN OVC014 M01/M03 A3007 RMK AO2 T10161030
KMGR 061315Z AUTO 00000KT 10SM CLR 04/00 A3031 RMK AO2
KMGW 061253Z 19003KT 10SM CLR M02/M11 A3034 RMK AO2 SLP287 T10171106
KMGY 061253Z AUTO 00000KT 2SM BR CLR M06/M07 A3032 RMK AO2 SLP278 I1001 T10561072
KMHE 061253Z AUTO 21009KT 10SM CLR M03/M06 A3009 RMK AO2 SLP206 T10331061
KMHK 061252Z AUTO 22005KT 8SM CLR M07/M07 A3030 RMK AO2 SLP272 I1000 T10671067
KMHL 061335Z AUTO 00000KT 10SM CLR 00/M03 A3029 RMK AO2
KMHR 061209Z 08003KT 3/4SM VV005 03/03 A3041 FG
KMHS 061256Z AUTO 00000KT 10SM CLR 01/M03 A3042 RMK AO2 SLP327 T00061028
KMHT 061253Z 00000KT 10SM FEW200 SCT250 M08/M11 A3033 RMK AO2 SLP291 T10831106
KMHV 061300Z AUTO 34007KT 10SM CLR 02/M04 A3041 RMK A01
KMIA 061253Z 32004KT 10SM BKN070 BKN250 17/15 A3013 RMK AO2 SLP203 T01720150
KMIB 061258Z AUTO 25014G21KT 10SM CLR 03/M02 A2972 RMK AO2 SLP088 T00311022 $
KMIC 061325Z 18007KT 8SM BKN009 M03/M06 A3010 RMK AO2 T10331056
KMIE 061253Z 00000KT 4SM HZ CLR M05/M08 A3032 RMK AO2 SLP276 I1000 T10501078
KMIS 061315Z AUTO 02011KT 10SM CLR 12/M01 A3034 RMK A01
KMIV 061254Z AUTO 00000KT 7SM CLR M04/M06 A3045 RMK AO2 SLP311 T10441056
KMIW 061253Z AUTO 27007KT 5SM BR OVC007 M01/M02 A3022 RMK AO2 SLP244 T10111022
KMJQ 061313Z AUTO 22008KT 3/4SM BR OVC001 M04/M05 A3013 RMK AO2
KMJX 061315Z AUTO 00000KT 10SM CLR M07/M09 A3045 RMK AO1
KMKC 061254Z 00000KT 10SM CLR M03/M04 A3028 RMK AO2 SLP262 T10281044
KMKE 061252Z 24010KT 8SM BKN065 M03/M06 A3021 RMK AO2 SLP242 T10281061
KMKG 061255Z 24011KT 10SM BKN065 OVC100 00/M07 A3022 RMK AO2 SLP244 T00001072 $
KMKJ 061315Z AUTO 00000KT 10SM CLR M05/M08 A3038 RMK AO2 T10541076
KMKL 061253Z 00000KT 10SM CLR M04/M05 A3038 RMK AO2 SLP292 T10391050 $
KMKN 061315Z AUTO 31010G14KT 10SM CLR 03/M02 A3033 RMK AO2 T00301025
KMKO 061253Z AUTO 18004KT 10SM CLR 01/M04 A3033 RMK AO2 SLP272 T00111039
KMKS 061315Z AUTO 05003KT 10SM SCT050 BKN070 03/M04 A3040 RMK AO2
KMKT 061315Z 20010KT 1SM OVC002 M06/M07 A3012 RMK AO1
KMKY 061315Z AUTO 03008KT 10SM FEW048 BKN065 13/08 A3013 RMK AO1
KMLB 061253Z 00000KT 10SM BKN070 13/12 A3016 RMK AO2 SLP213 T01280117
KMLC 061253Z AUTO 24003KT 10SM SCT065 SCT080 03/02 A3031 RMK AO2 SLP265 T00330017
KMLE 061315Z AUTO 00000KT 1/4SM FZFG OVC002 M07/M08 A3025 RMK AO2 T10681079
KMLF 061308Z AUTO 24010KT 4SM BR OVC001 M18/M20 A3051 RMK AO2 T11831200
KMLI 061252Z 00000KT 10SM CLR M02/M06 A3026 RMK AO2 SLP254 T10221061
KMLJ 061315Z AUTO 00000KT 10SM CLR 01/M03 A3037 RMK AO2
KMLP 061253Z AUTO 27008G19KT 230V300 7SM UP SCT012 BKN019 OVC041 M04/M06 A3007 RMK AO2 PK WND 28030/1229 UPB00SNE00B32E46 SLP214 P0000 T10391061 $
KMLS 061253Z AUTO 25008KT 10SM CLR 03/M06 A2992 RMK AO2 SLP148 T00331061
KMLT 061253Z AUTO 00000KT 10SM CLR M09/M13 A3022 RMK AO2 SLP244 T10891133
KMLU 061253Z 00000KT 10SM CLR 02/M01 A3037 RMK AO2 SLP285 T00171006
KMMH 061315Z AUTO 00000KT 10SM CLR M10/M11 A3047 RMK AO2
KMMI 061315Z AUTO 00000KT 10SM CLR M03/M07 A3042 RMK
KMMK 061305Z AUTO 00000KT 7SM CLR M09/M11 A3041 RMK AO2 T10941106 TSNO
KMML 060756Z AUTO M06/M07 RMK AO2 SLPNO T10611072 PWINO FZRANO TSNO $
KMMT 061258Z 03006KT 10SM BKN250 01/M05 A3041 RMK AO2A SLP303 T00061052 $
KMMU 061245Z 00000KT 10SM BKN250 M06/M06 A3043
KMMV 061253Z AUTO 26003KT 10SM SCT029 02/01 A3046 RMK AO2 SLP314 T00220011
KMNE 061315Z AUTO 00000KT 10SM CLR 01/M01 A3036 RMK AO2 T00101013
KMNH 061318Z AUTO 21008KT 10SM CLR M08/M17 A3022 RMK AO2
KMNI 061315Z AUTO 00000KT 10SM CLR 01/M01 A3040 RMK AO2
KMNM 061315Z AUTO 25005KT 10SM OVC025 M04/M07 A3012 RMK AO1
KMNN 061253Z AUTO 26003KT 4SM HZ CLR M04/M07 A3032 RMK AO2 SLP279 T10441072 TSNO
KMNZ 061315Z AUTO 31014KT 10SM CLR 04/M01 A3031 RMK AO2 T00421014
KMOB 061256Z 01003KT 10SM FEW250 01/M04 A3037 RMK AO2 SLP284 T00061039
KMOD 061324Z AUTO 00000KT 1SM BR VV001 04/03 A3041 RMK AO2 T00440028
KMOP 061314Z AUTO 19003KT 10SM OVC100 M02/M06 A3019 RMK AO2 T10251065
KMOR 061315Z AUTO 00000KT 10SM CLR M03/M07 A3038 RMK A01
KMOT 061254Z 23013G18KT 10SM CLR 04/M04 A2973 RMK AO2 SLP085 T00391044
KMOX 061314Z AUTO 15008KT 10SM CLR M07/M07 A2998 RMK AO2
KMPO 061253Z AUTO 28003KT 10SM CLR M06/M10 A3030 RMK AO2 SLP289 T10561100
KMPV 061251Z AUTO 15008KT 10SM BKN070 M06/M10 A3025 RMK AO2 SLP266 T10561100
KMPZ 061315Z AUTO 18003KT 10SM CLR M03/M05 A3027 RMK AO2 T10281051
KMQB 061315Z AUTO 00000KT 7SM CLR M05/M06 A3031 RMK AO2 T10511056
KMQE 061254Z AUTO 29009KT M07/M09 A3031 RMK AO1 SLP286 T10671094 $
KMQI 061315Z AUTO 01006KT 10SM CLR 05/M01 A3046 RMK AO2 T00461007
KMQJ 061315Z AUTO 00000KT 2 1/2SM CLR M06/M07 A3033 RMK AO1
KMQS 061315Z AUTO 00000KT 10SM CLR M02/M06 A3042 RMK AO2
KMQY 061256Z 00000KT 10SM CLR M04/M04 A3041 RMK AO2 T10441044 SLP313
KMRB 061253Z 21003KT 10SM CLR M04/M08 A3042 RMK AO2 SLP306 T10441078
KMRC 061315Z AUTO 00000KT 10SM CLR M03/M03 A3038 RMK
KMRF 061256Z AUTO 34004KT 10SM CLR M08/M14 A3045 RMK AO2 SLP331 T10831144 FZRANO TSNO
KMRH 061258Z AUTO 03009KT 10SM CLR 03/M02 A3042 RMK AO2 SLP300 I1002 T00281017 TSNO
KMRJ 061315Z AUTO 23007KT 10SM OVC013 M01/M03 A3019 RMK AO2
KMRN 061315Z AUTO 00000KT 10SM CLR M04/M05 A3046 RMK AO2 T10421051
KMRT 061314Z AUTO 00000KT 4SM CLR M05/M05 A3032 RMK AO2 T10491051
KMRY 061254Z AUTO 00000KT 10SM CLR 08/02 A3034 RMK AO2 SLP286 T00780022 TSNO
KMSL 061253Z AUTO 00000KT 10SM CLR 00/M02 A3040 RMK AO2 SLP299 T00001022
KMSN 061253Z 23004KT 10SM OVC023 M03/M07 A3020 RMK AO2 SLP238 T10281067
KMSO 061257Z 32017G25KT 10SM -RA OVC036 04/M01 A3013 RMK AO2 WSHFT 1242 PRESRR P0000 T00391011 $
KMSP 061311Z 19006KT 8SM OVC009 M03/M06 A3012 RMK AO2 T10331056
KMSS 061307Z AUTO 22005KT 1/2SM SN FZFG VV010 M01/M03 A3021 RMK AO2 P0001 T10111028
KMSV 061315Z AUTO 00000KT 10SM CLR M08/M09 A3034 RMK AO1
KMSY 061253Z 08005KT 10SM BKN160 BKN250 03/M01 A3034 RMK AO2 SLP275 T00331006
KMTC 061258Z 24004KT 10SM SCT065 BKN080 M03/M07 A3026 RMK AO2A SLP258 T10321068
KMTH 061253Z AUTO 04010KT 10SM FEW025 SCT036 SCT050 19/17 A3010 RMK AO2 SLP191 T01890167
KMTJ 061253Z AUTO 17008KT 10SM CLR M14/M18 A3057 RMK AO2 SLP415 T11441178
KMTN 061245Z 00000KT 10SM SCT250 M03/M04 A3047
KMTO 061253Z AUTO 17007KT 7SM OVC065 M02/M04 A3031 RMK AO2 SLP273 T10221044
KMTP 061254Z AUTO 32004KT 00/M07 A3042 RMK AO1 SLP300 T00001067
KMTV 061315Z AUTO 00000KT 10SM CLR M07/M08 A3045 RMK AO2 T10681081
KMTW 061256Z AUTO 25013G17KT 9SM -SN OVC040 M02/M06 A3017 RMK AO2 SLP239 P0000 T10221061 FZRANO
KMUI 061258Z AUTO 00000KT 10SM CLR M06/M06 A3041 RMK AO2 SLP307 T10601063 $
KMUO 061258Z AUTO 12017KT 10SM OVC075 M01/M01 A3044 RMK AO2 SLP330 T10141014 $
KMUT 061315Z AUTO 00000KT 8SM CLR M04/M05 A3028 RMK AO2
KMVE 061315Z AUTO 23007KT 10SM CLR M05/M06 A3005 RMK AO2
KMVH 061315Z AUTO 25007KT 10SM CLR 08/M08 A2986 RMK AO2
KMVL 061254Z AUTO 21005KT 10SM BKN045 M03/M09 A3023 RMK AO2 SLP249 T10331089 $
KMVN 061315Z AUTO 00000KT 10SM BKN090 M02/M06 A3033 RMK AO1
KMVY 061253Z 00000KT 10SM CLR M07/M07 A3039 RMK AO2 SLP292 T10671072
KMWA 061245Z 17004KT 20SM SCT200 M03/M05 A3034
KMWC 061245Z 22008KT 7SM OVC065 M03/M07 A3021
KMWH 061252Z AUTO 21012KT 10SM CLR 03/M01 A3024 RMK AO2 SLP250 T00331011
KMWK 061315Z AUTO 00000KT 10SM CLR M03/M06 A3043 RMK AO2 T10281059
KMWL 061253Z AUTO 31012KT 10SM CLR 03/00 A3027 RMK AO2 SLP250 T00330000
KMWM 061314Z AUTO 21006KT 7SM SCT003 M06/M06 A3011 RMK AO2
KMWN 061253Z 26051KT 0SM FZFG VV000 M15/M15 RMK VRY LGT ICG
KMWO 061315Z AUTO 00000KT 2SM BR CLR M05/M07 A3037 RMK AO2 T10531071
KMWT 061253Z AUTO 00000KT 10SM CLR M04/M07 A3030 RMK AO2 SLP275 T10391072
KMXF 061258Z AUTO 00000KT 10SM CLR M02/M03 A3036 RMK AO2 SLP285 T10191028
KMXO 061310Z AUTO 22004KT 10SM OVC012 M01/M03 A3023 RMK AO2
KMYF 061253Z AUTO 00000KT 10SM CLR 09/M01 A3024 RMK AO2 SLP239 T00891011 TSNO
KMYL 061251Z AUTO VRB03KT 10SM OVC044 M02/M04 A3030 RMK AO2 SLP293 T10171039
KMYP 061316Z AUTO M15/M17 A3040 RMK AO2 PWINO
KMYR 061245Z 02009KT 10SM SCT065 03/M03 A3043
KMYV 061253Z AUTO 35003KT 5SM BR CLR 05/04 A3043 RMK AO2 SLP307 T00500044
KMYZ 061315Z AUTO 00000KT 7SM CLR M05/M06 A3027 RMK AO2
KMZG 061315Z AUTO 27022KT 10SM CLR 16/11 A3030 RMK A01
KMZH 061315Z AUTO 21007KT 7SM OVC006 M06/M07 A3003 RMK AO2
KMZZ 061315Z AUTO 20003KT 5SM HZ CLR M06/M10 A3033 RMK AO2 T10651099
KN03 061315Z AUTO 00000KT 10SM SCT050 OVC070 M03/M05 A3026 RMK AO2
KN38 061315Z AUTO 21009KT 10SM OVC055 M04/M08 A3025 RMK AO2
KN60 061252Z AUTO 24005KT M01/M04 A2978 RMK AO1 SLP110 T10061044
KNAK 061254Z AUTO 00000KT 10SM CLR M02/M06 A3047 RMK AO2 SLP319 T10221056
KNBC 061256Z AUTO 04008KT 10SM FEW050 OVC075 06/M02 A3037 RMK AO2 SLP285 T00561017
KNBG 061255Z 00000KT 5SM BR SCT050 SCT250 M01/M01 A3035 RMK AO2 SLP275 T10061011 $
KNBT 061256Z AUTO 35009KT CLR A3044 RMK AO2 SLP314 $
KNCA 061256Z AUTO 01009KT 10SM SCT060 02/M02 A3042 RMK AO2 SLP304 T00171017
KNDZ 061256Z AUTO 33004KT 10SM CLR 01/M04 A3035 RMK AO2 SLP267 T00061044 $
KNEW 061253Z AUTO 08007KT 10SM CLR 08/03 A3036 RMK AO2 SLP273 T00780028
KNFE 061256Z AUTO 00000KT 10SM CLR 01/M02 A3047 RMK AO2 SLP321 T00061017
KNFG 061254Z AUTO 05008KT 10SM CLR 13/M04 A3026 RMK AO2 SLP244 T01331039
KNFL 061256Z AUTO 00000KT 10SM CLR M04/M06 A3047 RMK AO2 SLP271 T10441056
KNFW 061252Z 30012KT 10SM FEW250 03/M03 A3026 RMK AO2 SLP228 T00281028 $
KNGP 061256Z AUTO 26007KT 10SM FEW075 10/10 A3034 RMK AO2 SLP274 T01000100
KNGU 061259Z 00000KT 10SM BKN240 02/M02 A3048 RMK AO2 SLP322 T00171017
KNHK 061252Z 25003KT 10SM BKN080 BKN240 M03/M05 A3047 RMK AO2 SLP318 T10281050 $
KNID 061256Z AUTO 20007KT 10SM CLR M01/M04 A3042 RMK AO2 SLP310 T10111044 $
KNIP 061253Z 01014KT 10SM SCT032 BKN250 09/03 A3028 RMK AO2 SLP250 T00890028
KNJK 061256Z AUTO 27006KT 10SM CLR 05/M06 A3036 RMK AO2 SLP296 T00501061 $
KNKT 061254Z 01010KT 10SM CLR 03/M02 A3044 RMK AO2 SLP305 T00331017 $
KNKX 061255Z 07008KT 10SM CLR 09/M01 A3024 RMK AO2 SLP235 T00941011
KNMM 061256Z AUTO 00000KT 10SM CLR M02/M03 A3039 RMK AO2 SLP305 T10171033 $
KNOG 061256Z AUTO 34011KT 10SM CLR 08/07 A3038 RMK AO2 SLP270 T00830067 TSNO $
KNOW 061315Z AUTO 23005KT 10SM BKN055 OVC065 07/03 A3034 RMK AO2 T00660032
KNPA 061156Z AUTO 33005KT 10SM CLR 01/M03 A3032 RMK AO2 SLP270 T00061033 10044 20006 55005
KNQA 061250Z 00000KT 10SM BKN150 M01/M03 A3037
KNQI 061256Z AUTO 28004KT 10SM FEW080 06/06 A3036 RMK AO2 SLP277 T00610061 $
KNQX 061253Z 03010KT 10SM FEW024 SCT041 BKN060 19/17 A3010 RMK AO2 SLP191 T01890167 $
KNRB 061325Z AUTO 02016G24KT 10SM OVC029 12/06 A3028 RMK AO2 T01170061 $
KNSE 061307Z AUTO 35006KT 10SM FEW001 00/M04 A3034 RMK AO2 T00001039 $
KNSI 061257Z AUTO 30006KT CLR A3024 RMK AO2 SLPNO PWINO $
KNTD 061256Z AUTO 06014G19KT 10SM CLR 17/M04 A3027 RMK AO2 SLP251 T01721039 $
KNTU 061256Z 24003KT 10SM FEW025 BKN250 01/M02 A3046 RMK AO2 SLP318 T00111022
KNUI 061253Z AUTO 00000KT 10SM CLR M02/M03 A3047 RMK AO2 SLP318 T10221033 $
KNUQ 061256Z 00000KT 10SM CLR 07/05 A3041 RMK AO2 SLP299 T00670050
KNUW 061256Z 13005KT 10SM BKN028 BKN045 OVC080 06/04 A3038 RMK AO2 SLP286 T00560039 $
KNXF 061256Z AUTO 06011KT 10SM CLR 15/M05 A3025 RMK AO2 SLP330 T01501050 $
KNXP 061256Z AUTO 32006KT 10SM CLR 05/M07 A3049 RMK AO2 SLP309 T00501067 $
KNYC 061251Z AUTO 28004KT 10SM CLR M01/M08 A3044 RMK AO2 SLP299 T10061083 $
KNYG 061256Z AUTO 30005KT 10SM CLR M02/M05 A3049 RMK AO2 SLP324 T10221050 $
KNYL 061257Z AUTO 02009KT 10SM CLR 11/M04 A3032 RMK AO2 SLP267 T01061039
KNZY 061252Z AUTO 00000KT 10SM CLR 07/02 A3024 RMK AO2 SLP238 T00720022 $
KO22 061315Z AUTO 00000KT 10SM CLR 01/00 A3038 RMK AO1
KO54 061315Z AUTO 00000KT 10SM OVC004 02/00 A3044 RMK AO1
KO69 061315Z AUTO 00000KT 5SM CLR 03/03 A3044 RMK AO1
KO86 061315Z AUTO 00000KT 10SM BKN003 01/00 A3046 RMK AO1
KOAJ 061315Z AUTO 35005KT 10SM FEW055 SCT065 01/M04 A3044 RMK AO1
KOAK 061253Z 00000KT 8SM FEW200 07/06 A3040 RMK AO2 SLP293 T00720056
KOBE 061315Z AUTO 00000KT 10SM SCT070 12/10 A3016 RMK AO2
KOCF 061250Z 03006KT 10SM BKN060 08/03 A3023
KOCH 061315Z AUTO 11005KT 10SM SCT037 OVC050 04/02 A3029 RMK AO1
KOCQ 061315Z AUTO 26007KT 10SM OVC015 M04/M05 A3014 RMK AO1 T10381055
KOCW 061315Z AUTO 00000KT 10SM CLR M01/M02 A3047 RMK AO2 T10101023
KODO 061253Z AUTO 29006KT 10SM CLR M03/M08 A3042 RMK AO2 SLP302 T10331083 $
KODX 061326Z AUTO 00000KT 1SM BR CLR M10/M12 A3017 RMK AO2 T11001117
KOEB 061315Z AUTO 23005KT 2 1/2SM BR OVC085 M04/M05 A3028 RMK AO2 T10451046
KOEO 061315Z AUTO 20003KT 10SM OVC010 M04/M06 A3014 RMK AO2 T10401056
KOFF 061325Z 22003KT 1/2SM FZFG VV001 M07/M08 A3025 RMK AO2A
KOFK 061256Z AUTO 00000KT 10SM CLR M09/M12 A3018 RMK AO2 SLP241 I1000 T10941122
KOFP 061254Z AUTO 00000KT 7SM CLR M04/M06 A3048 RMK AO2 SLP324 T10391056
KOGA 061315Z AUTO 26011KT 10SM CLR M10/M14 A3019 RMK AO2 T11051139
KOGB 061253Z AUTO 06003KT 10SM CLR 02/M03 A3039 RMK AO2 SLP292 T00171028
KOGD 061253Z 19005KT 10SM CLR M06/M09 A3051 RMK AO2 SLP356 T10561089
KOJA 061315Z AUTO 32008KT 10SM CLR M01/M03 A3034 RMK AO2
KOJC 061253Z 32006KT 10SM CLR M02/M06 A3027 RMK AO2 SLP259 T10221056
KOKB 061252Z AUTO 06003KT 10SM CLR 04/M02 A3026 RMK AO2 SLP245 T00441017
KOKC 061252Z 35014KT 10SM FEW013 BKN041 BKN070 03/M01 A3032 RMK AO2 SLP270 T00281011
KOKK 061315Z AUTO 24003KT 5SM CLR M06/M08 A3033 RMK AO1
KOKM 061315Z AUTO 34003KT 10SM OVC075 05/01 RMK AO2 T00450010 PNO
KOKV 061315Z AUTO 19004KT 10SM CLR M02/M06 A3041 RMK AO2
KOKZ 061315Z AUTO 00000KT 10SM CLR 03/M03 A3035 RMK AO2 T00251032
KOLE 061315Z AUTO 23005KT 10SM OVC050 M04/M09 A3018 RMK AO2
KOLF 061253Z AUTO 23009KT 10SM SCT120 04/M02 A2979 RMK AO2 SLP106 T00441022
KOLG 061315Z AUTO 21006KT 10SM OVC011 M05/M07 A3005 RMK AO1
KOLM 061254Z AUTO 20008KT 7SM -RA SCT025 BKN039 OVC070 06/04 A3040 RMK AO2 RAB14 SLP295 P0001 T00610044
KOLS 061254Z AUTO 12004KT 10SM CLR 03/M12 A3031 RMK AO2 SLP242 T00281122
KOLU 061315Z AUTO 00000KT 8SM CLR M11/M18 A3022 RMK AO2 RVRNO
KOLV 061250Z 02003KT 10SM BKN150 00/M02 A3038
KOLY 061315Z AUTO 08003KT 7SM OVC085 M02/M03 A3035 RMK AO2
KOLZ 061315Z AUTO 24009KT 2 1/2SM BR OVC004 M02/M02 A3020 RMK AO2
KOMA 061324Z 15005KT 1/2SM R14R/2600VP6000FT FZFG FEW007 M06/M06 A3025 RMK AO2 I1000 T10611061
KOMH 061315Z AUTO 00000KT 10SM CLR M02/M03 A3046 RMK AO2
KOMK 061253Z AUTO 00000KT 10SM CLR 01/M03 A3019 RMK AO2 SLP236 T00061028
KOMN 061250Z 35010KT 10SM SCT070 13/10 A3021
KONA 061313Z AUTO 25005KT 10SM OVC016 M01/M04 A3019 RMK AO2
KONL 061315Z AUTO 21008KT 10SM CLR M06/M08 A3012 RMK AO2 T10601085
KONM 061315Z AUTO 32004KT 10SM CLR M05/M13 A3048 RMK AO2 T10531127
KONO 061323Z AUTO 03004KT 3SM BR FEW065 M01/M02 A3046 RMK AO2 I1000 T10061017
KONP 061315Z AUTO 08005KT 10SM CLR 04/04 A3042 RMK AO2
KONT 061253Z 33005KT 10SM CLR 09/M04 A3027 RMK AO2 SLP245 T00891044
KONX 061315Z AUTO 00000KT 10SM CLR 00/M01 A3048 RMK AO2 T00021011
KONZ 061314Z AUTO 00000KT 10SM OVC070 M03/M06 A3029 RMK AO2
KOOA 061315Z AUTO 22003KT 10SM CLR M06/M08 A3026 RMK AO2 T10631076
KOPF 061253Z 33004KT 10SM OVC070 18/15 A3014 RMK AO2 SLP206 T01780150
KOPL 061315Z AUTO 00000KT 10SM SCT110 02/00 A3035 RMK AO2 T00200000
KOPN 061315Z AUTO 04003KT 10SM CLR 01/M03 A3036 RMK AO2
KOQT 061253Z AUTO 00000KT 10SM CLR M03/M06 A3042 RMK AO2 SLP317 T10331056
KORB 061313Z AUTO 00000KT 10SM SCT055 BKN080 OVC110 M09/M11 A2994 RMK AO2
KORC 061315Z AUTO 00000KT 1/4SM -SN OVC001 M07/M08 A3015 RMK AO2
KORD 061251Z 21005KT 7SM FEW060 M04/M06 A3026 RMK AO2 SLP256 T10391061
KORE 061252Z AUTO 00000KT 8SM CLR M13/M13 A3035 RMK AO2 SLP289 T11281133
KORF 061251Z AUTO 01006KT 10SM CLR 03/M04 A3046 RMK AO2 SLP315 T00331044 TSNO
KORG 061315Z AUTO 01004KT 7SM VCTSRA SCT050 BKN060 OVC110 08/03 A3032 RMK AO2 LTG DSNT SW THRU N T00750031
KORH 061254Z A3031 RMK AO2 SLPNO $
KORL 061253Z 36005KT 10SM SCT060 11/08 A3019 RMK AO2 SLP228 T01110083
KORS 061315Z AUTO 00000KT 10SM CLR 06/03 A3030 RMK AO2
KOSA 061315Z AUTO 00000KT 10SM SCT010 SCT015 SCT028 03/03 A3032 RMK AO1 P0002 T00310026
KOSC 061314Z AUTO 21007KT 10SM SCT085 OVC110 M04/M08 A3016 RMK AO2 T10421076
KOSH 061253Z 22005KT 10SM BKN017 OVC027 M03/M07 A3017 RMK AO2 SLP235 T10281072
KOSU 061253Z 23003KT 4SM BR CLR M04/M06 A3032 RMK AO2 SLP278 T10441061
KOTG 061315Z AUTO 21010KT 10SM FEW002 M06/M08 A3011 RMK AO1
KOTH 061315Z 00000KT 10SM OVC027 08/08 A3044 RMK AO1
KOTM 061253Z AUTO 24004KT 10SM CLR M06/M07 A3026 RMK AO2 SLP257 T10561072
KOUN 061315Z AUTO 32005KT 10SM BKN012 OVC037 03/02 A3034 RMK AO2
KOVE 061253Z AUTO 08003KT 10SM BKN100 06/04 A3043 RMK AO2 SLP305 T00560044
KOVL 061314Z AUTO 17005KT 10SM CLR M06/M08 A3008 RMK AO2
KOVS 061253Z AUTO 22006KT 10SM OVC013 M02/M04 A3022 RMK AO2 SLP244 T10171039
KOWA 061316Z AUTO 20011KT 7SM OVC005 M04/M05 A3013 RMK AO2
KOWB 061256Z 17005KT 10SM BKN075 M01/M03 A3036 RMK AO2 T10111027 SLP283
KOWD 061253Z 00000KT 10SM CLR M10/M11 A3037 RMK AO2 SLP285 T11001106
KOWP 061315Z AUTO 00000KT 10SM SCT060 05/M01 A3032 RMK AO2 T00471014
KOXB 061253Z AUTO 33003KT 10SM CLR M01/M03 A3047 RMK AO2 SLP318 T10061033 TSNO
KOXC 061255Z 00000KT 10SM SKC M06M14 A3037
KOXR 061251Z AUTO 06005KT 10SM CLR 12/M02 A3025 RMK AO2 SLP244 T01221022 $
KOXV 061315Z AUTO 21005KT 9SM CLR M05/M07 A3023 RMK AO2
KOZA 061315Z AUTO 29005KT 10SM CLR 00/M06 A3047 RMK AO2
KOZR 061258Z AUTO 35002KT 10SM CLR 01/M06 A3032 RMK AO2 SLP272 T00071058
KOZS 061315Z AUTO 21007KT 10SM CLR 02/M07 A3029 RMK AO2
KOZW 061314Z AUTO 23004KT 5SM BR SCT070 M04/M05 A3024 RMK AO2 T10421052
KP08 061315Z AUTO 06016KT 10SM CLR 11/M11 A3031 RMK AO2
KP28 061256Z AUTO 30004KT M06/M07 A3033 RMK AO1 SLP286 T10561067
KP53 061256Z AUTO 23005KT M03/M08 A3004 RMK AO1 SLP183 T10331083
KP58 061251Z AUTO 23007G14KT M04/M07 A3019 RMK AO1 SLP236 T10391072
KP59 061251Z AUTO 35014KT M02/M06 A3000 RMK AO1 SLP172 T10171061
KP60 061256Z AUTO VRB05KT M06/M08 A3032 RMK AO1 SLP313 T10611083
KP68 061253Z AUTO 21006KT M17/M17 A3048 RMK AO1 SLP421 T11721172 $
KP69 061252Z AUTO 00000KT 03/01 A3029 RMK AO1 SLP273 T00280011
KP92 061253Z AUTO 00000KT 04/01 A3032 RMK AO1 SLP268 T00440006
KPAE 061253Z AUTO 18009KT 10SM FEW050 BKN110 05/02 A3034 RMK AO2 SLP277 T00500022
KPAH 061253Z 22005KT 10SM CLR M02/M06 A3034 RMK AO2 SLP277 T10171061
KPAM 061258Z AUTO 01004KT 10SM CLR 03/00 A3032 RMK AO2 SLP271 T00341003 $
KPAN 061315Z AUTO 09005KT 10SM CLR 01/M14 A3042 RMK AO2
KPBF 061253Z AUTO 00000KT 10SM CLR 00/M03 A3036 RMK AO2 SLP281 T00001028 $
KPBG 061253Z AUTO 18003KT 10SM SCT038 OVC048 M02/M07 A3023 RMK AO2 SLP240 T10171067
KPBH 061315Z AUTO 24005KT 7SM OVC007 M06/M07 A3006 RMK AO2 T10611068
KPBI 061253Z 06004KT 10SM FEW025 BKN065 22/17 A3014 RMK AO2 SLP204 T02220167 $
KPBX 061315Z AUTO 15003KT 10SM CLR M01/M08 A3036 RMK AO2 T10151080
KPCM 061315Z AUTO 03006KT 10SM BKN050 10/08 A3020 RMK AO2
KPCW 061321Z AUTO 23007KT 9SM CLR M02/M04 A3030 RMK AO2 $
KPCZ 061315Z AUTO 26008KT 10SM OVC011 M02/M05 A3016 RMK AO2 T10231050
KPDC 061315Z AUTO 24003KT 10SM OVC010 M01/M04 A3022 RMK AO2 T10151040
KPDK 061253Z 04003KT 10SM CLR M02/M06 A3037 RMK AO2 SLP301 T10171061
KPDT 061253Z AUTO 27007KT 10SM OVC044 05/00 A3036 RMK AO2 SLP279 T00500000
KPDX 061253Z 00000KT 10SM FEW055 BKN220 08/05 A3046 RMK AO2 SLP313 T00780050
KPEA 061315Z AUTO 18003KT 10SM OVC019 M03/M05 A3025 RMK AO2 T10301051
KPEO 061253Z AUTO 20009KT 10SM OVC070 M02/M07 A3024 RMK AO2 SLP254 T10171072 TSNO
KPEQ 061315Z AUTO 00000KT 10SM CLR M07/M12 A3045 RMK AO2 T10681116
KPEX 061314Z AUTO 19005KT 10SM CLR M06/M07 A3005 RMK AO2 T10631066
KPEZ 061315Z AUTO 28003KT 10SM CLR 03/02 A3039 RMK AO2 T00320022
KPGA 061253Z AUTO 00000KT 9SM CLR M04/M07 A3053 RMK AO2 SLP356 T10391072 TSNO
KPGD 061253Z 04006KT 10SM SCT065 11/09 A3017 RMK AO2 SLP217 T01110094
KPGV 061315Z AUTO 00000KT 10SM CLR M01/M01 A3047 RMK AO2
KPHD 061253Z AUTO 00000KT 10SM CLR M02/M08 A3032 RMK AO2 SLP278 T10171083
KPHF 061254Z 00000KT 10SM CLR M02/M03 A3047 RMK AO2 SLP319 T10171028
KPHL 061254Z 24003KT 10SM BKN250 M01/M05 A3045 RMK AO2 SLP311 T10111050 $
KPHN 061317Z AUTO 00000KT 10SM OVC080 M04/M07 A3027 RMK AO2
KPHP 061255Z AUTO 27011KT 10SM CLR M02/M07 A3002 RMK AO2 SLP187 T10221067
KPHT 061315Z AUTO 00000KT 10SM CLR M04/M07 A3037 RMK
KPHX 061251Z 00000KT 10SM CLR 08/M06 A3032 RMK AO2 SLP263 T00781056
KPIA 061254Z 17003KT 5SM BR CLR M04/M06 A3030 RMK AO2 SLP271 T10391056 $
KPIB 061315Z AUTO 00000KT 10SM CLR M01/M04 A3038 RMK AO1
KPIE 061253Z 03008KT 10SM BKN050 BKN060 10/06 A3019 RMK AO2 SLP223 T01000061
KPIH 061253Z 01008KT 10SM CLR M09/M10 A3047 RMK AO2 SLP367 T10891100
KPIL 061253Z AUTO 29006KT 9SM CLR 11/09 A3035 RMK AO2 SLP276 T01110094
KPIR 061253Z AUTO 23016KT 10SM CLR M02/M07 A3000 RMK AO2 SLP176 T10171067
KPIT 061251Z 21005KT 10SM FEW060 BKN250 M01/M09 A3030 RMK AO2 SLP280 T10061094
KPKB 061253Z 18007KT 10SM CLR M01/M09 A3037 RMK AO2 SLP291 T10111089
KPKD 061253Z AUTO 17006KT 7SM OVC110 M06/M08 A2994 RMK AO2 SLP166 T10611078
KPKV 061315Z AUTO 30004KT 10SM SCT019 SCT034 SCT047 07/06 A3035 RMK AO2 T00730063
KPLN 061316Z AUTO 27012G16KT 3/4SM -SN BR BKN010 OVC018 M02/M04 A3007 RMK AO2 P0001 T10221039
KPLU 061315Z AUTO 6SM -DZ BKN026 BKN034 OVC043 RMK AO2 PWINO
KPMD 061253Z AUTO 00000KT 10SM CLR M01/M05 A3042 RMK AO2 SLP303 T10061050
KPMP 061253Z 31004KT 10SM SCT024 BKN065 17/16 A3013 RMK AO2 SLP204 T01720161
KPMU 061315Z AUTO 00000KT 10SM CLR M01/M02 A3040 RMK AO2 T10141016
KPMV 061315Z AUTO 28004KT 1/4SM FZFG OVC002 M05/M06 A3025 RMK AO2 T10551061
KPNA 061315Z AUTO 27006KT 10SM SCT110 M08/M11 A3035 RMK AO2
KPNC 061253Z AUTO 33006KT 10SM CLR M01/M03 A3032 RMK AO2 SLP272 T10111028 TSNO
KPNE 061254Z AUTO 00000KT 10SM CLR M03/M06 A3045 RMK AO2 SLP313 T10331061 TSNO
KPNM 061314Z AUTO 17005KT 7SM CLR M04/M06 A3008 RMK AO2
KPNS 061253Z VRB03KT 10SM CLR 02/M04 A3034 RMK AO2 PK WND 33027/1242 SLP277 T00221044
KPNT 061315Z AUTO 16005KT 5SM BR BKN035 M03/M04 A3032 RMK AO2 T10341042
KPOB 061258Z AUTO 00000KT 10SM CLR M02/M03 A3045 RMK AO2 SLP316 T10231033
KPOE 061258Z AUTO 07002KT 10SM VCTS OVC085 02/00 A3031 RMK AO2 SLP268 T00220002
KPOF 061253Z AUTO 00000KT 10SM CLR M04/M06 A3035 RMK AO2 SLP283 T10391056
KPOU 061253Z 00000KT 10SM CLR M03/M07 A3040 RMK AO2 SLP293 T10281072
KPOV 061319Z AUTO 27005KT 10SM CLR M03/M06 A3029 RMK AO2 T10261059
KPOY 061315Z AUTO 17012G22KT 10SM CLR 01/M09 A3009 RMK AO2
KPPA 061315Z AUTO 27006KT 10SM CLR M07/M09 A3035 RMK AO2 T10721095
KPPF 061252Z AUTO 00000KT 10SM OVC060 01/M03 A3031 RMK AO2 SLP269 T00061033
KPPO 061315Z AUTO 19005KT 3SM BR OVC075 M04/M04 A3029 RMK AO2 T10401040
KPPQ 061315Z AUTO 02004KT 10SM CLR M02/M05 A3029 RMK AO2 T10251050
KPQI 061256Z AUTO 00000KT 10SM CLR M15/M17 A3015 RMK AO2 SLP257 T11501172 FZRANO
KPQL 061253Z AUTO 00000KT 10SM CLR M02/M02 A3038 RMK AO2 SLP287 T10171022 TSNO
KPQN 061314Z AUTO 21004KT M07/M11 A3008 RMK AO2 PWINO
KPRB 061253Z AUTO 00000KT 9SM CLR 01/00 A3038 RMK AO2 SLP290 T00110000 TSNO
KPRC 061253Z 18004KT 10SM CLR M06/M09 A3043 RMK AO2 SLP303 T10561094
KPRG 061315Z AUTO 16003KT 7SM OVC070 M02/M04 A3034 RMK AO2 T10251037
KPRN 061256Z AUTO 01004KT 10SM CLR M03/M05 A3034 RMK AO2 SLP276 T10281050
KPRO 061315Z AUTO 5SM BR OVC006 M01/M02 A3023 RMK AO2 T10101018
KPRS 061315Z AUTO 33004KT 10SM CLR 00/M13 A3049 RMK AO2 T10021128
KPRX 061315Z 34007KT 10SM BKN035 OVC041 04/M01 A3031 RMK AO1
KPSC 061253Z AUTO 22006KT 10SM CLR 07/01 A3034 RMK AO2 SLP274 T00670006
KPSF 061254Z AUTO 00000KT 10SM CLR M07/M09 A3030 RMK AO2 SLP279 T10671089
KPSK 061315Z AUTO 00000KT 10SM CLR M05/M06 A3038 RMK AO2 T10481062
KPSM 061258Z 22002KT 10SM BKN250 M08/M11 A3034 RMK AO2A SLP278 T10801107
KPSN 061315Z AUTO 13003KT 10SM CLR 03/02 A3028 RMK AO2 T00320030
KPSO 061315Z AUTO 00000KT 10SM CLR A3043 RMK AO2
KPSP 061253Z AUTO 33004KT 10SM CLR 09/M02 A3038 RMK AO2 SLP290 T00941022 TSNO
KPSX 061253Z AUTO 30011KT 5SM +RA BR FEW042 OVC050 09/08 A3033 RMK AO2 LTG DSNT S RAB1155 SLP272 P0011 T00940083
KPTB 061315Z AUTO 00000KT 10SM CLR M03/M03 A3048 RMK AO2 T10261035
KPTK 061253Z 25008KT 7SM SCT080 M04/M07 A3024 RMK AO2 SLP253 T10441067
KPTN 061315Z AUTO 00000KT 10SM FEW100 04/M01 A3033 RMK AO1
KPTS 061315Z AUTO 00000KT 10SM CLR 00/M03 A3029 RMK AO2 T10021035
KPTT 061315Z AUTO 30007KT 10SM CLR M07/M09 A3032 RMK AO2 T10701087
KPTV 061156Z AUTO 00000KT 6SM BR CLR 03/02 A3040 RMK AO2 SLP310 T00280017 10067 20017 58013
KPTW 061254Z AUTO 00000KT 9SM CLR M06/M07 A3043 RMK AO2 SLP308 T10561067
KPUB 061253Z AUTO 00000KT 10SM CLR M11/M14 A3026 RMK AO2 SLP292 T11061144
KPUC 061253Z AUTO 00000KT 10SM CLR M14/M16 A3050 RMK AO2 SLP424 T11391161
KPUJ 061315Z AUTO 05003KT 10SM CLR 01/M03 A3036 RMK AO2
KPUW 061253Z AUTO 25018G24KT 10SM CLR 03/M01 A3026 RMK AO2 PK WND 24027/1236 SLP263 T00331011
KPVB 061315Z AUTO 22008KT 10SM OVC013 M02/M04 A3021 RMK AO1 T10221040
KPVC 061256Z AUTO 32007KT 10SM CLR M01/M06 A3038 RMK AO2 SLP286 T10061056 FZRANO
KPVD 061251Z COR 27007KT 10SM FEW250 FEW300 M06/M09 A3039 RMK AO2 SLP292 T10561089 $
KPVE 061315Z AUTO 00000KT 10SM CLR M04/M05 A3037 RMK
KPVF 061315Z AUTO 09004KT 10SM CLR 08/M05 A3040 RMK AO1
KPVG 061315Z 00000KT 10SM CLR M01/M02 A3050 RMK AO1
KPVJ 061315Z AUTO 00000KT 10SM SCT040 BKN050 BKN070 04/00 A3031 RMK AO2 T00390002
KPVU 061315Z AUTO 28003KT 2SM CLR A3055 RMK AO1
KPVW 061315Z AUTO 29007KT 10SM CLR M09/M11 A3037 RMK AO2 T10871111
KPWA 061253Z 35010KT 10SM BKN036 OVC044 02/M02 A3033 RMK AO2 SLP276 T00221017
KPWC 061313Z AUTO 15005KT 5SM BR OVC005 M07/M07 A3001 RMK AO2
KPWG 061256Z AUTO 29007KT 10SM CLR 04/M02 A3027 RMK AO2 SLP268 T00391017
KPWK 061252Z 21004KT 6SM BR CLR M04/M06 A3028 RMK AO2 SLP262 T10391061
KPWM 061251Z 00000KT 10SM FEW200 M11/M12 A3033 RMK AO2 SLP271 T11061117
KPWT 061315Z AUTO 18013G18KT 10SM BKN010 04/03 A3040 RMK AO1
KPXE 061315Z AUTO 00000KT 10SM CLR 03/M01 A3035 RMK AO2 T00261008
KPYM 061252Z AUTO 23003KT 10SM CLR M07/M09 A3038 RMK AO2 SLP289 T10721089 $
KPYX 061315Z AUTO 28007KT 10SM CLR M06/M08 A3034 RMK AO2 T10581083
KPZQ 061315Z AUTO 23010KT 10SM OVC100 M03/M07 A3008 RMK AO2 T10321072
KRAC 061253Z AUTO 23009KT 8SM BKN060 M03/M06 A3024 RMK AO2 SLP247 T10281061
KRAL 061253Z AUTO VRB04KT 10SM CLR 11/M05 A3030 RMK AO2 SLP248 T01061050
KRAP 061252Z 00000KT 10SM CLR M03/M08 A3002 RMK AO2 SLP201 T10331083
KRAS 061315Z AUTO 29006KT 10SM SCT075 SCT080 13/12 A3034 RMK AO2 LTG DSNT NE T01320122
KRBD 061319Z 31007KT 10SM SCT008 02/01 A3025 RMK AO2 T00170006
KRBG 061253Z AUTO 00000KT 10SM OVC007 09/08 A3042 RMK AO2 CIG 003V008 SLP301 T00890078
KRBL 061254Z AUTO 30006KT 10SM CLR 07/04 A3042 RMK AO2 SLP302 T00670039
KRBO 061315Z AUTO 32010KT 10SM CLR 08/07 A3038 RMK AO2 LTG DSNT NE T00770065
KRBW 061315Z AUTO 05004KT 10SM SCT048 BKN075 03/00 A3039 RMK AO2
KRCA 061258Z AUTO 25011KT 10SM CLR 01/M07 A3000 RMK AO2 SLP192 T00091069 $
KRCE 061255Z AUTO 34005KT 10SM M02/M02 A3035 RMK AO2
KRCM 061315Z AUTO 23003KT 10SM CLR M01/M05 A3028 RMK AO2
KRCR 061315Z AUTO 00000KT 5SM HZ CLR M03/M06 A3032 RMK AO2
KRCV 061310Z AUTO 26006KT 10SM CLR M18/M23 A3042 RMK AO2 T11821228
KRCX 061315Z AUTO 20004KT 5SM BR SCT008 OVC013 M05/M05 A3011 RMK AO2 T10461053
KRCZ 061315Z AUTO 00000KT 10SM CLR M01/M04 A3043 RMK AO2 T10131041
KRDD 061253Z AUTO 00000KT 9SM CLR 05/03 A3042 RMK AO2 SLP300 T00500028
KRDG 061254Z 00000KT 10SM CLR M04/M07 A3042 RMK AO2 SLP309 T10441072
KRDK 061315Z AUTO 31006KT 5SM BR OVC006 M00/M00 A3026 RMK AO2
KRDM 061256Z AUTO 03004KT 10SM CLR M01/M03 A3032 RMK AO2 SLP278 T10111028
KRDR 061258Z AUTO 18008KT 10SM SCT120 M07/M08 A2983 RMK AO2 SLP123 T10661084
KRDU 061251Z 00000KT 10SM BKN250 M02/M05 A3045 RMK AO2 SLP316 T10171050 $
KREO 061252Z AUTO 17010KT 02/M03 A3038 RMK AO1 SLP305 T00221028
KRFD 061254Z 20007KT 6SM BR CLR M04/M06 A3026 RMK AO2 SLP258 T10441061
KRFI 061315Z AUTO 13003KT 10SM OVC037 04/03 A3030 RMK AO2 T00430026
KRGK 061315Z AUTO 26006KT 10SM OVC012 M03/M06 A3015 RMK AO2
KRHI 061253Z AUTO 25008KT 6SM BR OVC006 M06/M08 A3006 RMK AO2 CIG 005V010 SLP206 I1000 T10611078
KRHP 061315Z AUTO 00000KT 10SM CLR M05/M06 A3038 RMK AO2 T10501061
KRIC 061254Z 00000KT 10SM FEW230 OVC300 M02/M05 A3047 RMK AO2 SLP324 T10221050
KRIL 061253Z AUTO 13004KT 10SM CLR M17/M20 A3057 RMK AO2 SLP437 I1000 T11721200
KRIV 061258Z AUTO 03005KT 10SM CLR 08/M06 A3030 RMK AO2 SLP258 T00831059
KRIW 061253Z AUTO 00000KT 10SM CLR M08/M13 A3020 RMK AO2 SLP282 T10831128
KRKD 061256Z AUTO 28008KT 10SM CLR M08/M11 A3031 RMK AO2 SLP265 T10781106 FZRANO
KRKP 061253Z AUTO 31013G20KT 10SM FEW011 11/08 A3035 RMK AO2 SLP280 T01060083
KRKR 061315Z AUTO 15003KT 10SM CLR M02/M05 A3034 RMK AO2 T10191055
KRKS 061254Z AUTO 26025KT 10SM CLR M07/M11 A3038 RMK AO2 PK WND 26028/1248 SLP343 T10721106
KRLD 061315Z AUTO 21009KT 10SM CLR 08/02 A3033 RMK AO2 T00750015
KRME 061253Z 10007KT 10SM BKN048 BKN060 OVC070 M03/M07 A3030 RMK AO2 SLP265 T10281067
KRMG 061253Z AUTO 00000KT 10SM CLR M03/M06 A3039 RMK AO2 SLP294 T10331056 $
KRMN 061315Z AUTO 00000KT 10SM CLR M05/M06 A3051 RMK AO2 T10491060
KRMY 061314Z AUTO 21005KT 5SM BR OVC090 M04/M06 A3026 RMK AO2 T10401060
KRNC 061315Z AUTO 00000KT 10SM CLR M03/M04 A3037 RMK
KRND 061258Z AUTO 31010KT 10SM CLR 06/M03 A3034 RMK AO2 SLP275 T00591028
KRNH 061310Z AUTO 22006KT 7SM OVC009 M05/M06 A3012 RMK AO2 T10461065
KRNM 061253Z AUTO 06008KT 10SM CLR 13/M06 A3026 RMK AO2 SLP238 T01281061
KRNO 061255Z 00000KT 10SM BKN120 M01/M03 A3046 RMK AO2 SLP320 T10111033
KRNP 061315Z AUTO 22004KT 7SM SCT055 BKN075 OVC100 M03/M05 A3024 RMK AO2 T10311052
KRNT 061253Z AUTO 15006KT 10SM BKN018 OVC032 08/04 A3038 RMK AO2 SLP294 T00780044
KRNV 061315Z AUTO 00000KT 10SM CLR 01/01 A3038 RMK AO2 T00120012
KROA 061254Z 32003KT 10SM SCT200 M03/M08 A3044 RMK AO2 SLP318 T10331083
KROC 061254Z 22007KT 10SM FEW037 BKN075 OVC110 M01/M07 A3023 RMK AO2 SLP245 T10061067
KROG 061257Z AUTO 11003KT 10SM CLR M03/M05 A3031 RMK AO2 SLP271 T10281050
KROS 061316Z AUTO 18004KT 10SM OVC010 M05/M06 A3008 RMK AO2 T10461062
KROW 061251Z 27003KT 10SM CLR M09/M13 A3040 RMK AO2 SLP301 T10891128
KROX 061314Z AUTO 16007KT 10SM CLR M07/M09 A2987 RMK AO2
KRPD 061315Z AUTO 22005KT 10SM OVC012 M04/M06 A3012 RMK AO2 T10421063
KRPH 061315Z AUTO 32010KT 10SM CLR 02/M02 A3032 RMK AO2 T00231025
KRPJ 061315Z AUTO 20007KT 4SM BR CLR M05/M06 A3026 RMK AO2 T10471060
KRPX 061315Z AUTO 20008KT 10SM 04/M07 A2985
KRQB 061315Z AUTO 24006KT 10SM BKN055 OVC095 M02/M05 A3017 RMK AO2 T10201050
KRQE 061253Z AUTO 22003KT 10SM CLR M14/M18 A3047 RMK AO2 SLP347 T11391178 TSNO
KRQO 061315Z AUTO 34009KT 10SM CLR M01/M02 A3033 RMK AO2
KRRL 061315Z AUTO 28007KT 7SM OVC008 M05/M06 A3010 RMK AO2 T10511061
KRRT 061315Z AUTO 14003KT 10SM SCT060 BKN110 M07/M09 A2988 RMK AO2
KRSL 061253Z AUTO 26007KT 10SM CLR M08/M09 A3029 RMK AO2 SLP282 T10831094
KRSN 061315Z AUTO 00000KT 10SM SCT120 03/00 A3037 RMK AO2 T00310002
KRSP 061254Z AUTO 10SM CLR M02/M10 RMK AO2 SLPNO T10221100 $
KRST 061254Z 25009KT 6SM BR OVC008 M04/M06 A3015 RMK AO2 SLP230 T10391056
KRSV 061315Z AUTO 00000KT 5SM BR OVC080 M04/M05 A3036 RMK AO2 T10401049
KRSW 061253Z 03005KT 10SM BKN046 OVC065 13/09 A3015 RMK AO2 SLP207 T01280089
KRTN 061253Z AUTO 06009KT 10SM CLR M14/M17 A3029 RMK AO2 SLP317 T11391167 TSNO
KRTS 061315Z AUTO 00000KT 8SM OVC100 M03/M03 A3044 RMK AO2
KRUE 061253Z AUTO 00000KT 10SM CLR M04/M06 A3034 RMK AO2 SLP272 T10391056
KRUG 061315Z AUTO 21009KT 10SM FEW110 M02/M04 A2974 RMK AO2
KRUQ 061315Z AUTO 00000KT 10SM CLR M04/M05 A3043 RMK AO2 T10391053
KRUT 061315Z 13005KT 10SM CLR M06/M09 A3028 RMK AO1
KRVS 061253Z 00000KT 10SM SCT055 BKN085 02/M03 A3032 RMK AO2 SLP274 T00171028
KRWF 061253Z AUTO 19006KT 10SM CLR M06/M08 A3010 RMK AO2 SLP207 T10611078
KRWI 061253Z AUTO 00000KT 7SM CLR M02/M02 A3048 RMK AO2 SLP322 T10171022
KRWL 061253Z AUTO VRB05KT 10SM CLR M07/M12 A3031 RMK AO2 SLP316 T10671117
KRWV 061310Z AUTO 27007KT 10SM CLR 04/01 A3032 RMK AO2
KRXE 061253Z AUTO 00000KT 10SM FEW009 OVC033 M07/M08 A3044 RMK AO2 SLP361 T10671078
KRYN 061245Z 09006KT 10SM CLR 09/M09 A3032
KRYT 061253Z AUTO 00000KT 10SM CLR M04/M07 A3037 RMK AO2 SLP305 T10391072 $
KRYV 061315Z AUTO 22007KT 10SM BKN026 OVC031 M03/M05 A3021 RMK AO2 T10271050
KRYW 061315Z AUTO 29013G17KT 10SM CLR 05/M03 A3031 RMK AO2 LTG DSNT SE T00531026
KRYY 061247Z 00000KT 10SM SCT150 M02/M06 A3037
KRZL 061315Z AUTO 20004KT 7SM CLR M05/M07 A3032 RMK AO2
KRZN 061310Z AUTO 22005KT 10SM OVC011 M05/M06 A3009 RMK AO2 T10471065
KRZR 061315Z AUTO 00000KT 10SM CLR M03/M04 A3040 RMK A01
KRZT 061315Z AUTO 28003KT 10SM CLR M04/M06 A3035 RMK AO2
KS25 061315Z AUTO 23013G19KT 10SM CLR 02/M03 A2978 RMK AO2
KS39 061315Z AUTO 00000KT 10SM CLR 00/M01 A3033 RMK AO2
KSAA 061315Z AUTO 15014KT 10SM CLR M09/M13 A3035 RMK AO2
KSAC 061318Z 00000KT 1 3/4SM BR CLR 03/03 A3043 RMK AO2 T00330028
KSAD 061251Z AUTO 10009KT 10SM CLR 03/M12 A3040 RMK AO2 SLP286 T00281117
KSAF 061253Z AUTO 34011KT 10SM CLR M08/M14 A3042 RMK AO2 SLP326 T10831144
KSAN 061251Z 00000KT 10SM CLR 11/M01 A3025 RMK AO2 SLP244 T01061011
KSAR 061315Z AUTO 00000KT 10SM CLR M04/M05 A3033 RMK AO2 T10361053
KSAT 061251Z 32008KT 10SM FEW080 05/M03 A3035 RMK AO2 SLP269 T00501028
KSAV 061253Z 03011KT 10SM FEW035 OVC075 06/M04 A3036 RMK AO2 SLP279 T00561039
KSAW 061250Z 24006KT 10SM OVC031 M06/M08 A3002
KSAZ 061313Z AUTO 16006KT 7SM OVC120 M06/M06 A2998 RMK AO2
KSBA 061253Z AUTO 00000KT 10SM CLR 05/01 A3026 RMK AO2 SLP247 T00500006
KSBM 061313Z AUTO 24012KT 9SM BKN020 OVC041 M02/M07 A3018 RMK AO2 T10221072 PWINO FZRANO $
KSBN 061254Z 20006KT 3SM BR SCT070 M07/M08 A3030 RMK AO2 SLP273 I1000 T10671078
KSBO 061315Z AUTO 00000KT 10SM CLR 02/M01 A3036 RMK AO2
KSBP 061256Z 00000KT 10SM CLR 08/02 A3030 RMK AO2 SLP262 T00830022
KSBS 061316Z AUTO 00000KT 10SM CLR M16/M18 A3048 RMK AO1 T11651178
KSBY 061254Z 00000KT 10SM CLR M02/M03 A3047 RMK AO2 SLP320 T10221033
KSCD 061315Z AUTO 00000KT 10SM M02/M03 A3038 RMK AO2 T10201032
KSCF 061315Z AUTO 09010KT 10SM OVC080 11/M00 A3033 RMK A01
KSCH 061259Z 00000KT 10SM CLR M06/M08 A3034
KSCK 061323Z AUTO 14004KT 3/4SM BR VV004 03/03 A3041 RMK AO2 T00330028 RVRNO
KSCR 061315Z AUTO 00000KT 10SM CLR M02/M05 A3043 RMK AO2 T10221055
KSDA 061315Z AUTO 00000KT 1SM BR SCT010 M02/M01 A3027 RMK AO2
KSDB 061248Z AUTO 06019G27KT 10SM CLR 06/M07 A3038 RMK AO2 PK WND 07030/1210 SLP270 T00561072 $
KSDF 061256Z 00000KT 7SM FEW200 M02/M06 A3035 RMK AO2 SLP282 T10221056
KSDL 061253Z 00000KT 10SM CLR 05/M07 A3033 RMK AO2 SLP265 T00501067
KSDM 061253Z AUTO 06003KT 10SM CLR 11/M04 A3023 RMK AO2 SLP236 T01111044
KSDY 061315Z 19008KT 10SM BKN080 03/M03 A2981 RMK AO1
KSEA 061253Z 20009KT 10SM BKN013 OVC017 07/04 A3038 RMK AO2 SLP294 T00670039
KSEE 061315Z AUTO 00000KT 10SM CLR 04/00 A3028 RMK AO2
KSEG 061253Z AUTO 00000KT 9SM CLR M06/M07 A3040 RMK AO2 SLP301 T10561072
KSEP 061315Z AUTO 32009G16KT 10SM CLR 04/00 A3031 RMK AO2 T00380000
KSET 061254Z AUTO 08006KT 10SM CLR M04/M06 A3031 RMK AO2 SLP267 T10441061
KSEZ 061315Z AUTO 04011G15KT 10SM CLR 01/M10 A3043 RMK AO2
KSFB 061253Z 36010KT 10SM OVC065 12/09 A3019 RMK AO2 SLP222 T01170094
KSFF 061253Z AUTO 24010G16KT 10SM CLR 04/M02 A3020 RMK AO2 SLP234 T00441022
KSFM 061315Z AUTO 00000KT 10SM CLR M09/M12 A3032 RMK AO1
KSFO 061256Z 00000KT 6SM BR FEW010 08/07 A3040 RMK AO2 SLP295 T00830072
KSFQ 061315Z AUTO 00000KT 10SM CLR M01/M02 A3048 RMK AO2 T10151017
KSFY 061315Z AUTO 21004KT 10SM OVC015 M02/M04 A3026 RMK AO2 T10191044
KSFZ 061315Z AUTO 00000KT 10SM CLR M08/M09 A3035 RMK AO1
KSGF 061252Z 18007KT 10SM CLR M03/M08 A3028 RMK AO2 SLP266 T10331083
KSGH 061321Z AUTO 18003KT 3SM BR CLR M06/M06 A3033 RMK AO2
KSGJ 061258Z 01019G26KT 10SM BKN025 OVC049 13/08 A3027 RMK AO2 PK WND 01026/1257 SLP249 T01280083
KSGR 061324Z 00000KT 1/2SM FG CLR 04/04 A3031 RMK AO2 T00440039
KSGS 061312Z AUTO 17003KT 10SM OVC011 M03/M05 A3013 RMK AO2 T10311053
KSGT 061315Z 08004KT 10SM CLR 02/M02 A3037 RMK AO1
KSGU 061315Z 00000KT 10SM CLR M01/M07 A3055 RMK AO1
KSHD 061315Z AUTO 00000KT 10SM CLR M02/M05 A3042 RMK AO2 T10191050
KSHL 061315Z AUTO 18007KT 1/2SM BR OVC002 M07/M07 A3014 RMK AO2
KSHM 061258Z AUTO 29007KT 10SM CLR M05/M17 A3023 RMK AO2 SLP304 T10521172 $
KSHN 061253Z AUTO 24007KT 9SM -RA FEW019 SCT029 BKN037 05/04 A3036 RMK AO2 RAE06B37 SLP284 P0000 T00500039
KSHR 061253Z AUTO 08006KT CLR M02/M08 A3001 RMK AO2 SLP204 T10221078 $
KSHV 061256Z 12003KT 10SM FEW080 OVC130 03/M01 A3032 RMK AO2 SLP267 T00281006
KSIF 061315Z AUTO 00000KT 10SM CLR M05/M06 A3044 RMK AO2 T10511056
KSIK 061315Z AUTO 00000KT 10SM CLR M01/M02 A3036 RMK AO2 PWINO
KSIY 061253Z AUTO 32004KT 10SM CLR 02/00 A3043 RMK AO2 SLP324 T00170000 TSNO
KSJC 061253Z AUTO 14003KT 10SM CLR 07/04 A3040 RMK AO2 SLP292 T00670044
KSJN 061254Z AUTO 00000KT 10SM CLR M08/M13 A3049 RMK AO2 SLP342 T10831128 TSNO
KSJS 061315Z AUTO 20004KT 10SM CLR M01/M08 A3036 RMK AO2 T10071080
KSJT 061251Z 30006KT 10SM CLR 00/M06 A3041 RMK AO2 SLP304 T00001061 $
KSJX 061317Z AUTO 26015G22KT 7SM OVC020 M02/M05 A3008 RMK AO2 T10221052
KSKA 061258Z 22011KT 10SM CLR 01/00 A3018 RMK AO2A PK WND 23026/03 SLP238 T00141005
KSKF 061258Z AUTO 29005KT 10SM CLR 05/M02 A3034 RMK AO2 SLP275 T00501016 $
KSKX 061315Z AUTO 01010KT 10SM CLR M18/M21 A3043 RMK AO1
KSLB 061315Z AUTO M1/4SM FZFG OVC002 M04/M04 A3018 RMK AO2
KSLC 061253Z 14012KT 6SM HZ FEW130 M05/M08 A3051 RMK AO2 PRESFR SLP356 T10501078
KSLE 061327Z AUTO 18003KT 3/4SM R31/2600VP6000FT BR VV003 03/02 A3045 RMK AO2 VIS 1/4V5 T00280022 $
KSLG 061315Z AUTO 14003KT 9SM CLR M02/M10 A3031 RMK AO1
KSLH 061315Z AUTO 24005KT 3/4SM SN BKN006 BKN009 OVC015 M02/M03 A3007 RMK AO2 T10271035
KSLI 061258Z AUTO 35004KT 10SM CLR 09/M01 A3024 RMK AO2 SLP243 T00871013
KSLK 061251Z AUTO 22010KT 3SM -SN BR BKN023 BKN028 OVC070 M04/M06 A3014 RMK AO2 SNE17B47 SLP232 P0000 T10441061
KSLN 061253Z AUTO 00000KT 10SM CLR M03/M06 A3030 RMK AO2 SLP273 I1000 T10331056
KSLO 061315Z AUTO 00000KT 10SM SCT080 M01/M04 A3033 RMK AO2 T10121045
KSLR 061315Z AUTO 00000KT 7SM -RA SCT014 OVC020 05/05 A3032 RMK AO2 T00500047
KSME 061315Z AUTO 00000KT 10SM CLR M03/M07 A3040 RMK AO2
KSMF 061321Z 35004KT 2SM BR BCFG FEW001 04/03 A3042 RMK AO2 T00390033
KSMN 061315Z AUTO 00000KT 10SM CLR M11/M14 A3028 RMK AO1
KSMO 061251Z AUTO 05005KT 10SM CLR 13/M05 A3025 RMK AO2 SLP243 T01331050 $
KSMQ 061253Z AUTO 00000KT 10SM CLR M07/M08 A3041 RMK AO2 SLP302 T10671083
KSMS 061315Z AUTO 01003KT 10SM CLR 03/02 A3043 RMK AO2
KSMX 061251Z AUTO 12004KT 10SM CLR 05/02 A3030 RMK AO2 SLP262 T00500022
KSNA 061253Z 00000KT 10SM CLR 10/M02 A3023 RMK AO2 SLP238 T01001022
KSNC 061315Z AUTO 26003KT 10SM CLR M02/M07 A3039 RMK AO2 PWINO PNO
KSNK 061315Z AUTO 32007KT 10SM M02/M07 A3040 RMK AO2 T10251073
KSNL 061315Z AUTO 00000KT 10SM SCT027 BKN037 OVC046 05/02 A3033 RMK AO2
KSNS 061253Z AUTO 10013KT 10SM CLR 08/03 A3035 RMK AO2 SLP286 T00780028
KSNT 061251Z AUTO 00000KT M07/M11 A3034 RMK AO1 SLP288 T10721106
KSNY 061253Z AUTO 28015KT 10SM CLR M06/M11 A3017 RMK AO2 SLP265 T10611111
KSOA 061315Z AUTO 00000KT 10SM CLR M02/M06 A3048 RMK AO2 TSNO
KSOP 061315Z AUTO 00000KT 10SM CLR M03/M04 A3045 RMK AO1
KSOW 061315Z AUTO 00000KT 10SM -RA CLR M11/M13 A3048 RMK AO2
KSPA 061335Z AUTO 02004KT 10SM CLR 00/M07 A3042 RMK AO2
KSPB 061253Z AUTO 31003KT 10SM CLR 02/02 A3044 RMK AO2 SLP309 T00220022
KSPD 061256Z AUTO 25005KT M09/M13 A3028 RMK AO1 SLP290 T10941128
KSPF 061315Z AUTO 24019G24KT 10SM CLR 05/M08 A2999 RMK AO2
KSPG 061253Z 04011KT 10SM FEW048 BKN060 11/08 A3017 RMK AO2 SLP215 T01110078
KSPI 061252Z 00000KT 8SM CLR M02/M04 A3031 RMK AO2 SLP272 T10221044
KSPL 061315Z AUTO 2SM 14/13 A3035 RMK AO1
KSPR 061315Z AUTO 08007G14KT 360V120 9SM SCT110 13/02 A3029 RMK A01
KSPS 061252Z AUTO 33006KT 10SM CLR 01/M03 A3033 RMK AO2 SLP272 T00111028
KSPW 061305Z AUTO 22010KT 1/2SM FZFG VV002 M03/M06 A3016 RMK AO2 I1000 T10331056
KSQE 061315Z AUTO VRB03G13KT 10SM BKN090 14/06 A3029 RMK A01
KSQI 061315Z 00000KT 8SM OVC024 M03/M06 A3024 RMK AO1
KSQL 061315Z AUTO 00000KT 5SM BR CLR 08/07 A3041 RMK AO2
KSRB 061315Z AUTO 00000KT 10SM CLR M04/M05 A3038 RMK
KSRC 061315Z 00000KT 10SM CLR M03/M03 A3039 RMK AO2 SLP304 PWINO FZRANO RVRNO
KSRQ 061253Z 04007KT 10SM BKN045 BKN060 10/06 A3016 RMK AO2 SLP211 T01000061
KSRR 061315Z AUTO 32012G19KT 10SM M02/M19 A3038 RMK AO2
KSSC 061258Z AUTO 04005KT 10SM CLR 00/M03 A3040 RMK AO2 SLP298 T10011031 $
KSSF 061253Z 29007KT 10SM CLR 07/M01 A3034 RMK AO2 SLP274 T00721006
KSSI 061253Z AUTO 01010KT 10SM CLR 08/02 A3031 RMK AO2 SLP264 T00780017
KSTC 061253Z AUTO 17006KT 6SM BR FEW120 M06/M06 A3007 RMK AO2 SLP206 T10561061
KSTE 061315Z AUTO 24006KT 7SM OVC009 M05/M06 A3013 RMK AO2 T10521065
KSTF 061315Z AUTO 00000KT 10SM CLR 00/00 A3039 RMK AO2
KSTJ 061253Z AUTO 00000KT 6SM BR CLR M05/M07 A3030 RMK AO2 SLP268 I1001 T10501067
KSTK 061315Z AUTO 20008KT 10SM CLR M13/M16 A3021 RMK AO2
KSTL 061251Z 12004KT 10SM FEW085 M02/M06 A3031 RMK AO2 SLP273 T10171061 $
KSTP 061253Z 20004KT 10SM OVC012 M03/M06 A3014 RMK AO2 SLP216 T10331056
KSTS 061321Z AUTO 00000KT 3/4SM BR CLR 04/04 A3041 RMK AO2 T00440039
KSUA 061250Z 04006KT 5SM OVC050 20/16 A3016
KSUE 061315Z AUTO 26010KT 10SM BKN015 OVC025 M04/M08 A3016 RMK AO1
KSUN 061235Z AUTO 32009KT 10SM BKN055 BKN085 M08/M10 A3044 RMK AO2
KSUS 061254Z 00000KT 10SM CLR M05/M07 A3030 RMK AO2 SLP270 T10501067
KSUT 061315Z AUTO 01008KT 10SM SCT050 BKN070 03/00 A3041 RMK AO2 T00251001
KSUU 061258Z 00000KT 7SM CLR 02/02 A3040 RMK AO2A SLP302 T00240018 $
KSUW 061315Z AUTO 23005KT 10SM BKN120 M07/M08 A3006 RMK AO2 T10671085
KSUX 061321Z 10007KT 1/4SM R31/2000V2600FT HZ VV001 M09/M12 A3020 RMK AO2 T10941122
KSVC 061315Z AUTO 33008KT 10SM M05/M15 A3046 RMK AO2
KSVH 061315Z AUTO 00000KT 10SM CLR M03/M06 A3041 RMK AO2 T10351056
KSVN 061258Z AUTO 03006KT 10SM OVC075 06/M02 A3033 RMK AO2 SLP274 T00611020
KSWF 061245Z 25006KT 20SM SKC M04/M07 A3039
KSWO 061253Z AUTO 33004KT 10SM SCT041 BKN049 BKN075 02/M01 A3032 RMK AO2 SLP270 T00171006 TSNO $
KSWW 061315Z AUTO 30007KT 10SM CLR 00/M06 A3041 RMK AO2 T10011065
KSXS 061256Z AUTO 33003KT 10SM CLR M02/M02 A3034 RMK AO2 SLP280 T10181025
KSXT 061323Z AUTO 19010G17KT 1/4SM FG VV002 05/05 A3036 RMK AO2 T00500050
KSYF 061315Z AUTO 24009KT 10SM CLR M09/M14 A3024 RMK AO2 T10871138
KSYI 061315Z AUTO 09003KT 10SM CLR M02/M04 A3040 RMK
KSYM 061310Z AUTO 00000KT 10SM CLR M01/M09 A3037 RMK AO2
KSYN 061315Z AUTO 21008KT 10SM OVC007 M03/M05 A3013 RMK AO2 T10301047
KSYR 061254Z 21011KT 10SM OVC075 00/M08 A3026 RMK AO2 SLP248 T00001078 $
KSZL 061258Z 22008KT 10SM CLR M01/M05 A3025 RMK AO2A SLP254 T10101054 $
KSZT 061315Z AUTO 22011G15KT 10SM SCT034 03/M01 A3014 RMK AO2
KT20 061315Z AUTO 28006KT 10SM CLR 06/02 A3032 RMK AO2 LTG DSNT E T00640021
KT35 061315Z AUTO 29009KT 10SM CLR 06/M02 A3029 RMK AO2 LTG DSNT SE T00551017
KT65 061315Z AUTO 30005KT 7SM CLR 08/07 A3038 RMK AO2 T00810067
KT82 061315Z AUTO 31010KT 10SM CLR 04/M06 A3036 RMK AO2 T00381057
KTAD 061254Z AUTO 27010KT 10SM CLR M08/M14 A3027 RMK AO2 SLP286 T10781144
KTAN 061252Z AUTO 00000KT 10SM M09/M11 A3037 RMK AO2 SLP284 I1000 T10891111 $
KTAZ 061315Z AUTO 16005KT 7SM CLR M03/M04 A3032 RMK AO2
KTBN 061258Z AUTO 19005KT 10SM CLR 00/M09 A3027 RMK AO2 SLP262 T10011090
KTBR 061315Z AUTO 00000KT 10SM SCT065 05/M02 A3035 RMK AO2 T00531023
KTBX 061315Z AUTO 35006KT 10SM OVC110 M03/M11 A3023 RMK AO2
KTCC 061253Z AUTO 29006KT 10SM CLR M09/M13 A3035 RMK AO2 SLP307 T10941128
KTCL 061253Z 00000KT 10SM CLR M02/M04 A3041 RMK AO2 SLP296 T10221044
KTCM 061306Z AUTO 25005KT 10SM -RA OVC023 06/06 A3039 RMK AO2 RAB06
KTCS 061253Z AUTO 26005KT 10SM CLR M07/M16 A3046 RMK AO2 SLP320 T10671161 TSNO
KTDF 061315Z AUTO 00000KT 10SM CLR M03/M04 A3046 RMK AO2
KTDR 061256Z AUTO M 10SM BKN250 03/01 A3032 RMK AO2 SLP271 T00320006 TSNO $
KTDZ 061253Z AUTO 23004KT 3SM BR CLR M05/M07 A3033 RMK AO2 SLP276 T10501067
KTEB 061251Z 00000KT 10SM CLR M02/M08 A3042 RMK AO2 SLP301 T10221078
KTEW 061313Z AUTO 23004KT 5SM BR SCT080 M03/M05 A3025 RMK AO2 T10351051
KTEX 061315Z AUTO 00000KT 10SM CLR M10/M15 A3044 RMK AO2 T11031146
KTFP 061315Z AUTO 33011KT 10SM CLR 06/05 A3036 RMK AO2 LTG DSNT NE T00600054
KTGI 061258Z AUTO 06004KT 10SM CLR 03/M04 A3048 RMK AO1
KTHA 061315Z AUTO 00000KT 10SM CLR M04/M04 A3038 RMK
KTHV 061253Z AUTO 00000KT 8SM CLR M06/M07 A3041 RMK AO2 SLP309 T10611072
KTIF 061315Z AUTO 26003KT 10SM CLR M05/M08 A3013 RMK AO2 T10491082
KTIK 061258Z AUTO 32008KT 10SM BKN010 OVC038 04/01 A3031 RMK AO2 CIG 010V040 BKN V SCT SLP276 T00380013 $
KTIP 061315Z AUTO 17003KT 5SM BR SCT033 OVC038 M02/M03 A3032 RMK AO2 T10211035
KTIW 061253Z AUTO 19014KT 10SM FEW075 SCT090 06/04 A3038 RMK AO2 RAB10E28 SLP289 P0000 T00610039
KTIX 061253Z 30005KT 7SM SCT070 10/09 A3017
KTKC 061313Z AUTO 23014KT 10SM CLR M03/M05 A3008 RMK AO2 T10321052
KTKI 061253Z 07008KT 10SM BKN020 OVC025 06/02 A3026 RMK AO2 SLP258 T00560022 $
KTKV 061315Z AUTO 27003KT 7SM OVC008 M06/M07 A3008 RMK AO2 T10581070
KTKX 061315Z AUTO 00000KT 10SM CLR M01/M03 A3037 RMK AO2
KTLH 061253Z 00000KT 10SM FEW037 BKN060 06/M02 A3029 RMK AO2 SLP258 T00611017
KTMA 061310Z AUTO 04005KT 10SM SCT049 SCT060 03/00 A3031 RMK AO2 T00331001
KTMB 061253Z 35006KT 10SM BKN065 17/16 A3014 RMK AO2 SLP204 T01670156
KTME 061315Z AUTO 18004KT 2 1/2SM BR CLR 04/03 A3031 RMK AO2
KTMK 061315Z AUTO 00000KT 10SM SCT030 SCT038 05/03 A3046 RMK AO2
KTNB 061315Z AUTO 00000KT 10SM CLR M07/M08 A3033 RMK AO2 T10671079
KTNU 061315Z AUTO 00000KT 9SM OVC017 M02/M02 A3023 RMK AO2
KTOB 061313Z AUTO 24010KT 7SM OVC007 M04/M06 A3014 RMK AO2
KTOC 061315Z AUTO 35003KT 10SM CLR 00/M05 A3040 RMK AO2 T10031048
KTOI 061253Z AUTO 00000KT 10SM CLR M02/M05 A3035 RMK AO2 SLP280 T10221050
KTOL 061252Z 00000KT 5SM BR CLR M06/M07 A3031 RMK AO2 SLP274 T10561067
KTOP 061253Z 26004KT 10SM CLR M03/M05 A3031 RMK AO2 SLP271 T10281050
KTOR 061253Z AUTO 30007KT 10SM CLR M02/M08 A3015 RMK AO2 SLP242 T10171083
KTPA 061253Z 04008KT 10SM BKN045 10/06 A3019 RMK AO2 SLP223 T01000056
KTPF 061315Z AUTO 03008KT 10SM SCT050 SCT055 11/07 A3020 RMK AO2
KTPH 061256Z AUTO 35009KT 10SM CLR M11/M14 A3048 RMK AO2 SLP364 T11061139
KTPL 061251Z AUTO 29016G21KT 10SM CLR 06/M03 A3027 RMK AO2 SLP269 T00561033 $
KTQE 061254Z AUTO 18008KT 1/4SM FZFG VV002 M10/M11 A3023 RMK AO2 SLP251 I1000 T11001111
KTQH 061315Z AUTO 00000KT 10SM CLR M03/M05 A3033 RMK AO2
KTRI 061253Z 00000KT 10SM FEW170 SCT200 BKN250 M05/M07 A3039 RMK AO2 SLP296 T10501067
KTRK 061315Z AUTO 00000KT 1 1/4SM BR SCT002 BKN070 OVC085 M08/M10 A3047 RMK AO2 VIS 1/2V5
KTRL 061253Z AUTO 09006KT 10SM OVC020 05/03 A3025 RMK AO2 SLP243 T00500028
KTRM 061252Z AUTO VRB03KT 10SM CLR 05/M02 A3035 RMK AO2 SLP276 T00501022
KTSP 061315Z AUTO 10011KT 10SM CLR 04/M07 A3039 RMK AO2
KTTA 061315Z AUTO 00000KT 10SM CLR M04/M05 A3045 RMK AO2 T10401048
KTTD 061253Z AUTO 00000KT 10SM CLR 07/04 A3046 RMK AO2 SLP313 T00720044
KTTF 061315Z AUTO 21003KT 10SM SCT070 M03/M05 A3030 RMK AO2 T10351055
KTTN 061253Z 00000KT 10SM CLR M06/M08 A3042 RMK AO2 SLP298 T10561078 $
KTTS 061258Z AUTO 07002KT 10SM SCT070 14/11 A3017 RMK AO2 SLP221 T01390110
KTUL 061253Z 00000KT 10SM OVC090 06/M02 A3030 RMK AO2 SLP263 T00561017
KTUP 061253Z AUTO 00000KT 10SM CLR 01/M01 A3038 RMK AO2 SLP289 T00111011 $
KTUS 061253Z 11012G19KT 10SM CLR 09/M11 A3032 RMK AO2 SLP249 T00891111
KTVC 061325Z 22005KT 2 1/2SM -SN BKN032 OVC038 M02/M05 A3013 RMK AO2 SFC VIS 3 P0000 T10221050
KTVF 061315Z AUTO 16007KT 10SM BKN110 M06/M08 A2987 RMK AO1
KTVI 061315Z AUTO 07003KT 10SM SCT060 03/00 A3030 RMK AO2
KTVL 061253Z AUTO 00000KT 10SM CLR M07/M09 A3046 RMK AO2 SLP328 I1000 T10671089
KTVR 061253Z AUTO 10004KT 10SM CLR 04/M01 A3036 RMK AO2 SLP290 T00441011
KTVY 061315Z AUTO 17012KT 10SM CLR M03/M06 A3051 RMK AO2
KTWF 061253Z 00000KT 10SM CLR M07/M08 A3043 RMK AO2 SLP330 T10721083
KTWM 061314Z AUTO 25004KT 10SM SCT090 M08/M11 A3000 RMK AO2
KTXK 061253Z 00000KT 10SM CLR 01/M03 A3031 RMK AO2 SLP266 T00111033
KTYQ 061315Z AUTO 20003KT 4SM BR SCT075 M07/M07 A3033 RMK AO2 T10661075
KTYR 061253Z 13009KT BKN026 OVC033 06/02 A3026 RMK AO2 SLP247 T00560022 $
KTYS 061253Z 08003KT 10SM SCT100 SCT250 M02/M07 A3039 RMK AO2 SLP299 T10221067
KTZR 061250Z 28003KT 5SM BR SKC M06/M06 A3033
KU16 061158Z AUTO 17003KT 10SM CLR M06/M08 A3048 RMK AO2 SLP932 T10611083 11044 21100 58002 TSNO $
KU42 061315Z AUTO 17009KT 10SM CLR M05/M07 A3052 RMK AO1 T10521072
KU68 061315Z AUTO 05007KT 10SM CLR M03/M09 A3016 RMK AO2
KUAO 061253Z AUTO 00000KT 9SM BKN042 05/05 A3046 RMK AO2 SLP316 T00500050
KUBE 061315Z AUTO 24009KT 7SM OVC009 M05/M06 A3009 RMK AO2
KUCP 061256Z AUTO 20004KT 10SM FEW050 M01/M07 A3030 RMK AO2 SLP289 T10111072
KUCY 061315Z AUTO 00000KT 10SM CLR M04/M05 A3036 RMK
KUDG 061315Z AUTO 01004KT 10SM CLR M01/M04 A3044 RMK AO1
KUES 061245Z 22003KT 7SM OVC060 M03/M06 A3021
KUGN 061255Z 22008KT 6SM BR CLR M04/M06 A3024 RMK AO2 SLP255 T10441061
KUIL 061253Z AUTO 26005KT 8SM -RA FEW022 BKN034 OVC042 06/04 A3034 RMK AO2 RAB38 SLP277 P0003 T00610044
KUIN 061254Z AUTO 14004KT 10SM CLR M03/M07 A3027 RMK AO2 SLP259 T10331072
KUKF 061315Z AUTO 00000KT 10SM CLR M04/M06 A3047 RMK AO2
KUKI 061256Z AUTO 00000KT 10SM CLR 04/03 A3043 RMK AO2 SLP303 T00390028
KUKT 061315Z AUTO 00000KT 10SM CLR M05/M07 A3042 RMK AO1
KULM 061314Z AUTO 18007KT 1/2SM FZFG OVC002 M08/M08 A3011 RMK AO2
KUNI 061310Z AUTO 28003KT 10SM CLR M04/M08 A3035 RMK AO2 T10441076
KUNO 061253Z AUTO 24003KT 10SM BKN085 01/M09 A3032 RMK AO2 SLP275 T00061094
KUNU 061315Z AUTO 22009KT 10SM OVC017 M03/M06 A3021 RMK AO2 T10301060
KUNV 061253Z 00000KT 10SM OVC065 M04/M07 A3033
KUOX 061315Z AUTO 00000KT 10SM CLR M02/M03 A3040 RMK AO2 PWINO PNO
KUTA 061315Z AUTO 00000KT 10SM CLR 00/M01 A3040 RMK AO2 TSNO
KUTS 061253Z AUTO 19007KT 10SM CLR 05/03 A3027 RMK AO2 SLP248 T00500033
KUUU 061253Z AUTO 00000KT 10SM CLR M06/M07 A3038 RMK AO2 SLP290 T10561067 $
KUVA 061315Z AUTO 31005KT 10SM CLR 00/M03 A3043 RMK AO2 T00021034
KUXL 061315Z AUTO 10SM SCT065 BKN100 06/03 A3030 RMK AO2 LTG DSNT SW AND NW T00640029
KUYF 061315Z AUTO 4SM BR CLR M06/M06 A3031 RMK AO2
KUZA 061254Z AUTO 00000KT 10SM CLR M03/M05 A3042 RMK AO2 SLP312 I1000 T10331050
KVAD 061258Z AUTO 04006KT 10SM FEW037 BKN065 05/M01 A3029 RMK AO2 SLP261 T00531010 $
KVAF 061315Z AUTO 28006KT 10SM FEW075 BKN090 OVC110 15/13 A3029 RMK A01
KVAY 061254Z AUTO 00000KT 10SM CLR M04/M06 A3045 RMK AO2 SLP310 T10441056
KVBG 061258Z AUTO 10008KT 10SM CLR 06/02 A3028 RMK AO2 SLP258 T00610023 TSNO
KVBS 061315Z AUTO 19010G16KT 140V230 10SM BKN055 BKN065 12/06 A3028 RMK A01
KVBT 061315Z AUTO 13004KT 10SM CLR M02/M07 A3031 RMK AO1
KVBW 061315Z AUTO 00000KT 10SM CLR M05/M07 A3039 RMK AO2 T10491066
KVCB 061253Z AUTO 00000KT 10SM CLR 03/02 A3043 RMK AO2 SLP302 T00330022
KVCT 061251Z AUTO 31003KT 10SM FEW034 07/06 A3035 RMK AO2 RAE01 TSE1157 SLP275 P0000 T00670056
KVCV 061315Z AUTO 00000KT 10SM M02/M07 A3042 RMK AO2
KVDF 061315Z AUTO 03006KT 10SM SCT049 BKN060 11/06 A3020 RMK AO2
KVDI 061315Z AUTO 06006KT 10SM SCT050 BKN060 03/00 A3034 RMK AO2
KVEL 061253Z AUTO 29003KT 8SM CLR M17/M19 A3054 RMK AO2 SLP428 T11671194
KVER 061315Z AUTO 00000KT 10SM 00/M06 A3028 RMK AO2 T10021065
KVES 061315Z AUTO 00000KT 4SM BR CLR M05/M05 A3032 RMK AO2
KVGT 061253Z 33006KT 10SM CLR 04/M04 A3047 RMK AO2 SLP339 T00391044
KVIH 061253Z AUTO 20009KT 10SM CLR 00/M08 A3026 RMK AO2 SLP258 T00001078 $
KVIS 061256Z AUTO 09003KT M1/4SM FG OVC001 03/03 A3041 RMK AO2 SLP309 T00330033
KVJI 061315Z AUTO 10003KT 10SM CLR M03/M09 A3036 RMK AO2 T10261086
KVKS 061315Z AUTO 00000KT 10SM CLR 03/M01 A3038 RMK A01
KVKY 061315Z AUTO 04007KT 10SM FEW110 12/00 A3034 RMK A01
KVLD 061253Z AUTO 04007KT 10SM FEW039 SCT048 BKN070 06/M02 A3029 RMK AO2 SLP266 T00611017
KVLL 061315Z AUTO 22004KT 10SM BKN075 M03/M05 A3028 RMK AO2 T10271054
KVNC 061315Z AUTO 03006KT 10SM BKN044 BKN050 OVC060 11/08 A3018 RMK AO2
KVNY 061251Z 36014KT 10SM CLR 14/M06 A3025 RMK AO2 PK WND 34028/1231 SLP237 T01441061
KVOA 061315Z AUTO 35005G12KT 10SM CLR 12/02 A3031 RMK A01
KVOK 061258Z AUTO 23008KT 10SM OVC008 M03/M03 A3016 RMK AO2 SLP231 T10311031
KVPC 061253Z AUTO 00000KT 10SM CLR M04/M06 A3040 RMK AO2 SLP295 T10441061
KVPS 061255Z 32004KT 10SM FEW015 FEW250 M00/M05 A3032 RMK AO2A SLP275 T10021045 $
KVPZ 061256Z AUTO 20005KT OVC075 M05/M06 A3030 RMK AO2 SLP272 T10501061 TSNO $
KVQQ 061250Z 03010KT 10SM CLR 06/02 A3028
KVQT 061315Z AUTO 12010KT 10SM FEW043 BKN065 OVC075 14/06 A3029 RMK A01
KVRB 061253Z 07006KT 10SM SCT041 OVC049 20/13 A3016 RMK AO2 SLP211 T02000133
KVSF 061254Z AUTO 00000KT 10SM CLR M07/M10 A3031 RMK AO2 SLP273 T10721100
KVTA 061254Z AUTO 00000KT 10SM CLR M06/M08 A3032 RMK AO2 SLP279 T10561078
KVTI 061315Z AUTO 25004KT 5SM BR OVC008 M01/M03 A3022 RMK AO2 T10071026
KVTN 061252Z AUTO 24009KT 10SM CLR M06/M09 A3009 RMK AO2 SLP225 T10611094
KVTP 061311Z AUTO 10SM CLR M12/M18 A3027 RMK AO2
KVUJ 061315Z AUTO 00000KT 10SM CLR M04/M04 A3048 RMK AO2 T10361042
KVUO 061253Z AUTO 00000KT 10SM FEW050 06/04 A3045 RMK AO2 SLP311 T00610044
KVVG 061315Z AUTO 36007KT 10SM 10/08 A3012 RMK A01
KVVV 061313Z AUTO 18006KT 10SM CLR M03/M06 A2999 RMK AO2
KVWU 061311Z AUTO 17003KT 10SM SCT065 M06/M08 A2991 RMK AO2
KVYS 061315Z AUTO 20006KT 5SM BR SCT031 M03/M04 A3029 RMK AO2 T10311040
KW13 061315Z AUTO 00000KT 10SM CLR M04/M08 A3039 RMK AO1 T10391076
KW22 061315Z AUTO 00000KT 10SM CLR M03/M09 A3033 RMK AO2
KW29 061324Z AUTO 00000KT 10SM 00/M03 A3047 RMK AO1
KW31 061315Z AUTO 00000KT 10SM CLR M03/M05 A3045 RMK AO1 T10351051
KW43 061315Z AUTO 23014KT 10SM CLR 00/M08 A3003 RMK AO2
KW63 061315Z AUTO 00000KT 10SM CLR M03/M03 A3046 RMK AO1
KW75 061312Z AUTO 00000KT 10SM CLR M01/M02 A3048 RMK AO2
KW78 061315Z AUTO 00000KT 10SM CLR M03/M04 A3046 RMK AO1 T10351041
KW81 061315Z AUTO 00000KT 10SM CLR M05/M05 A3046 RMK AO1 T10471047
KW96 061315Z AUTO 10SM CLR M03/M05 A3047 RMK AO1 T10321050
KW99 061315Z AUTO 00000KT 10SM CLR M05/M06 A3041 RMK AO2 T10521065
KWAL 061254Z AUTO 35003KT 10SM CLR M01/M05 A3048 RMK AO2 SLP316 T10061050
KWDG 061250Z 35010KT 10SM FEW150 00/M02 A3032
KWDR 061315Z AUTO 00000KT 10SM CLR 00/M06 A3041 RMK AO1
KWJF 061256Z AUTO 29003KT 10SM CLR M03/M06 A3042 RMK AO2 SLP313 T10281056
KWLD 061254Z AUTO 34004KT 10SM CLR M04/M06 A3033 RMK AO2 SLP279 T10391056
KWMC 061256Z AUTO 04006KT 10SM FEW120 M03/M06 A3047 RMK AO2 SLP340 T10331056
KWRB 061258Z AUTO 09004KT 10SM CLR 03/M05 A3034 RMK AO2 SLP278 T00311054
KWRI 061258Z AUTO 20002KT 10SM CLR M06/M06 A3041 RMK AO2 SLP299 T10611061
KWRL 061253Z AUTO 00000KT 10SM CLR M08/M11 A3020 RMK AO2 SLP280 T10831106
KWST 061253Z AUTO 00000KT 10SM CLR M07/M07 A3041 RMK AO2 SLP298 T10721072
KWVI 061253Z AUTO 31003KT 10SM CLR 07/04 A3037 RMK AO2 SLP284 T00670039
KWVL 061256Z AUTO 21004KT 10SM CLR M09/M11 A3025 RMK AO2 SLP283 T10891111 FZRANO
KWWD 061315Z AUTO 00000KT 10SM CLR M02/M05 A3047 RMK AO1
KWWR 061315Z AUTO 28008KT 10SM CLR M05/M08 A3037 RMK AO2
KX60 061315Z AUTO 7SM BKN060 10/05 A3024 RMK AO1 TSNO
KXBP 061315Z AUTO 32012G16KT 10SM CLR 03/M01 A3031 RMK AO2 T00251009
KXIH 061320Z AUTO 21004KT 10SM BKN046 BKN060 BKN110 14/06 A3028 RMK A01
KXLL 061315Z AUTO 00000KT 10SM CLR M03/M05 A3043 RMK AO2
KXMR 061258Z AUTO 06006KT 10SM SCT070 18/12 A3016 RMK AO2 SLP216 T01770124 $
KXNA 061253Z 09003KT 10SM SCT055 M01/M06 A3030 RMK AO2 SLP265 T10111056
KXPY 061315Z AUTO 03009KT 10SM CLR 09/04 A3033 RMK A01
KXSA 061315Z AUTO 00000KT 10SM CLR M03/M04 A3048 RMK AO2 T10331037
KXVG 061316Z AUTO 14004KT 7SM SCT008 BKN110 M07/M08 A2997 RMK AO2
KY19 061315Z AUTO 24009G14KT 10SM FEW032 01/M04 A2984 RMK AO2
KY23 061315Z AUTO 25003KT 10SM OVC014 M04/M06 A3011 RMK AO2 T10451063
KY49 061315Z AUTO 20005KT 10SM OVC110 M06/M08 A2993 RMK AO2 T10621077
KY50 061256Z AUTO 25006KT 9SM OVC011 M03/M05 A3018 RMK AO2 TSNO T10331050 SLP228
KY51 061315Z AUTO 24011KT 4SM OVC005 M03/M03 A3015 RMK AO1 T10321032
KY63 061319Z AUTO 17010KT 10SM CLR M07/M08 A2997 RMK AO2 T10711076
KY70 061313Z AUTO 21006KT 5SM BR OVC100 M03/M05 A3022 RMK AO2 T10311046
KYIP 061253Z 22006KT 8SM BKN070 M03/M07 A3029 RMK AO2 SLP261 T10331072
KYKM 061253Z AUTO 31005KT 10SM CLR 03/M03 A3029 RMK AO2 SLP264 T00281033 $
KYKN 061315Z AUTO 16005KT 10SM CLR M08/M09 A3015 RMK AO1
KYNG 061251Z 23006KT 10SM SCT055 BKN250 M03/M08 A3028 RMK AO2 SLP268 T10281078
KZPH 061335Z AUTO 03008KT 10SM SCT050 SCT060 09/06 A3021 RMK AO2 T00900056
KZZV 061253Z AUTO 20004KT 10SM CLR M02/M09 A3032 RMK AO2 SLP276 T10171089